LX2119 / HB-ION 7700 Squawk Report (15th of June, 2019)

Aircraft A321 Reg No. HB-ION Age 6 years old
Model A321 Jet engines 2 First flight 17-04-13
Registered 25-04-13 Rollout 04-13 Delivered 25-04-13
Construction No. 5567 Line No. N/A Series 212
ADSHEX 4B1699 Airline name Swiss International Air Lines Owner N/A
Airfield based Zurich-Kloten~Zurich~HB First tracked 2017-07-13 08:00:00

Flight history for HB-ION

Route Flight No Date Playback
Zurich (ZRH) - Geneve Cointrin (GVA) LX2816 2019-07-23 20:02:00
Schwechat (VIE) - Zurich (ZRH) LX1583 2019-07-23 18:22:00
Zurich (ZRH) - Schwechat (VIE) LX1582 2019-07-23 16:22:00
Schiphol (AMS) - Zurich (ZRH) LX729 2019-07-23 15:12:00
Zurich (ZRH) - Schiphol (AMS) LX728 2019-07-23 13:23:00
Venezia Tessera (VCE) - Zurich (ZRH) LX1661 2019-07-23 09:53:00
Zurich (ZRH) - Venezia Tessera (VCE) LX1660 2019-07-23 08:48:00
Barcelona–El Prat (BCN) - Zurich (ZRH) LX1951 2019-07-23 06:07:00
Zurich (ZRH) - Barcelona–El Prat (BCN) LX1950 2019-07-22 20:50:00
Eleftherios Venizelos Intl (ATH) - Zurich (ZRH) LX1839 2019-07-22 17:51:00
Zurich (ZRH) - Eleftherios Venizelos Intl (ATH) LX1838 2019-07-22 15:18:00
Arlanda (ARN) - Zurich (ZRH) LX1249 2019-07-22 10:20:00
Zurich (ZRH) - Arlanda (ARN) LX1248 2019-07-22 07:15:00
Ibiza (IBZ) - Zurich (ZRH) WK267 2019-07-21 20:48:00
Zurich (ZRH) - Ibiza (IBZ) WK266 2019-07-21 19:09:00
Valencia (VLC) - Zurich (ZRH) LX2143 2019-07-21 14:50:00
Zurich (ZRH) - Valencia (VLC) LX2142 2019-07-21 12:57:00
Geneve Cointrin (GVA) - Zurich (ZRH) LX2807 2019-07-21 09:50:00
Zurich (ZRH) - Geneve Cointrin (GVA) LX2802 2019-07-21 06:29:00
Porto (OPO) - Zurich (ZRH) LX2069 2019-07-21 04:58:00
Time Lat Lon Altitude Heading Speed Vertical Rate
2019-06-15 21:24:50 GMT 47.453453 8.558086 0 5 1 0
2019-06-15 21:24:43 GMT 47.453430 8.558086 0 5 3 0
2019-06-15 21:24:35 GMT 47.453304 8.558068 0 5 6 0
2019-06-15 21:24:32 GMT 47.453220 8.558050 0 5 6 0
2019-06-15 21:24:24 GMT 47.453072 8.558033 0 8 6 0
2019-06-15 21:24:21 GMT 47.453018 8.558023 0 8 6 0
2019-06-15 21:24:13 GMT 47.452850 8.558015 0 25 7 0
2019-06-15 21:24:08 GMT 47.452709 8.558006 0 95 12 0
2019-06-15 21:24:05 GMT 47.452629 8.557903 0 78 7 0
2019-06-15 21:24:00 GMT 47.452629 8.557645 0 95 10 0
2019-06-15 21:23:55 GMT 47.452641 8.557381 0 95 12 0
2019-06-15 21:23:50 GMT 47.452721 8.556238 0 95 15 0
2019-06-15 21:23:40 GMT 47.452744 8.555885 0 101 15 0
2019-06-15 21:23:36 GMT 47.452801 8.555515 0 115 15 0
2019-06-15 21:23:32 GMT 47.452892 8.555260 0 154 10 0
2019-06-15 21:23:28 GMT 47.453033 8.554881 0 120 15 0
2019-06-15 21:23:19 GMT 47.453480 8.554089 0 151 16 0
2019-06-15 21:23:08 GMT 47.454185 8.553577 0 154 19 0
2019-06-15 21:23:00 GMT 47.454792 8.553173 0 154 17 0
2019-06-15 21:22:57 GMT 47.454987 8.553028 0 154 17 0
2019-06-15 21:22:52 GMT 47.455353 8.552786 0 154 15 0
2019-06-15 21:22:46 GMT 47.455696 8.552547 0 154 14 0
2019-06-15 21:22:41 GMT 47.455933 8.552381 0 154 13 0
2019-06-15 21:22:36 GMT 47.456245 8.552170 0 154 11 0
2019-06-15 21:22:28 GMT 47.456573 8.551941 0 154 10 0
2019-06-15 21:22:25 GMT 47.456715 8.551835 0 154 10 0
2019-06-15 21:22:21 GMT 47.456806 8.551758 0 154 10 0
2019-06-15 21:22:17 GMT 47.456955 8.551655 0 154 10 0
2019-06-15 21:22:12 GMT 47.457176 8.551518 0 154 10 0
2019-06-15 21:22:07 GMT 47.457363 8.551378 0 154 9 0
2019-06-15 21:22:03 GMT 47.457539 8.551272 0 165 9 0
2019-06-15 21:22:00 GMT 47.457653 8.551226 0 182 8 0
2019-06-15 21:21:56 GMT 47.457737 8.551237 0 208 7 0
2019-06-15 21:21:52 GMT 47.457890 8.551254 0 208 9 0
2019-06-15 21:21:49 GMT 47.457981 8.551342 0 272 14 0
2019-06-15 21:21:46 GMT 47.457947 8.551694 0 272 33 0
2019-06-15 21:21:42 GMT 47.457859 8.552788 0 275 57 0
2019-06-15 21:21:36 GMT 47.457630 8.555861 0 275 105 0
2019-06-15 21:21:30 GMT 47.457317 8.560269 1,175 275 140 0
2019-06-15 21:21:24 GMT 47.456955 8.565285 1,175 277 150 0
2019-06-15 21:21:21 GMT 47.456699 8.568913 1,175 277 150 -704
2019-06-15 21:21:18 GMT 47.456516 8.571378 1,225 276 150 -832
2019-06-15 21:21:15 GMT 47.456314 8.574692 1,275 277 150 -832
2019-06-15 21:21:10 GMT 47.455864 8.580815 1,325 277 150 -896
2019-06-15 21:21:06 GMT 47.455627 8.584305 1,425 277 150 -896
2019-06-15 21:21:01 GMT 47.455307 8.588562 1,550 277 150 -896
2019-06-15 21:20:58 GMT 47.455025 8.592647 1,600 277 149 -832
2019-06-15 21:20:55 GMT 47.454803 8.595703 1,575 276 149 -832
2019-06-15 21:20:51 GMT 47.454529 8.599548 1,625 276 149 -832
2019-06-15 21:20:47 GMT 47.454185 8.604478 1,675 277 149 -896
2019-06-15 21:20:44 GMT 47.454094 8.605464 1,725 277 149 -960
2019-06-15 21:20:41 GMT 47.453815 8.609337 1,775 277 149 -960
2019-06-15 21:20:36 GMT 47.453430 8.614586 1,850 277 148 -960
2019-06-15 21:20:30 GMT 47.453018 8.620010 1,950 276 147 -1024
2019-06-15 21:20:25 GMT 47.452652 8.625676 2,025 276 146 -960
2019-06-15 21:20:20 GMT 47.452374 8.629620 2,100 276 144 -896
2019-06-15 21:20:17 GMT 47.452091 8.633352 2,150 276 143 -896
2019-06-15 21:20:14 GMT 47.451904 8.636240 2,175 276 143 -896
2019-06-15 21:20:10 GMT 47.451626 8.640325 2,250 276 142 -896
2019-06-15 21:20:05 GMT 47.451279 8.645760 2,325 277 141 -832
2019-06-15 21:19:58 GMT 47.450775 8.652901 2,425 277 141 -640
2019-06-15 21:19:54 GMT 47.450500 8.656334 2,475 277 144 -704
2019-06-15 21:19:47 GMT 47.449997 8.662857 2,525 277 148 -832
2019-06-15 21:19:44 GMT 47.449814 8.665466 2,575 277 148 -768
2019-06-15 21:19:39 GMT 47.449299 8.672016 2,675 277 162 -960
2019-06-15 21:19:35 GMT 47.449081 8.675354 2,725 276 155 -896
2019-06-15 21:19:32 GMT 47.448975 8.677016 2,750 276 155 -832
2019-06-15 21:19:28 GMT 47.448624 8.682083 2,825 276 156 -960
2019-06-15 21:19:23 GMT 47.448303 8.686958 3,025 276 159 -896
2019-06-15 21:19:18 GMT 47.447800 8.694305 3,125 277 162 -960
2019-06-15 21:19:12 GMT 47.447388 8.699799 3,625 277 170 -1024
2019-06-15 21:19:07 GMT 47.446972 8.704975 3,150 277 168 -832
2019-06-15 21:19:02 GMT 47.446564 8.710922 3,225 276 173 -1216
2019-06-15 21:18:59 GMT 47.446289 8.714218 3,275 276 174 -1152
2019-06-15 21:18:56 GMT 47.446014 8.718269 3,325 276 175 -1088
2019-06-15 21:18:53 GMT 47.445343 8.727581 3,550 276 177 -1216
2019-06-15 21:18:48 GMT 47.445343 8.727581 3,475 276 177 -1216
2019-06-15 21:18:45 GMT 47.445145 8.730492 3,525 276 178 -1280
2019-06-15 21:18:42 GMT 47.444870 8.734612 3,825 277 180 -1216
2019-06-15 21:18:39 GMT 47.444550 8.739281 3,675 277 180 -1152
2019-06-15 21:18:32 GMT 47.443954 8.747314 3,825 276 183 -832
2019-06-15 21:18:29 GMT 47.443680 8.751091 3,825 276 183 -832
2019-06-15 21:18:26 GMT 47.443386 8.755329 3,875 276 186 -896
2019-06-15 21:18:23 GMT 47.442902 8.762489 3,925 277 189 -1152
2019-06-15 21:18:20 GMT 47.442902 8.762489 3,975 277 189 -1280
2019-06-15 21:18:17 GMT 47.442673 8.765511 4,150 277 191 -1216
2019-06-15 21:18:13 GMT 47.442261 8.770935 4,100 277 190 -1216
2019-06-15 21:18:10 GMT 47.441940 8.775330 4,150 277 191 -1216
2019-06-15 21:18:07 GMT 47.441666 8.778710 4,200 276 192 -1152
2019-06-15 21:18:04 GMT 47.441391 8.782883 4,275 276 193 -1152
2019-06-15 21:18:01 GMT 47.441013 8.788077 4,350 277 194 -1344
2019-06-15 21:17:55 GMT 47.440521 8.794693 4,475 278 194 -1600
2019-06-15 21:17:52 GMT 47.440174 8.798640 4,550 278 193 -1664
2019-06-15 21:17:49 GMT 47.439926 8.801765 4,600 278 193 -1664
2019-06-15 21:17:45 GMT 47.439285 8.808838 4,750 278 193 -832
2019-06-15 21:17:39 GMT 47.438641 8.816669 4,800 278 194 0
2019-06-15 21:17:34 GMT 47.438221 8.822303 4,800 275 201 0
2019-06-15 21:17:31 GMT 47.437943 8.826670 4,800 275 202 0
2019-06-15 21:17:23 GMT 47.437500 8.837265 4,800 274 205 0
2019-06-15 21:17:18 GMT 47.437317 8.852028 4,800 270 211 0
2019-06-15 21:17:13 GMT 47.437317 8.852028 4,800 269 214 64
2019-06-15 21:17:07 GMT 47.437408 8.859924 4,800 268 219 64
2019-06-15 21:17:03 GMT 47.437546 8.866241 4,800 266 223 0
2019-06-15 21:16:58 GMT 47.438187 8.875648 4,800 259 229 -256
2019-06-15 21:16:55 GMT 47.438644 8.879356 4,800 255 231 -448
2019-06-15 21:16:52 GMT 47.439384 8.882939 4,800 249 235 -640
2019-06-15 21:16:48 GMT 47.441479 8.890334 4,850 245 238 -768
2019-06-15 21:16:45 GMT 47.442627 8.893913 4,875 244 239 -832
2019-06-15 21:16:42 GMT 47.443497 8.896523 4,900 243 241 -896
2019-06-15 21:16:35 GMT 47.447708 8.907784 5,000 235 248 -1472
2019-06-15 21:16:32 GMT 47.449722 8.911972 5,050 230 251 -1728
2019-06-15 21:16:25 GMT 47.455902 8.920830 5,225 216 256 -2496
2019-06-15 21:16:22 GMT 47.459030 8.924068 5,325 208 256 -2944
2019-06-15 21:16:15 GMT 47.466663 8.928927 5,700 197 256 -2816
2019-06-15 21:16:12 GMT 47.469635 8.930099 5,725 193 256 -2688
2019-06-15 21:16:05 GMT 47.478149 8.932159 6,050 188 259 -2368
2019-06-15 21:16:01 GMT 47.482956 8.933052 6,150 187 259 -2240
2019-06-15 21:15:53 GMT 47.492340 8.934151 6,500 179 261 -2496
2019-06-15 21:15:44 GMT 47.503555 8.932503 6,825 165 266 -2496
2019-06-15 21:15:40 GMT 47.507862 8.930758 6,950 162 269 -2304
2019-06-15 21:15:32 GMT 47.517124 8.926321 7,250 161 271 -2176
2019-06-15 21:15:29 GMT 47.520432 8.924701 7,375 161 271 -2176
2019-06-15 21:15:20 GMT 47.531929 8.918997 7,800 161 274 -2240
2019-06-15 21:15:12 GMT 47.542545 8.913856 8,050 162 276 -2176
2019-06-15 21:15:08 GMT 47.546677 8.911903 8,175 162 277 -2176
2019-06-15 21:15:05 GMT 47.550064 8.910324 8,250 162 278 -2176
2019-06-15 21:15:02 GMT 47.553772 8.908607 8,375 162 278 -2176
2019-06-15 21:14:58 GMT 47.558899 8.906204 8,550 162 279 -2176
2019-06-15 21:14:55 GMT 47.562141 8.904771 8,600 162 280 -2240
2019-06-15 21:14:51 GMT 47.568798 8.901672 8,750 163 281 -2240
2019-06-15 21:14:48 GMT 47.572060 8.900264 8,825 163 282 -2304
2019-06-15 21:14:44 GMT 47.575058 8.898857 9,000 163 282 -2240
2019-06-15 21:14:41 GMT 47.579552 8.896883 9,100 163 284 -2240
2019-06-15 21:14:38 GMT 47.584068 8.894841 9,200 163 284 -2240
2019-06-15 21:14:34 GMT 47.588882 8.892746 9,425 163 286 -2112
2019-06-15 21:14:30 GMT 47.593918 8.890480 9,500 163 287 -1920
2019-06-15 21:14:27 GMT 47.597763 8.888763 9,525 163 287 -1920
2019-06-15 21:14:23 GMT 47.603436 8.886320 9,750 163 292 -1728
2019-06-15 21:14:20 GMT 47.607063 8.884700 9,800 163 293 -1664
2019-06-15 21:14:17 GMT 47.610695 8.883080 9,850 163 294 -1600
2019-06-15 21:14:12 GMT 47.617306 8.880263 10,000 163 299 -1280
2019-06-15 21:14:08 GMT 47.628937 8.875237 10,150 163 309 -1344
2019-06-15 21:14:04 GMT 47.633102 8.873451 10,200 163 312 -2048
2019-06-15 21:14:01 GMT 47.635849 8.872284 10,300 163 313 -2752
2019-06-15 21:13:55 GMT 47.640289 8.870224 10,500 161 308 -2752
2019-06-15 21:13:48 GMT 47.649754 8.865615 10,775 159 317 -2432
2019-06-15 21:13:45 GMT 47.655014 8.862586 10,950 152 311 -2368
2019-06-15 21:13:40 GMT 47.661114 8.858079 11,100 151 320 -2304
2019-06-15 21:13:37 GMT 47.664742 8.855051 11,200 146 322 -2112
2019-06-15 21:13:34 GMT 47.669956 8.849839 11,375 143 325 -1728
2019-06-15 21:13:30 GMT 47.673401 8.846177 11,375 143 325 -1728
2019-06-15 21:13:27 GMT 47.677277 8.842003 11,550 143 325 -1600
2019-06-15 21:13:22 GMT 47.682861 8.835892 11,850 143 327 -1088
2019-06-15 21:13:18 GMT 47.691833 8.826073 11,825 143 327 -1024
2019-06-15 21:13:12 GMT 47.696259 8.821247 11,875 143 329 -768
2019-06-15 21:13:06 GMT 47.703102 8.813782 11,950 143 330 -320
2019-06-15 21:13:01 GMT 47.708271 8.808148 11,975 143 331 -64
2019-06-15 21:12:55 GMT 47.716644 8.799019 12,000 157 324 0
2019-06-15 21:12:51 GMT 47.721863 8.793320 12,000 143 331 0
2019-06-15 21:12:47 GMT 47.728775 8.785835 12,000 143 330 0
2019-06-15 21:12:44 GMT 47.734154 8.779907 12,000 157 324 0
2019-06-15 21:12:40 GMT 47.734154 8.779907 12,000 143 329 -64
2019-06-15 21:12:37 GMT 47.739578 8.774025 12,000 143 328 -64
2019-06-15 21:12:34 GMT 47.741508 8.771879 12,000 143 328 -64
2019-06-15 21:12:29 GMT 47.749050 8.763639 12,000 143 326 -64
2019-06-15 21:12:24 GMT 47.754868 8.757202 12,000 157 324 0
2019-06-15 21:12:20 GMT 47.758499 8.753216 12,000 143 325 0
2019-06-15 21:12:17 GMT 47.761642 8.749786 12,000 143 324 64
2019-06-15 21:12:13 GMT 47.767483 8.743497 12,000 144 326 64
2019-06-15 21:12:08 GMT 47.774414 8.736465 12,000 149 327 64
2019-06-15 21:12:03 GMT 47.781776 8.730257 12,000 156 329 -64
2019-06-15 21:11:58 GMT 47.787186 8.726303 12,000 156 329 -64
2019-06-15 21:11:55 GMT 47.795563 8.720947 12,000 157 327 0
2019-06-15 21:11:51 GMT 47.800873 8.717720 12,000 157 326 0
2019-06-15 21:11:48 GMT 47.800873 8.717720 12,000 157 325 0
2019-06-15 21:11:44 GMT 47.806450 8.714271 12,000 157 325 0
2019-06-15 21:11:41 GMT 47.812592 8.710510 12,000 157 325 0
2019-06-15 21:11:37 GMT 47.817574 8.707440 12,000 157 324 0
2019-06-15 21:11:34 GMT 47.820648 8.705566 12,000 157 324 0
2019-06-15 21:11:31 GMT 47.824230 8.703355 12,000 157 324 0
2019-06-15 21:11:28 GMT 47.828430 8.700829 12,000 157 324 0
2019-06-15 21:11:24 GMT 47.834793 8.696915 12,000 157 325 0
2019-06-15 21:11:21 GMT 47.839005 8.694374 12,000 157 325 0
2019-06-15 21:11:18 GMT 47.842300 8.692383 12,000 157 324 0
2019-06-15 21:11:14 GMT 47.849556 8.687932 12,000 157 324 -64
2019-06-15 21:11:11 GMT 47.852581 8.686101 12,000 157 324 -64
2019-06-15 21:11:08 GMT 47.855934 8.684059 12,000 157 324 -64
2019-06-15 21:11:01 GMT 47.865921 8.677963 12,000 157 324 -64
2019-06-15 21:10:57 GMT 47.871185 8.674736 12,000 157 324 -64
2019-06-15 21:10:53 GMT 47.881210 8.668565 12,000 157 326 -64
2019-06-15 21:10:47 GMT 47.893478 8.661072 12,025 157 326 -128
2019-06-15 21:10:42 GMT 47.893478 8.661072 12,025 157 326 -384
2019-06-15 21:10:36 GMT 47.900715 8.656663 12,050 157 326 -832
2019-06-15 21:10:32 GMT 47.906582 8.653071 12,100 157 326 -1024
2019-06-15 21:10:29 GMT 47.912449 8.649480 12,225 157 325 -1088
2019-06-15 21:10:26 GMT 47.914948 8.647957 12,175 157 326 -896
2019-06-15 21:10:23 GMT 47.919708 8.645073 12,400 157 325 -1088
2019-06-15 21:10:20 GMT 47.924194 8.642326 12,300 157 326 -896
2019-06-15 21:10:16 GMT 47.928368 8.639761 12,350 157 326 -960
2019-06-15 21:10:13 GMT 47.934540 8.636009 12,425 157 326 -1024
2019-06-15 21:10:09 GMT 47.938980 8.633282 12,450 157 326 -1024
2019-06-15 21:10:05 GMT 47.944016 8.630241 12,500 157 326 -1088
2019-06-15 21:10:02 GMT 47.949051 8.627151 12,575 157 326 -1088
2019-06-15 21:09:59 GMT 47.953506 8.624408 12,650 157 326 -1152
2019-06-15 21:09:56 GMT 47.963840 8.618141 12,775 157 325 -1152
2019-06-15 21:09:51 GMT 47.963840 8.618141 12,775 157 325 -1152
2019-06-15 21:09:48 GMT 47.967751 8.615676 12,850 157 325 -1152
2019-06-15 21:09:44 GMT 47.973011 8.612436 12,850 157 325 -1152
2019-06-15 21:09:40 GMT 47.985302 8.604901 13,050 157 325 -1024
2019-06-15 21:09:33 GMT 47.989197 8.602501 13,200 157 326 -960
2019-06-15 21:09:28 GMT 47.996979 8.597694 13,300 157 326 -960
2019-06-15 21:09:25 GMT 48.000320 8.595634 13,225 157 326 -960
2019-06-15 21:09:21 GMT 48.006481 8.591872 13,275 157 331 -896
2019-06-15 21:09:18 GMT 48.011791 8.588632 13,325 157 328 -960
2019-06-15 21:09:15 GMT 48.014877 8.586708 13,375 157 329 -896
2019-06-15 21:09:11 GMT 48.020782 8.583069 13,400 157 330 -896
2019-06-15 21:09:07 GMT 48.025314 8.580254 13,500 157 332 -896
2019-06-15 21:09:04 GMT 48.029297 8.577850 13,650 157 335 -896
2019-06-15 21:09:01 GMT 48.034149 8.574829 13,550 157 335 -832
2019-06-15 21:08:58 GMT 48.036987 8.573044 13,625 157 336 -896
2019-06-15 21:08:55 GMT 48.043030 8.569336 13,675 157 338 -896
2019-06-15 21:08:52 GMT 48.047634 8.566449 13,700 157 343 -1024
2019-06-15 21:08:47 GMT 48.054611 8.562195 13,800 157 340 -960
2019-06-15 21:08:44 GMT 48.057831 8.560181 14,000 157 346 -1088
2019-06-15 21:08:41 GMT 48.062759 8.557182 14,775 157 346 -1088
2019-06-15 21:08:36 GMT 48.069794 8.552856 13,950 157 343 -1024
2019-06-15 21:08:33 GMT 48.074169 8.550110 14,150 157 345 -1088
2019-06-15 21:08:30 GMT 48.080315 8.546307 14,075 157 344 -1088
2019-06-15 21:08:27 GMT 48.088882 8.541025 14,125 157 345 -1088
2019-06-15 21:08:24 GMT 48.088882 8.541025 14,150 157 345 -1088
2019-06-15 21:08:21 GMT 48.091534 8.539405 14,200 157 346 -1088
2019-06-15 21:08:18 GMT 48.096561 8.536307 14,275 157 346 -1088
2019-06-15 21:08:15 GMT 48.100708 8.533768 14,350 157 346 -1088
2019-06-15 21:08:11 GMT 48.106895 8.529968 14,500 157 346 -960
2019-06-15 21:08:07 GMT 48.113983 8.525597 14,475 157 346 -1024
2019-06-15 21:08:04 GMT 48.117828 8.523193 14,500 157 346 -1024
2019-06-15 21:08:01 GMT 48.123142 8.519897 14,550 157 346 -960
2019-06-15 21:07:58 GMT 48.131744 8.514679 14,775 157 346 -1088
2019-06-15 21:07:55 GMT 48.131744 8.514679 14,650 157 346 -960
2019-06-15 21:07:52 GMT 48.138226 8.510672 14,725 157 346 -960
2019-06-15 21:07:46 GMT 48.144150 8.506989 14,775 157 346 -960
2019-06-15 21:07:43 GMT 48.148605 8.504263 14,850 157 346 -960
2019-06-15 21:07:40 GMT 48.153633 8.501164 14,875 157 345 -960
2019-06-15 21:07:33 GMT 48.162781 8.495460 15,000 157 345 -1024
2019-06-15 21:07:30 GMT 48.167816 8.492361 15,025 157 345 -1024
2019-06-15 21:07:27 GMT 48.172211 8.489615 15,075 157 345 -1024
2019-06-15 21:07:23 GMT 48.177521 8.486305 15,200 157 345 -1024
2019-06-15 21:07:20 GMT 48.182869 8.482963 15,250 157 346 -1088
2019-06-15 21:07:17 GMT 48.187290 8.480217 15,250 157 345 -1088
2019-06-15 21:07:14 GMT 48.191994 8.477325 15,300 157 346 -1088
2019-06-15 21:07:10 GMT 48.200867 8.471797 15,400 157 346 -1088
2019-06-15 21:07:07 GMT 48.200867 8.471797 15,450 157 346 -1088
2019-06-15 21:07:04 GMT 48.205582 8.468910 15,475 157 346 -1088
2019-06-15 21:07:01 GMT 48.210022 8.466163 15,525 157 346 -1088
2019-06-15 21:06:58 GMT 48.214199 8.463593 15,675 157 346 -1088
2019-06-15 21:06:54 GMT 48.222473 8.458416 15,675 157 346 -1088
2019-06-15 21:06:51 GMT 48.225742 8.456437 15,725 157 346 -1088
2019-06-15 21:06:47 GMT 48.231628 8.452712 15,775 157 346 -1024
2019-06-15 21:06:44 GMT 48.235794 8.450177 15,850 157 346 -1024
2019-06-15 21:06:41 GMT 48.239914 8.447571 15,900 157 346 -960
2019-06-15 21:06:38 GMT 48.244354 8.444824 16,275 157 346 -960
2019-06-15 21:06:34 GMT 48.255028 8.438223 16,250 157 347 -960
2019-06-15 21:06:31 GMT 48.255028 8.438223 16,100 157 346 -960
2019-06-15 21:06:28 GMT 48.260330 8.434894 16,150 157 346 -960
2019-06-15 21:06:24 GMT 48.270721 8.428415 16,250 157 347 -960
2019-06-15 21:06:21 GMT 48.270721 8.428415 16,225 157 346 -960
2019-06-15 21:06:18 GMT 48.273369 8.426731 16,350 157 347 -960
2019-06-15 21:06:15 GMT 48.278137 8.423838 16,300 157 347 -960
2019-06-15 21:06:12 GMT 48.282257 8.421232 16,325 157 347 -960
2019-06-15 21:06:08 GMT 48.289673 8.416584 16,450 157 348 -1088
2019-06-15 21:06:04 GMT 48.303066 8.408299 16,650 157 349 -1088
2019-06-15 21:06:00 GMT 48.303066 8.408299 16,575 157 349 -1088
2019-06-15 21:05:57 GMT 48.305161 8.406998 16,625 157 349 -1088
2019-06-15 21:05:54 GMT 48.309631 8.404180 16,650 157 350 -1088
2019-06-15 21:05:49 GMT 48.318008 8.399048 16,750 157 350 -1088
2019-06-15 21:05:46 GMT 48.321899 8.396583 16,850 157 351 -960
2019-06-15 21:05:42 GMT 48.329407 8.391935 16,875 157 351 -768
2019-06-15 21:05:39 GMT 48.334213 8.388977 16,925 157 351 -512
2019-06-15 21:05:36 GMT 48.341125 8.384681 17,000 157 348 64
2019-06-15 21:05:30 GMT 48.345615 8.381918 17,000 157 349 0
2019-06-15 21:05:26 GMT 48.350689 8.378738 17,000 157 348 0
2019-06-15 21:05:23 GMT 48.355179 8.375948 17,000 157 347 64
2019-06-15 21:05:19 GMT 48.363190 8.370948 17,000 157 346 -64
2019-06-15 21:05:15 GMT 48.372025 8.365455 17,000 157 345 0
2019-06-15 21:05:09 GMT 48.377644 8.361897 17,000 157 345 -64
2019-06-15 21:05:05 GMT 48.382950 8.358644 17,000 157 345 0
2019-06-15 21:05:02 GMT 48.385895 8.356793 17,000 157 345 0
2019-06-15 21:04:59 GMT 48.390305 8.354018 17,000 157 344 0
2019-06-15 21:04:56 GMT 48.396194 8.350384 17,000 157 344 0
2019-06-15 21:04:52 GMT 48.402084 8.346718 17,000 157 344 0
2019-06-15 21:04:49 GMT 48.407066 8.343610 17,000 157 344 0
2019-06-15 21:04:46 GMT 48.410603 8.341370 17,000 157 344 0
2019-06-15 21:04:43 GMT 48.413818 8.339398 17,000 157 344 0
2019-06-15 21:04:40 GMT 48.420284 8.335371 17,000 157 344 0
2019-06-15 21:04:37 GMT 48.423824 8.333130 17,000 157 344 0
2019-06-15 21:04:34 GMT 48.429108 8.329820 17,000 157 344 0
2019-06-15 21:04:31 GMT 48.436768 8.325035 17,000 157 346 0
2019-06-15 21:04:28 GMT 48.442959 8.321132 17,000 157 346 0
2019-06-15 21:04:25 GMT 48.442959 8.321132 17,000 157 346 0
2019-06-15 21:04:21 GMT 48.447704 8.318168 17,000 157 346 0
2019-06-15 21:04:17 GMT 48.451847 8.315566 17,000 157 347 0
2019-06-15 21:04:14 GMT 48.457481 8.312025 17,000 157 348 64
2019-06-15 21:04:11 GMT 48.462231 8.309061 17,000 157 348 0
2019-06-15 21:04:07 GMT 48.473831 8.301791 17,000 157 348 0
2019-06-15 21:04:04 GMT 48.473831 8.301791 17,000 157 348 0
2019-06-15 21:04:01 GMT 48.478615 8.298798 17,000 157 348 0
2019-06-15 21:03:58 GMT 48.483078 8.296016 17,000 157 348 0
2019-06-15 21:03:55 GMT 48.485737 8.294389 17,000 157 348 0
2019-06-15 21:03:52 GMT 48.491684 8.290663 17,000 157 349 0
2019-06-15 21:03:46 GMT 48.499470 8.285787 17,000 196 345 64
2019-06-15 21:03:43 GMT 48.505428 8.282029 17,000 157 348 0
2019-06-15 21:03:40 GMT 48.508083 8.280367 17,000 157 348 -64
2019-06-15 21:03:37 GMT 48.512558 8.277635 17,000 157 348 64
2019-06-15 21:03:34 GMT 48.517593 8.274466 17,000 157 348 64
2019-06-15 21:03:31 GMT 48.522354 8.271508 17,000 157 347 0
2019-06-15 21:03:24 GMT 48.532478 8.265260 17,000 157 347 0
2019-06-15 21:03:20 GMT 48.538109 8.261719 17,000 157 347 0
2019-06-15 21:03:17 GMT 48.542862 8.258761 17,000 157 346 -64
2019-06-15 21:03:14 GMT 48.548767 8.255099 17,000 157 347 0
2019-06-15 21:03:11 GMT 48.554123 8.251744 17,000 157 346 -64
2019-06-15 21:03:08 GMT 48.556499 8.250299 17,000 157 346 -64
2019-06-15 21:03:04 GMT 48.562691 8.246468 17,000 157 346 -64
2019-06-15 21:02:59 GMT 48.568909 8.242563 17,025 157 346 -64
2019-06-15 21:02:54 GMT 48.576874 8.237563 17,025 157 346 0
2019-06-15 21:02:51 GMT 48.582504 8.234042 17,025 157 347 64
2019-06-15 21:02:48 GMT 48.585453 8.232157 17,025 158 346 192
2019-06-15 21:02:43 GMT 48.592621 8.227892 17,000 196 345 64
2019-06-15 21:02:38 GMT 48.600208 8.224062 17,000 171 346 64
2019-06-15 21:02:35 GMT 48.605240 8.222399 17,000 174 346 64
2019-06-15 21:02:32 GMT 48.609985 8.221460 17,000 174 346 64
2019-06-15 21:02:28 GMT 48.617020 8.220943 17,000 187 345 0
2019-06-15 21:02:25 GMT 48.622421 8.221436 17,000 190 345 64
2019-06-15 21:02:22 GMT 48.630283 8.223483 17,000 199 345 64
2019-06-15 21:02:19 GMT 48.634918 8.225450 17,000 197 345 64
2019-06-15 21:02:16 GMT 48.634918 8.225450 17,000 206 345 192
2019-06-15 21:02:12 GMT 48.642334 8.229746 17,000 224 345 64
2019-06-15 21:02:08 GMT 48.646389 8.232807 17,000 211 346 192
2019-06-15 21:02:05 GMT 48.651306 8.237281 17,000 224 345 64
2019-06-15 21:02:02 GMT 48.655235 8.241481 17,000 221 345 128
2019-06-15 21:01:58 GMT 48.664078 8.254042 17,000 229 345 64
2019-06-15 21:01:54 GMT 48.664078 8.254042 17,000 233 345 64
2019-06-15 21:01:50 GMT 48.670441 8.266789 17,000 237 345 0
2019-06-15 21:01:47 GMT 48.670441 8.266789 17,000 240 345 -64
2019-06-15 21:01:43 GMT 48.674881 8.278487 17,000 244 345 0
2019-06-15 21:01:40 GMT 48.676300 8.282776 17,025 244 345 0
2019-06-15 21:01:36 GMT 48.679165 8.291425 17,000 244 345 0
2019-06-15 21:01:33 GMT 48.681026 8.297063 17,000 245 354 960
2019-06-15 21:01:29 GMT 48.684052 8.306098 17,000 245 354 960
2019-06-15 21:01:26 GMT 48.685913 8.311663 17,000 244 346 0
2019-06-15 21:01:22 GMT 48.689823 8.323372 17,000 244 351 320
2019-06-15 21:01:19 GMT 48.691681 8.329045 17,000 244 351 320
2019-06-15 21:01:16 GMT 48.693878 8.335595 17,000 244 351 384
2019-06-15 21:01:13 GMT 48.695618 8.340877 17,000 244 352 576
2019-06-15 21:01:10 GMT 48.698593 8.350102 16,950 245 354 960
2019-06-15 21:01:07 GMT 48.701340 8.359117 16,875 247 355 1216
2019-06-15 21:01:01 GMT 48.703949 8.368835 16,775 255 360 1728
2019-06-15 21:00:58 GMT 48.705605 8.376425 16,750 257 361 1984
2019-06-15 21:00:55 GMT 48.706787 8.383766 16,675 260 362 2304
2019-06-15 21:00:52 GMT 48.707466 8.389796 16,600 262 363 2624
2019-06-15 21:00:49 GMT 48.708260 8.400421 16,125 273 367 1856
2019-06-15 21:00:45 GMT 48.708397 8.407071 16,300 273 367 1856
2019-06-15 21:00:42 GMT 48.708160 8.415246 16,175 276 367 1792
2019-06-15 21:00:38 GMT 48.707336 8.425880 16,125 279 365 1792
2019-06-15 21:00:35 GMT 48.706303 8.436994 16,000 279 362 1856
2019-06-15 21:00:31 GMT 48.705734 8.442500 15,925 279 361 1856
2019-06-15 21:00:28 GMT 48.704727 8.452994 15,800 279 360 1920
2019-06-15 21:00:25 GMT 48.703835 8.462002 15,650 279 358 1984
2019-06-15 21:00:21 GMT 48.703278 8.467929 15,625 279 358 1984
2019-06-15 21:00:17 GMT 48.702114 8.479783 15,450 279 355 2112
2019-06-15 21:00:14 GMT 48.701462 8.486216 15,350 279 355 2432
2019-06-15 21:00:11 GMT 48.700836 8.492643 15,275 279 355 2496
2019-06-15 21:00:06 GMT 48.699417 8.507362 15,075 279 354 2688
2019-06-15 21:00:02 GMT 48.698593 8.516165 15,000 279 354 2688
2019-06-15 20:59:59 GMT 48.697678 8.525461 14,725 279 353 2240
2019-06-15 20:59:56 GMT 48.697041 8.531823 14,650 279 353 2240
2019-06-15 20:59:53 GMT 48.696575 8.536738 14,525 279 353 2176
2019-06-15 20:59:49 GMT 48.695435 8.548420 14,375 279 351 2112
2019-06-15 20:59:46 GMT 48.694942 8.553290 14,250 279 351 2112
2019-06-15 20:59:43 GMT 48.694153 8.561589 13,975 279 348 2560
2019-06-15 20:59:40 GMT 48.693329 8.569758 13,975 279 348 2560
2019-06-15 20:59:37 GMT 48.692780 8.575533 13,975 279 348 2560
2019-06-15 20:59:34 GMT 48.691910 8.584689 13,825 278 348 2688
2019-06-15 20:59:31 GMT 48.690708 8.597741 13,675 278 348 2880
2019-06-15 20:59:28 GMT 48.690708 8.597741 13,525 278 347 2944
2019-06-15 20:59:25 GMT 48.689987 8.606380 13,150 279 348 2112
2019-06-15 20:59:22 GMT 48.689358 8.613137 12,950 280 348 2048
2019-06-15 20:59:19 GMT 48.688797 8.618422 13,175 279 348 2176
2019-06-15 20:59:16 GMT 48.687973 8.626592 12,975 280 346 1984
2019-06-15 20:59:13 GMT 48.686844 8.637133 12,925 280 346 1856
2019-06-15 20:59:09 GMT 48.686192 8.642843 12,775 280 343 1792
2019-06-15 20:59:06 GMT 48.685455 8.649973 12,650 280 342 1728
2019-06-15 20:59:02 GMT 48.684422 8.659395 12,450 279 337 1856
2019-06-15 20:58:59 GMT 48.683807 8.665537 12,550 279 339 1856
2019-06-15 20:58:56 GMT 48.682709 8.676241 12,425 279 336 1920
2019-06-15 20:58:53 GMT 48.682140 8.681874 12,350 279 334 1984
2019-06-15 20:58:50 GMT 48.681492 8.688306 12,075 279 330 1920
2019-06-15 20:58:47 GMT 48.680695 8.696594 12,150 279 331 1984
2019-06-15 20:58:43 GMT 48.679779 8.705750 12,000 279 329 1920
2019-06-15 20:58:39 GMT 48.678928 8.714833 11,875 278 327 1856
2019-06-15 20:58:36 GMT 48.678452 8.719835 11,775 278 324 1856
2019-06-15 20:58:32 GMT 48.677582 8.729272 11,675 279 323 1920
2019-06-15 20:58:29 GMT 48.677021 8.735504 11,600 278 320 1664
2019-06-15 20:58:26 GMT 48.675484 8.751911 11,325 278 319 1536
2019-06-15 20:58:23 GMT 48.675484 8.751911 11,325 278 317 1536
2019-06-15 20:58:20 GMT 48.674553 8.762030 10,975 279 312 1344
2019-06-15 20:58:17 GMT 48.673996 8.768102 11,200 279 304 1728
2019-06-15 20:58:14 GMT 48.673996 8.768102 11,200 279 304 1728
2019-06-15 20:58:11 GMT 48.673389 8.774968 11,125 279 308 1536
2019-06-15 20:58:08 GMT 48.672787 8.781329 10,975 279 306 1664
2019-06-15 20:58:05 GMT 48.672043 8.788922 11,000 279 300 1664
2019-06-15 20:58:01 GMT 48.671158 8.798097 10,850 279 297 1280
2019-06-15 20:57:57 GMT 48.670410 8.805470 10,750 279 296 1216
2019-06-15 20:57:54 GMT 48.670166 8.808359 10,350 279 291 1344
2019-06-15 20:57:50 GMT 48.669250 8.817655 10,625 279 286 1664
2019-06-15 20:57:47 GMT 48.668407 8.826358 10,450 279 275 1216
2019-06-15 20:57:44 GMT 48.668083 8.829538 10,475 279 282 1408
2019-06-15 20:57:41 GMT 48.667248 8.838501 10,375 279 279 1280
2019-06-15 20:57:38 GMT 48.666733 8.843922 10,050 278 267 1856
2019-06-15 20:57:34 GMT 48.666092 8.850755 10,250 279 272 1216
2019-06-15 20:57:30 GMT 48.665382 8.857944 10,150 278 268 1728
2019-06-15 20:57:24 GMT 48.664490 8.867587 10,025 278 265 2112
2019-06-15 20:57:19 GMT 48.663616 8.877820 9,900 277 262 2176
2019-06-15 20:57:15 GMT 48.662979 8.885827 9,525 278 259 2368
2019-06-15 20:57:12 GMT 48.662430 8.892658 9,575 278 259 2432
2019-06-15 20:57:09 GMT 48.662155 8.895897 9,450 278 256 2816
2019-06-15 20:57:04 GMT 48.661285 8.905827 9,225 278 255 2752
2019-06-15 20:56:59 GMT 48.660542 8.914249 9,100 278 254 2752
2019-06-15 20:56:55 GMT 48.659985 8.920609 8,800 278 252 3008
2019-06-15 20:56:51 GMT 48.659317 8.928293 8,675 278 252 3520
2019-06-15 20:56:47 GMT 48.658676 8.935617 8,550 278 252 3392
2019-06-15 20:56:44 GMT 48.657532 8.949350 8,175 278 253 3584
2019-06-15 20:56:39 GMT 48.657532 8.949350 7,975 277 254 3520
2019-06-15 20:56:35 GMT 48.657097 8.955303 7,775 277 256 3392
2019-06-15 20:56:28 GMT 48.656120 8.968891 7,375 276 257 3200
2019-06-15 20:56:25 GMT 48.655884 8.972802 7,250 276 257 3072
2019-06-15 20:56:16 GMT 48.654648 8.990690 6,725 277 257 3008
2019-06-15 20:56:07 GMT 48.653606 9.005681 6,225 276 256 2752
2019-06-15 20:56:03 GMT 48.653137 9.012803 6,150 275 254 2624
2019-06-15 20:55:55 GMT 48.652496 9.025902 5,800 272 252 2432
2019-06-15 20:55:46 GMT 48.652489 9.042399 5,400 265 247 2432
2019-06-15 20:55:43 GMT 48.652725 9.047593 5,100 265 247 2432
2019-06-15 20:55:36 GMT 48.653549 9.060622 5,025 258 242 2432
2019-06-15 20:55:33 GMT 48.654026 9.066395 4,950 262 243 2368
2019-06-15 20:55:29 GMT 48.654602 9.071397 4,600 254 241 2560
2019-06-15 20:55:24 GMT 48.655842 9.078610 4,550 248 241 2432
2019-06-15 20:55:19 GMT 48.658859 9.088370 4,275 238 241 2624
2019-06-15 20:55:15 GMT 48.661148 9.093722 4,125 235 240 2752
2019-06-15 20:55:12 GMT 48.662842 9.097243 3,900 236 238 2624
2019-06-15 20:55:08 GMT 48.665195 9.102462 3,800 251 229 1280
2019-06-15 20:55:05 GMT 48.667282 9.107948 3,675 246 232 1792
2019-06-15 20:55:01 GMT 48.668690 9.112653 3,575 252 227 1088
2019-06-15 20:54:54 GMT 48.672691 9.132385 3,400 254 213 1152
2019-06-15 20:54:48 GMT 48.672691 9.132385 3,350 253 208 1088
2019-06-15 20:54:43 GMT 48.673737 9.137667 3,275 253 206 1216
2019-06-15 20:54:40 GMT 48.674652 9.142034 3,200 253 202 1216
2019-06-15 20:54:33 GMT 48.676666 9.151682 3,075 253 194 1152
2019-06-15 20:54:29 GMT 48.677814 9.157321 2,975 254 187 1216
2019-06-15 20:54:23 GMT 48.679413 9.165415 2,875 254 184 1216
2019-06-15 20:54:18 GMT 48.680374 9.170344 2,825 255 182 1408
2019-06-15 20:54:11 GMT 48.682236 9.180234 2,575 255 175 1408
2019-06-15 20:54:08 GMT 48.682747 9.183052 2,525 255 171 1216
2019-06-15 20:54:02 GMT 48.684082 9.190486 2,400 256 167 1856
2019-06-15 20:53:58 GMT 48.685043 9.196120 2,275 256 164 3264
2019-06-15 20:53:51 GMT 48.685959 9.201402 1,975 255 163 3456
2019-06-15 20:53:41 GMT 48.688240 9.213409 1,425 254 168 2880
2019-06-15 20:53:30 GMT 48.690430 9.224847 0 253 155
2019-06-15 20:53:21 GMT 48.692223 9.234316 0 253 110
2019-06-15 20:53:08 GMT 48.693523 9.241182 0 255 48
2019-06-15 20:53:00 GMT 48.693867 9.242988 0 250 9
2019-06-15 20:52:46 GMT 48.693909 9.243188 0 247 2
2019-06-15 20:52:39 GMT 48.693920 9.243279 0 244 3
2019-06-15 20:52:20 GMT 48.693913 9.243358 0 230 0
2019-06-15 20:52:17 GMT 48.693909 9.243405 0 225 2
2019-06-15 20:52:06 GMT 48.693924 9.243604 0 182 4
2019-06-15 20:51:57 GMT 48.694164 9.243568 0 163 9
2019-06-15 20:51:46 GMT 48.694576 9.243375 0 163 9
2019-06-15 20:51:36 GMT 48.694988 9.243182 0 163 8
2019-06-15 20:51:24 GMT 48.695286 9.243058 0 157 6
2019-06-15 20:51:14 GMT 48.695492 9.242953 0 140 6
2019-06-15 20:51:05 GMT 48.695686 9.242706 0 118 6
2019-06-15 20:50:53 GMT 48.695805 9.242375 0 118 6
2019-06-15 20:50:44 GMT 48.695927 9.242037 0 115 7
2019-06-15 20:49:51 GMT 48.696003 9.241815 0 112 0
2019-06-15 20:49:36 GMT 48.696007 9.241808 0 112 0
2019-06-15 20:49:26 GMT 48.696003 9.241815 0 112 0
2019-06-15 20:49:16 GMT 48.696007 9.241808 0 112 0
2019-06-15 20:49:07 GMT 48.696003 9.241815 0 112 0
2019-06-15 20:48:49 GMT 48.696007 9.241808 0 112 0
2019-06-15 20:48:38 GMT 48.696003 9.241815 0 112 0
2019-06-15 20:48:27 GMT 48.696014 9.241797 0 112 2
2019-06-15 20:48:17 GMT 48.696075 9.241668 0 104 4
2019-06-15 20:48:06 GMT 48.696133 9.241315 0 87 8
2019-06-15 20:47:56 GMT 48.696072 9.240803 0 73 9
2019-06-15 20:47:45 GMT 48.695904 9.239995 0 73 10
2019-06-15 20:47:35 GMT 48.695801 9.239449 0 73 8
2019-06-15 20:47:24 GMT 48.695732 9.239079 0 73 8
2019-06-15 20:47:15 GMT 48.695572 9.238181 0 73 19
2019-06-15 20:47:04 GMT 48.695309 9.236808 0 73 24
2019-06-15 20:46:54 GMT 48.694954 9.234960 0 73 28
2019-06-15 20:46:42 GMT 48.694576 9.232917 0 73 32
2019-06-15 20:46:32 GMT 48.694164 9.230804 0 73 29
2019-06-15 20:46:21 GMT 48.693745 9.228534 0 73 27
2019-06-15 20:46:11 GMT 48.693443 9.226998 0 73 28
2019-06-15 20:46:02 GMT 48.693092 9.225100 0 73 26
2019-06-15 20:45:51 GMT 48.692780 9.223445 0 73 23
2019-06-15 20:45:41 GMT 48.692478 9.221902 0 75 20
2019-06-15 20:45:30 GMT 48.692207 9.220487 0 75 17
2019-06-15 20:45:16 GMT 48.691940 9.219083 0 73 19
2019-06-15 20:45:09 GMT 48.691761 9.218146 0 75 23
2019-06-15 20:44:49 GMT 48.691196 9.215108 0 73 22
2019-06-15 20:44:41 GMT 48.690983 9.214008 0 73 19
2019-06-15 20:44:15 GMT 48.690182 9.209747 0 73 25
2019-06-15 20:44:06 GMT 48.689919 9.208350 0 73 23
2019-06-15 20:43:56 GMT 48.689655 9.206983 0 75 20
2019-06-15 20:43:46 GMT 48.689415 9.205733 0 73 17
2019-06-15 20:43:35 GMT 48.689198 9.204624 0 73 13
2019-06-15 20:43:26 GMT 48.689060 9.203902 0 75 10
2019-06-15 20:43:14 GMT 48.688992 9.203268 0 132 7
We lost coverage of the aircraft here for a total of 109 minutes
2019-06-15 18:54:08 GMT 48.689732 9.202821 0 165 6 0
2019-06-15 18:53:27 GMT 48.690605 9.204254 0 267 11 0
2019-06-15 18:53:09 GMT 48.689926 9.205802 0 315 19 0
2019-06-15 18:52:56 GMT 48.689323 9.206742 0 312 13 0
2019-06-15 18:52:25 GMT 48.688416 9.209488 0 284 18 0
2019-06-15 18:52:10 GMT 48.688183 9.211404 0 272 26 0
2019-06-15 18:52:04 GMT 48.688190 9.212441 0 264 32 0
2019-06-15 18:51:55 GMT 48.688568 9.215082 0 255 45 0
2019-06-15 18:51:43 GMT 48.689335 9.219131 0 253 84 0
2019-06-15 18:51:34 GMT 48.690582 9.225681 0 253 105 0
2019-06-15 18:51:23 GMT 48.691952 9.232925 1,400 253 130 0
2019-06-15 18:51:13 GMT 48.693920 9.243405 1,100 254 146 -768
2019-06-15 18:51:02 GMT 48.695782 9.253018 1,250 255 145 -768
2019-06-15 18:50:52 GMT 48.697693 9.263137 1,375 255 145 -832
2019-06-15 18:50:45 GMT 48.698948 9.269859 1,450 255 147 -768
2019-06-15 18:50:41 GMT 48.699600 9.273165 1,500 255 146 -768
2019-06-15 18:50:34 GMT 48.700951 9.280267 1,600 255 146 -832
2019-06-15 18:50:30 GMT 48.701649 9.284025 1,625 255 147 -768
2019-06-15 18:50:24 GMT 48.702858 9.290603 1,725 254 147 -768
2019-06-15 18:50:21 GMT 48.703674 9.294927 1,775 255 148 -768
2019-06-15 18:50:14 GMT 48.704819 9.300913 1,850 254 147 -768
2019-06-15 18:50:09 GMT 48.705551 9.304716 1,900 255 148 -832
2019-06-15 18:50:02 GMT 48.706955 9.312142 1,975 254 150 -768
2019-06-15 18:49:59 GMT 48.707520 9.315139 2,025 255 150 -768
2019-06-15 18:49:52 GMT 48.708847 9.322252 2,125 255 150 -832
2019-06-15 18:49:49 GMT 48.709423 9.325224 2,150 255 150 -896
2019-06-15 18:49:41 GMT 48.710957 9.333392 2,275 254 151 -896
2019-06-15 18:49:34 GMT 48.712402 9.340981 2,375 255 152 -1024
2019-06-15 18:49:31 GMT 48.713146 9.344884 2,425 255 157 -1024
2019-06-15 18:49:27 GMT 48.713520 9.346980 2,475 255 157 -1088
2019-06-15 18:49:18 GMT 48.715569 9.357822 2,600 255 164 -960
2019-06-15 18:49:10 GMT 48.717590 9.368521 2,750 255 174 -1024
2019-06-15 18:49:00 GMT 48.719376 9.378240 2,850 255 180 -704
2019-06-15 18:48:57 GMT 48.720062 9.382183 2,975 255 185 -1088
2019-06-15 18:48:53 GMT 48.720978 9.386972 3,025 254 188 -1024
2019-06-15 18:48:48 GMT 48.722443 9.394367 3,150 254 198 -960
2019-06-15 18:48:43 GMT 48.723724 9.400916 3,200 255 202 -1216
2019-06-15 18:48:37 GMT 48.725189 9.408593 3,300 255 208 -1536
2019-06-15 18:48:32 GMT 48.726471 9.415635 3,400 255 211 -1344
2019-06-15 18:48:27 GMT 48.728073 9.424227 3,525 255 213 -1280
2019-06-15 18:48:22 GMT 48.729080 9.430002 3,600 255 215 -960
2019-06-15 18:48:16 GMT 48.730728 9.439016 3,725 256 219 -640
2019-06-15 18:48:12 GMT 48.731628 9.444339 3,775 256 222 -1216
2019-06-15 18:48:05 GMT 48.733475 9.455144 3,900 256 221 -1472
2019-06-15 18:48:02 GMT 48.734344 9.460285 4,025 257 222 -1280
2019-06-15 18:47:54 GMT 48.736130 9.472046 4,225 259 221 -1216
2019-06-15 18:47:51 GMT 48.736725 9.476342 4,200 259 222 -1152
2019-06-15 18:47:48 GMT 48.737492 9.481779 4,275 260 222 -1088
2019-06-15 18:47:44 GMT 48.738098 9.486694 4,500 264 223 -1024
2019-06-15 18:47:41 GMT 48.738647 9.491624 4,500 264 223 -1024
2019-06-15 18:47:38 GMT 48.739197 9.498103 4,450 266 223 -1024
2019-06-15 18:47:32 GMT 48.739517 9.505287 4,525 272 224 -832
2019-06-15 18:47:29 GMT 48.739494 9.510619 4,600 274 224 -704
2019-06-15 18:47:26 GMT 48.739334 9.514019 4,650 276 224 -640
2019-06-15 18:47:21 GMT 48.738419 9.523034 4,700 283 225 -448
2019-06-15 18:47:18 GMT 48.737774 9.526737 4,775 296 226 -384
2019-06-15 18:47:11 GMT 48.734188 9.538518 4,825 305 226 -448
2019-06-15 18:47:08 GMT 48.732185 9.542276 4,850 319 226 -576
2019-06-15 18:47:00 GMT 48.725620 9.549793 5,000 333 227 -896
2019-06-15 18:46:56 GMT 48.722691 9.551673 5,050 342 229 -704
2019-06-15 18:46:50 GMT 48.715752 9.554130 5,150 0 233 -1024
2019-06-15 18:46:47 GMT 48.712051 9.554443 5,175 3 234 -1152
2019-06-15 18:46:39 GMT 48.703949 9.552824 5,375 22 240 -1728
2019-06-15 18:46:36 GMT 48.700111 9.550878 5,725 38 245 -1600
2019-06-15 18:46:28 GMT 48.693176 9.545095 5,825 42 247 -1664
2019-06-15 18:46:23 GMT 48.688103 9.538663 5,750 44 248 -1600
2019-06-15 18:46:17 GMT 48.683353 9.531579 5,925 44 249 -1664
2019-06-15 18:46:13 GMT 48.680050 9.526664 5,975 44 250 -1600
2019-06-15 18:46:06 GMT 48.673485 9.516834 6,250 44 251 -1600
2019-06-15 18:46:03 GMT 48.670486 9.512400 6,325 44 251 -1536
2019-06-15 18:46:00 GMT 48.666222 9.505993 6,425 44 251 -1792
2019-06-15 18:45:53 GMT 48.663712 9.502258 6,550 44 251 -1856
2019-06-15 18:45:50 GMT 48.661743 9.499300 6,675 44 252 -1856
2019-06-15 18:45:47 GMT 48.659378 9.495801 6,725 44 252 -1856
2019-06-15 18:45:44 GMT 48.656250 9.491131 6,825 44 252 -1664
2019-06-15 18:45:41 GMT 48.653091 9.486483 6,925 44 252 -1472
2019-06-15 18:45:37 GMT 48.650574 9.482751 7,000 44 253 -1344
2019-06-15 18:45:33 GMT 48.646042 9.476060 7,100 44 256 -1280
2019-06-15 18:45:30 GMT 48.643875 9.472817 7,225 44 257 -1344
2019-06-15 18:45:27 GMT 48.642155 9.470287 7,225 44 258 -1408
2019-06-15 18:45:22 GMT 48.637871 9.463999 7,325 44 259 -1344
2019-06-15 18:45:18 GMT 48.633408 9.457397 7,425 44 260 -1408
2019-06-15 18:45:15 GMT 48.630936 9.453808 7,550 44 263 -1472
2019-06-15 18:45:12 GMT 48.628693 9.450496 7,550 44 263 -1472
2019-06-15 18:45:06 GMT 48.623245 9.442608 7,725 44 265 -1472
2019-06-15 18:45:03 GMT 48.621140 9.439509 7,775 44 265 -1536
2019-06-15 18:45:00 GMT 48.617798 9.434580 7,850 44 265 -1536
2019-06-15 18:44:56 GMT 48.615108 9.430751 7,925 43 268 -1344
2019-06-15 18:44:53 GMT 48.611206 9.425002 8,025 44 268 -1280
2019-06-15 18:44:49 GMT 48.606033 9.417466 8,150 44 270 -1280
2019-06-15 18:44:46 GMT 48.602818 9.412753 8,175 44 270 -1216
2019-06-15 18:44:43 GMT 48.602818 9.412753 8,375 43 272 -1088
2019-06-15 18:44:39 GMT 48.599762 9.408311 8,300 44 271 -1088
2019-06-15 18:44:35 GMT 48.596115 9.403068 8,375 43 272 -1088
2019-06-15 18:44:31 GMT 48.592342 9.397503 8,400 43 272 -1152
2019-06-15 18:44:28 GMT 48.589783 9.393816 8,475 43 273 -1152
2019-06-15 18:44:24 GMT 48.585594 9.387745 8,700 43 275 -1152
2019-06-15 18:44:21 GMT 48.582802 9.383770 8,625 43 275 -1152
2019-06-15 18:44:18 GMT 48.580078 9.379789 8,675 43 275 -1152
2019-06-15 18:44:14 GMT 48.577679 9.376397 9,925 43 275 -1280
2019-06-15 18:44:11 GMT 48.574310 9.371620 8,875 43 277 -1280
2019-06-15 18:44:07 GMT 48.570786 9.366549 8,900 43 277 -1280
2019-06-15 18:44:04 GMT 48.567669 9.362014 8,950 43 277 -1280
2019-06-15 18:44:00 GMT 48.564133 9.356954 9,025 43 277 -1088
2019-06-15 18:43:57 GMT 48.560760 9.352182 9,125 43 279 -1152
2019-06-15 18:43:54 GMT 48.557785 9.347886 9,150 43 279 -1152
2019-06-15 18:43:50 GMT 48.554764 9.343590 9,325 43 280 -1152
2019-06-15 18:43:47 GMT 48.551971 9.339576 9,275 43 280 -1152
2019-06-15 18:43:44 GMT 48.548210 9.334187 9,350 43 281 -1280
2019-06-15 18:43:40 GMT 48.543640 9.327745 9,450 43 281 -1344
2019-06-15 18:43:36 GMT 48.541763 9.324998 9,500 43 281 -1408
2019-06-15 18:43:33 GMT 48.538147 9.319928 9,525 43 281 -1472
2019-06-15 18:43:28 GMT 48.534153 9.314238 9,700 43 284 -1408
2019-06-15 18:43:25 GMT 48.530754 9.309395 9,775 43 282 -1344
2019-06-15 18:43:18 GMT 48.524094 9.299997 10,000 43 285 -1216
2019-06-15 18:43:14 GMT 48.520233 9.294578 10,025 43 285 -1280
2019-06-15 18:43:11 GMT 48.513336 9.284785 10,100 43 285 -1216
2019-06-15 18:43:08 GMT 48.513336 9.284785 10,150 43 287 -960
2019-06-15 18:43:04 GMT 48.510635 9.280982 10,250 43 287 -960
2019-06-15 18:42:56 GMT 48.503036 9.270278 10,350 43 290 -640
2019-06-15 18:42:52 GMT 48.498138 9.263376 10,400 43 293 -576
2019-06-15 18:42:49 GMT 48.496120 9.260535 10,400 43 295 -512
2019-06-15 18:42:46 GMT 48.491776 9.254362 10,500 43 295 -512
2019-06-15 18:42:43 GMT 48.489349 9.250981 10,450 42 297 -512
2019-06-15 18:42:40 GMT 48.487106 9.247883 10,475 42 299 -512
2019-06-15 18:42:36 GMT 48.482853 9.241887 10,550 42 304 -576
2019-06-15 18:42:33 GMT 48.479370 9.237037 10,575 42 307 -576
2019-06-15 18:42:25 GMT 48.471260 9.225769 10,625 42 310 -576
2019-06-15 18:42:22 GMT 48.465363 9.217529 10,675 42 313 -576
2019-06-15 18:42:14 GMT 48.454651 9.203303 10,775 40 319 -576
2019-06-15 18:42:09 GMT 48.454651 9.203303 10,775 40 319 -576
2019-06-15 18:42:02 GMT 48.445908 9.192528 10,925 37 324 -832
2019-06-15 18:41:59 GMT 48.440918 9.186683 10,900 37 326 -1088
2019-06-15 18:41:53 GMT 48.431351 9.175556 11,050 37 327 -1600
2019-06-15 18:41:49 GMT 48.431351 9.175556 11,150 37 329 -1536
2019-06-15 18:41:46 GMT 48.423405 9.166284 11,225 37 329 -1536
2019-06-15 18:41:43 GMT 48.423405 9.166284 11,250 37 329 -1536
2019-06-15 18:41:40 GMT 48.420521 9.162959 11,325 37 329 -1536
2019-06-15 18:41:37 GMT 48.416199 9.157879 11,525 37 330 -1472
2019-06-15 18:41:33 GMT 48.405579 9.145555 11,550 37 330 -1408
2019-06-15 18:41:29 GMT 48.405579 9.145555 11,600 37 331 -1344
2019-06-15 18:41:26 GMT 48.402924 9.142456 12,000 37 335 -832
2019-06-15 18:41:23 GMT 48.399525 9.138529 11,700 37 332 -1280
2019-06-15 18:41:20 GMT 48.395874 9.134287 11,875 37 333 -960
2019-06-15 18:41:15 GMT 48.390537 9.128049 11,875 37 335 -768
2019-06-15 18:41:12 GMT 48.385883 9.122628 11,925 37 338 -448
2019-06-15 18:41:05 GMT 48.373222 9.107955 12,000 37 342 0
2019-06-15 18:41:02 GMT 48.370476 9.104775 12,000 37 342 0
2019-06-15 18:40:56 GMT 48.361210 9.094005 12,000 37 342 0
2019-06-15 18:40:53 GMT 48.361210 9.094005 12,000 37 342 0
2019-06-15 18:40:49 GMT 48.356930 9.089090 12,000 37 342 0
2019-06-15 18:40:43 GMT 48.350178 9.081212 12,000 37 342 0
2019-06-15 18:40:40 GMT 48.346436 9.076820 12,000 37 342 0
2019-06-15 18:40:34 GMT 48.338654 9.067805 12,000 37 341 0
2019-06-15 18:40:31 GMT 48.333939 9.062312 12,000 37 341 0
2019-06-15 18:40:28 GMT 48.330917 9.058861 12,000 37 341 0
2019-06-15 18:40:21 GMT 48.321442 9.047875 12,000 37 340 64
2019-06-15 18:40:18 GMT 48.317459 9.043227 12,000 37 340 0
2019-06-15 18:40:13 GMT 48.310982 9.035749 12,000 37 341 0
2019-06-15 18:40:10 GMT 48.308716 9.033156 12,000 37 341 0
2019-06-15 18:40:07 GMT 48.304745 9.028521 12,000 37 340 0
2019-06-15 18:40:04 GMT 48.299973 9.023015 12,000 37 340 0
2019-06-15 18:40:01 GMT 48.297729 9.020409 12,000 37 341 0
2019-06-15 18:39:58 GMT 48.291756 9.013487 12,000 37 340 0
2019-06-15 18:39:52 GMT 48.285751 9.006621 12,000 37 340 0
2019-06-15 18:39:49 GMT 48.282532 9.002803 12,000 37 340 -64
2019-06-15 18:39:45 GMT 48.277267 8.996817 12,000 37 340 -64
2019-06-15 18:39:41 GMT 48.272049 8.990760 12,000 37 339 0
2019-06-15 18:39:38 GMT 48.268295 8.986464 12,000 37 340 0
2019-06-15 18:39:35 GMT 48.265079 8.982697 12,000 37 340 0
2019-06-15 18:39:28 GMT 48.256374 8.972650 12,000 37 339 0
2019-06-15 18:39:18 GMT 48.243210 8.957449 12,000 37 339 0
2019-06-15 18:39:15 GMT 48.239197 8.952846 12,000 37 339 0
2019-06-15 18:39:07 GMT 48.229752 8.941956 12,000 37 339 0
2019-06-15 18:39:04 GMT 48.227047 8.938823 12,000 37 340 0
2019-06-15 18:38:57 GMT 48.218079 8.928504 12,000 37 338 -64
2019-06-15 18:38:54 GMT 48.213593 8.923356 12,000 37 339 0
2019-06-15 18:38:46 GMT 48.203911 8.912153 12,000 37 340 0
2019-06-15 18:38:43 GMT 48.199951 8.907518 12,000 37 340 0
2019-06-15 18:38:36 GMT 48.190971 8.897191 12,000 37 340 0
2019-06-15 18:38:32 GMT 48.186966 8.892638 12,000 37 340 64
2019-06-15 18:38:26 GMT 48.178711 8.883151 12,000 37 340 64
2019-06-15 18:38:23 GMT 48.173977 8.877748 12,000 37 340 0
2019-06-15 18:38:19 GMT 48.170013 8.873150 12,000 37 340 0
2019-06-15 18:38:15 GMT 48.165527 8.868009 12,000 37 339 0
2019-06-15 18:38:12 GMT 48.160526 8.862281 12,000 37 338 0
2019-06-15 18:38:09 GMT 48.159035 8.860544 12,000 37 339 -64
2019-06-15 18:38:06 GMT 48.153534 8.854294 12,000 37 339 0
2019-06-15 18:38:03 GMT 48.150795 8.851178 12,000 37 340 0
2019-06-15 18:37:59 GMT 48.144604 8.843994 12,000 37 339 0
2019-06-15 18:37:55 GMT 48.140121 8.838844 12,000 37 340 64
2019-06-15 18:37:52 GMT 48.136871 8.835136 12,000 37 340 0
2019-06-15 18:37:47 GMT 48.130638 8.828008 12,000 37 340 64
2019-06-15 18:37:44 GMT 48.125610 8.822296 12,000 37 340 0
2019-06-15 18:37:40 GMT 48.121372 8.817373 12,000 37 340 -64
2019-06-15 18:37:36 GMT 48.115906 8.811104 12,000 37 340 0
2019-06-15 18:37:32 GMT 48.111412 8.805965 12,000 37 338 0
2019-06-15 18:37:27 GMT 48.106941 8.800753 12,000 37 338 0
2019-06-15 18:37:24 GMT 48.102242 8.795401 12,000 37 338 64
2019-06-15 18:37:21 GMT 48.098511 8.791122 12,000 37 338 0
2019-06-15 18:37:18 GMT 48.095074 8.787161 12,000 37 338 0
2019-06-15 18:37:15 GMT 48.089859 8.781175 12,000 37 337 -64
2019-06-15 18:37:12 GMT 48.086655 8.777458 12,000 37 336 0
2019-06-15 18:37:09 GMT 48.082687 8.772935 12,000 37 337 0
2019-06-15 18:37:06 GMT 48.079010 8.768669 12,000 37 338 0
2019-06-15 18:37:02 GMT 48.073799 8.762653 12,000 37 338 0
2019-06-15 18:36:58 GMT 48.069809 8.758095 12,000 37 339 -64
2019-06-15 18:36:54 GMT 48.064346 8.751878 12,000 37 339 -64
2019-06-15 18:36:51 GMT 48.060856 8.747864 12,000 37 339 0
2019-06-15 18:36:47 GMT 48.055893 8.742165 12,000 37 338 0
2019-06-15 18:36:44 GMT 48.050476 8.735891 12,000 46 334 -192
2019-06-15 18:36:41 GMT 48.048248 8.733307 12,000 38 337 64
2019-06-15 18:36:35 GMT 48.041908 8.725680 12,000 46 334 -192
2019-06-15 18:36:32 GMT 48.038040 8.720329 12,000 46 334 -192
2019-06-15 18:36:28 GMT 48.034184 8.714341 12,000 50 333 -128
2019-06-15 18:36:25 GMT 48.030258 8.707214 12,000 55 333 -320
2019-06-15 18:36:22 GMT 48.028061 8.702751 12,000 58 332 -192
2019-06-15 18:36:19 GMT 48.025059 8.695820 12,000 58 331 -64
2019-06-15 18:36:14 GMT 48.021103 8.686066 12,000 59 333 64
2019-06-15 18:36:11 GMT 48.018723 8.680161 12,000 59 333 0
2019-06-15 18:36:08 GMT 48.016800 8.675423 12,000 58 333 0
2019-06-15 18:36:03 GMT 48.012863 8.665604 12,000 59 333 64
2019-06-15 18:36:00 GMT 48.010162 8.658875 12,000 59 333 64
2019-06-15 18:35:57 GMT 48.007648 8.652579 12,000 58 333 64
2019-06-15 18:35:54 GMT 48.005264 8.646652 12,000 58 333 64
2019-06-15 18:35:51 GMT 48.003506 8.642367 12,000 58 333 64
2019-06-15 18:35:48 GMT 48.000961 8.636078 12,000 58 332 -128
2019-06-15 18:35:45 GMT 47.997757 8.628181 12,000 58 332 -128
2019-06-15 18:35:42 GMT 47.995544 8.622718 12,000 58 332 64
2019-06-15 18:35:38 GMT 47.992237 8.614478 12,000 58 331 0
2019-06-15 18:35:35 GMT 47.986698 8.600816 12,000 58 329 0
2019-06-15 18:35:31 GMT 47.986698 8.600816 12,000 58 329 -128
2019-06-15 18:35:26 GMT 47.983860 8.593844 12,000 59 328 -64
2019-06-15 18:35:22 GMT 47.980598 8.585675 12,000 59 326 -192
2019-06-15 18:35:19 GMT 47.977947 8.579125 12,025 58 325 -64
2019-06-15 18:35:16 GMT 47.972672 8.566109 12,025 59 324 384
2019-06-15 18:35:13 GMT 47.972672 8.566109 12,000 58 324 -64
2019-06-15 18:35:10 GMT 47.971161 8.562263 12,000 58 325 -64
2019-06-15 18:35:07 GMT 47.967865 8.554230 12,000 58 325 192
2019-06-15 18:35:01 GMT 47.964584 8.546166 12,000 58 322 64
2019-06-15 18:34:57 GMT 47.961182 8.537819 12,000 58 322 0
2019-06-15 18:34:53 GMT 47.958069 8.530250 12,000 59 322 -128
2019-06-15 18:34:50 GMT 47.955643 8.524086 12,000 59 320 -192
2019-06-15 18:34:47 GMT 47.953320 8.518419 12,000 59 320 -192
2019-06-15 18:34:43 GMT 47.949223 8.508207 12,000 58 323 128
2019-06-15 18:34:40 GMT 47.947735 8.504404 12,000 59 319 64
2019-06-15 18:34:37 GMT 47.946396 8.501015 12,000 59 321 0
2019-06-15 18:34:34 GMT 47.943512 8.493805 12,000 59 321 0
2019-06-15 18:34:28 GMT 47.939072 8.482750 12,000 58 323 128
2019-06-15 18:34:24 GMT 47.935135 8.473274 12,000 57 324 64
2019-06-15 18:34:17 GMT 47.927204 8.454402 12,000 58 322 128
2019-06-15 18:34:13 GMT 47.927204 8.454402 11,975 59 322 256
2019-06-15 18:34:10 GMT 47.925064 8.449036 11,975 59 323 256
2019-06-15 18:34:06 GMT 47.921432 8.439894 11,950 60 322 0
2019-06-15 18:34:03 GMT 47.919617 8.435246 11,950 60 322 256
2019-06-15 18:33:59 GMT 47.916687 8.427544 11,950 60 321 832
2019-06-15 18:33:56 GMT 47.913391 8.418686 11,875 61 321 1216
2019-06-15 18:33:52 GMT 47.911652 8.414017 11,825 60 322 1344
2019-06-15 18:33:49 GMT 47.909912 8.409348 11,775 59 322 1792
2019-06-15 18:33:46 GMT 47.906673 8.400879 11,675 58 321 2368
2019-06-15 18:33:39 GMT 47.901993 8.389572 11,500 54 322 2240
2019-06-15 18:33:35 GMT 47.895317 8.376371 11,325 50 327 1792
2019-06-15 18:33:32 GMT 47.891499 8.369962 11,175 46 329 1472
2019-06-15 18:33:29 GMT 47.891499 8.369962 11,200 44 330 1344
2019-06-15 18:33:26 GMT 47.890011 8.367638 10,875 37 330 1152
2019-06-15 18:33:23 GMT 47.885056 8.360939 11,075 36 330 1216
2019-06-15 18:33:19 GMT 47.880608 8.356159 11,000 31 329 1088
2019-06-15 18:33:15 GMT 47.875904 8.352004 10,925 23 326 896
2019-06-15 18:33:12 GMT 47.871552 8.348923 10,900 15 323 832
2019-06-15 18:33:07 GMT 47.861069 8.344185 10,825 6 313 832
2019-06-15 18:33:01 GMT 47.852234 8.342880 10,775 353 295 832
2019-06-15 18:32:58 GMT 47.852234 8.342880 10,750 0 304 768
2019-06-15 18:32:54 GMT 47.845871 8.343155 10,675 355 296 832
2019-06-15 18:32:51 GMT 47.836800 8.345032 10,575 351 288 896
2019-06-15 18:32:42 GMT 47.829212 8.347074 10,500 351 280 960
2019-06-15 18:32:38 GMT 47.825409 8.348030 10,450 351 275 1024
2019-06-15 18:32:33 GMT 47.818878 8.349680 10,350 353 266 1088
2019-06-15 18:32:30 GMT 47.814972 8.350571 10,300 353 264 1088
2019-06-15 18:32:27 GMT 47.812042 8.351120 10,250 353 264 1344
2019-06-15 18:32:23 GMT 47.806263 8.352215 10,100 356 258 960
2019-06-15 18:32:19 GMT 47.801926 8.352768 10,075 359 259 256
2019-06-15 18:32:16 GMT 47.799042 8.353043 10,025 359 259 256
2019-06-15 18:32:11 GMT 47.791534 8.353180 10,000 2 261 0
2019-06-15 18:32:06 GMT 47.786453 8.352837 10,000 4 261 0
2019-06-15 18:32:02 GMT 47.781876 8.352219 10,000 3 273 64
2019-06-15 18:31:59 GMT 47.777985 8.351669 10,000 5 261 0
2019-06-15 18:31:55 GMT 47.769104 8.350433 10,000 5 261 0
2019-06-15 18:31:52 GMT 47.769104 8.350433 10,000 5 262 0
2019-06-15 18:31:48 GMT 47.764526 8.349815 10,000 4 265 128
2019-06-15 18:31:45 GMT 47.760178 8.349266 10,000 4 263 64
2019-06-15 18:31:41 GMT 47.756516 8.348854 10,000 4 265 128
2019-06-15 18:31:38 GMT 47.748413 8.348030 10,000 3 270 0
2019-06-15 18:31:35 GMT 47.748413 8.348030 10,000 3 269 0
2019-06-15 18:31:32 GMT 47.744705 8.347687 10,000 3 270 0
2019-06-15 18:31:29 GMT 47.737198 8.347069 10,000 3 271 64
2019-06-15 18:31:22 GMT 47.732391 8.346657 10,000 3 273 0
2019-06-15 18:31:19 GMT 47.728088 8.346313 10,000 3 273 0
2019-06-15 18:31:14 GMT 47.722050 8.345806 10,000 3 272 -64
2019-06-15 18:31:11 GMT 47.718044 8.345525 10,000 3 271 0
2019-06-15 18:31:08 GMT 47.710781 8.344961 10,000 2 270 -64
2019-06-15 18:31:02 GMT 47.703781 8.344391 10,000 2 270 64
2019-06-15 18:30:59 GMT 47.703781 8.344391 10,000 2 270 64
2019-06-15 18:30:53 GMT 47.694817 8.343694 10,000 2 268 -64
2019-06-15 18:30:49 GMT 47.689865 8.343361 10,000 3 267 0
2019-06-15 18:30:46 GMT 47.685459 8.342989 10,000 3 267 0
2019-06-15 18:30:43 GMT 47.683228 8.342812 10,000 3 266 0
2019-06-15 18:30:40 GMT 47.680523 8.342637 10,000 3 266 0
2019-06-15 18:30:37 GMT 47.676315 8.342262 10,000 3 267 0
2019-06-15 18:30:31 GMT 47.668900 8.341713 10,000 2 268 0
2019-06-15 18:30:28 GMT 47.665421 8.341438 10,000 2 269 0
2019-06-15 18:30:25 GMT 47.655712 8.340806 10,000 2 270 0
2019-06-15 18:30:21 GMT 47.655712 8.340806 10,000 2 270 64
2019-06-15 18:30:18 GMT 47.651459 8.340477 10,000 2 270 0
2019-06-15 18:30:15 GMT 47.648216 8.340243 10,000 2 270 0
2019-06-15 18:30:11 GMT 47.642490 8.339820 10,000 2 271 -64
2019-06-15 18:30:07 GMT 47.638206 8.339539 10,000 2 271 0
2019-06-15 18:30:04 GMT 47.628479 8.338764 10,000 3 270 0
2019-06-15 18:30:00 GMT 47.628479 8.338764 10,000 3 270 0
2019-06-15 18:29:57 GMT 47.626244 8.338553 10,000 3 269 0
2019-06-15 18:29:54 GMT 47.622242 8.338271 10,000 3 269 -64
2019-06-15 18:29:50 GMT 47.618282 8.337919 10,000 3 268 0
2019-06-15 18:29:47 GMT 47.614792 8.337593 10,000 3 267 -64
2019-06-15 18:29:43 GMT 47.605434 8.336722 10,000 3 267 -64
2019-06-15 18:29:40 GMT 47.600967 8.336288 10,000 3 270 0
2019-06-15 18:29:37 GMT 47.600967 8.336288 10,000 3 267 0
2019-06-15 18:29:34 GMT 47.597992 8.336014 10,000 3 268 64
2019-06-15 18:29:30 GMT 47.593052 8.335524 10,000 3 269 64
2019-06-15 18:29:27 GMT 47.589561 8.335243 10,000 3 270 0
2019-06-15 18:29:24 GMT 47.579315 8.334366 10,000 3 271 0
2019-06-15 18:29:19 GMT 47.579315 8.334366 10,000 3 271 0
2019-06-15 18:29:16 GMT 47.570290 8.333552 10,000 3 277 64
2019-06-15 18:29:13 GMT 47.570290 8.333552 10,000 3 273 0
2019-06-15 18:29:09 GMT 47.566269 8.333199 10,000 3 274 64
2019-06-15 18:29:06 GMT 47.559395 8.332566 10,000 3 276 0
2019-06-15 18:28:59 GMT 47.552971 8.331933 10,000 3 278 0
2019-06-15 18:28:55 GMT 47.544453 8.331088 10,000 3 279 0
2019-06-15 18:28:52 GMT 47.544453 8.331088 10,000 3 279 0
2019-06-15 18:28:48 GMT 47.533653 8.330031 10,000 3 279 -128
2019-06-15 18:28:42 GMT 47.528484 8.329538 10,000 3 278 -64
2019-06-15 18:28:39 GMT 47.528484 8.329538 10,000 3 278 -64
2019-06-15 18:28:36 GMT 47.523331 8.329079 10,000 3 277 -64
2019-06-15 18:28:33 GMT 47.520264 8.328804 10,000 3 277 0
2019-06-15 18:28:30 GMT 47.516418 8.328461 10,000 8 276 128
2019-06-15 18:28:27 GMT 47.512848 8.328117 10,000 20 277 -192
2019-06-15 18:28:22 GMT 47.505440 8.327425 10,000 4 276 0
2019-06-15 18:28:19 GMT 47.502090 8.327087 10,000 4 276 -64
2019-06-15 18:28:16 GMT 47.499527 8.326744 10,000 5 277 -128
2019-06-15 18:28:13 GMT 47.490871 8.325454 10,000 8 276 128
2019-06-15 18:28:10 GMT 47.486801 8.324547 10,000 9 275 128
2019-06-15 18:28:07 GMT 47.486801 8.324547 10,000 12 276 -64
2019-06-15 18:28:02 GMT 47.480305 8.322003 10,000 22 278 -192
2019-06-15 18:27:58 GMT 47.476486 8.319749 10,000 29 278 -192
2019-06-15 18:27:55 GMT 47.472794 8.316856 10,000 34 279 -256
2019-06-15 18:27:51 GMT 47.468712 8.312847 10,000 43 280 -256
2019-06-15 18:27:48 GMT 47.463078 8.305453 10,000 48 281 -256
2019-06-15 18:27:45 GMT 47.463078 8.305453 10,000 51 281 -256
2019-06-15 18:27:42 GMT 47.459866 8.299889 10,000 56 280 -320
2019-06-15 18:27:39 GMT 47.457550 8.294746 10,000 60 280 -320
2019-06-15 18:27:36 GMT 47.455582 8.289391 10,000 66 280 -256
2019-06-15 18:27:31 GMT 47.453255 8.280874 10,000 71 281 -320
2019-06-15 18:27:28 GMT 47.451691 8.270851 10,000 83 280 -384
2019-06-15 18:27:20 GMT 47.451462 8.255539 10,000 97 280 -256
2019-06-15 18:27:14 GMT 47.452057 8.249153 10,000 100 279 -256
2019-06-15 18:27:10 GMT 47.453430 8.241394 10,000 108 277 -192
2019-06-15 18:27:07 GMT 47.456039 8.232330 10,000 116 275 -256
2019-06-15 18:27:00 GMT 47.458656 8.225872 10,000 126 275 -256
2019-06-15 18:26:57 GMT 47.461449 8.220520 10,000 131 275 -64
2019-06-15 18:26:54 GMT 47.463593 8.217224 10,000 137 275 -128
2019-06-15 18:26:50 GMT 47.471645 8.207914 10,000 147 274 0
2019-06-15 18:26:47 GMT 47.471645 8.207914 10,000 151 273 64
2019-06-15 18:26:44 GMT 47.474808 8.205345 9,975 160 274 64
2019-06-15 18:26:41 GMT 47.478333 8.203079 9,975 161 274 0
2019-06-15 18:26:38 GMT 47.480988 8.201775 9,975 161 274 0
2019-06-15 18:26:35 GMT 47.485470 8.200097 9,975 176 272 0
2019-06-15 18:26:31 GMT 47.489502 8.199234 10,000 177 272 0
2019-06-15 18:26:28 GMT 47.494034 8.198822 10,000 177 272 0
2019-06-15 18:26:25 GMT 47.503345 8.198336 10,000 178 272 0
2019-06-15 18:26:22 GMT 47.503345 8.198336 10,000 178 271 -64
2019-06-15 18:26:18 GMT 47.507126 8.198135 10,000 178 271 0
2019-06-15 18:26:15 GMT 47.509865 8.197984 10,000 177 271 0
2019-06-15 18:26:12 GMT 47.512890 8.197843 10,000 177 267 64
2019-06-15 18:26:08 GMT 47.520290 8.197350 10,000 177 266 64
2019-06-15 18:26:04 GMT 47.523514 8.197174 10,000 178 264 64
2019-06-15 18:26:01 GMT 47.528137 8.196968 10,000 178 264 64
2019-06-15 18:25:57 GMT 47.532536 8.196716 10,000 178 263 0
2019-06-15 18:25:54 GMT 47.536697 8.196625 10,000 178 263 -64
2019-06-15 18:25:51 GMT 47.540588 8.196487 10,000 178 264 64
2019-06-15 18:25:47 GMT 47.548363 8.196223 10,000 179 258 256
2019-06-15 18:25:44 GMT 47.548363 8.196223 10,000 178 263 0
2019-06-15 18:25:40 GMT 47.557068 8.196012 10,000 179 258 256
2019-06-15 18:25:37 GMT 47.561325 8.196075 10,000 181 255 -192
2019-06-15 18:25:33 GMT 47.561325 8.196075 10,000 181 253 192
2019-06-15 18:25:29 GMT 47.566704 8.196153 10,000 181 252 -64
2019-06-15 18:25:26 GMT 47.569962 8.196223 10,000 181 252 -192
2019-06-15 18:25:23 GMT 47.572475 8.196294 10,000 181 250 -192
2019-06-15 18:25:20 GMT 47.576202 8.196294 10,000 179 249 64
2019-06-15 18:25:16 GMT 47.581238 8.196213 10,000 178 248 -64
2019-06-15 18:25:13 GMT 47.588562 8.196007 10,000 178 248 0
2019-06-15 18:25:05 GMT 47.594971 8.195663 10,000 178 249 -64
2019-06-15 18:25:02 GMT 47.596848 8.195595 10,000 178 250 0
2019-06-15 18:24:58 GMT 47.601898 8.195378 10,000 178 251 0
2019-06-15 18:24:55 GMT 47.605389 8.195167 10,000 185 256 0
2019-06-15 18:24:52 GMT 47.612869 8.194839 10,000 178 254 0
2019-06-15 18:24:44 GMT 47.618519 8.194604 10,000 178 256 -64
2019-06-15 18:24:41 GMT 47.622288 8.194392 10,000 178 256 -64
2019-06-15 18:24:37 GMT 47.625591 8.194322 10,000 178 256 -64
2019-06-15 18:24:33 GMT 47.636997 8.194040 10,000 182 257 64
2019-06-15 18:24:29 GMT 47.636997 8.194040 10,000 199 252 128
2019-06-15 18:24:26 GMT 47.640072 8.194040 10,000 184 256 0
2019-06-15 18:24:22 GMT 47.644352 8.194322 10,000 184 256 0
2019-06-15 18:24:18 GMT 47.649124 8.194908 10,000 188 254 64
2019-06-15 18:24:13 GMT 47.654503 8.196153 10,000 194 253 64
2019-06-15 18:24:08 GMT 47.661072 8.198822 10,000 199 252 128
2019-06-15 18:24:02 GMT 47.666885 8.202324 10,000 215 249 128
2019-06-15 18:23:59 GMT 47.670547 8.205345 10,000 220 249 256
2019-06-15 18:23:53 GMT 47.676476 8.212492 10,000 238 246 256
2019-06-15 18:23:49 GMT 47.678474 8.215731 10,000 253 247 320
2019-06-15 18:23:46 GMT 47.680389 8.219559 10,000 246 246 192
2019-06-15 18:23:42 GMT 47.684483 8.231999 10,000 251 246 320
2019-06-15 18:23:38 GMT 47.684483 8.231999 10,000 257 247 256
2019-06-15 18:23:35 GMT 47.685551 8.237845 10,000 330 256 128
2019-06-15 18:23:32 GMT 47.686066 8.242845 10,000 267 247 256
2019-06-15 18:23:29 GMT 47.686203 8.247986 10,000 270 248 256
2019-06-15 18:23:26 GMT 47.686066 8.251718 10,000 277 248 256
2019-06-15 18:23:21 GMT 47.685181 8.259395 10,000 286 249 256
2019-06-15 18:23:17 GMT 47.681671 8.272430 10,000 297 250 256
2019-06-15 18:23:11 GMT 47.680206 8.275932 10,000 307 251 192
2019-06-15 18:23:06 GMT 47.675858 8.283760 10,000 320 254 192
2019-06-15 18:23:02 GMT 47.673218 8.287283 10,000 338 260 -128
2019-06-15 18:22:59 GMT 47.669956 8.290804 10,000 328 257 128
2019-06-15 18:22:56 GMT 47.667488 8.292988 10,000 340 261 -192
2019-06-15 18:22:53 GMT 47.663956 8.295433 10,000 341 261 -192
2019-06-15 18:22:49 GMT 47.659195 8.298042 10,000 343 262 -128
2019-06-15 18:22:46 GMT 47.654297 8.300240 10,025 344 263 0
2019-06-15 18:22:43 GMT 47.650085 8.302094 10,000 345 264 128
2019-06-15 18:22:40 GMT 47.648209 8.302849 10,000 346 263 128
2019-06-15 18:22:35 GMT 47.641747 8.305242 10,000 349 265 0
2019-06-15 18:22:31 GMT 47.636345 8.306509 10,000 358 268 -64
2019-06-15 18:22:28 GMT 47.634613 8.306763 10,000 359 269 -64
2019-06-15 18:22:24 GMT 47.628342 8.306900 10,000 3 269 0
2019-06-15 18:22:21 GMT 47.623871 8.306509 10,000 5 269 128
2019-06-15 18:22:18 GMT 47.621357 8.306087 10,000 21 270 -192
2019-06-15 18:22:15 GMT 47.616669 8.305115 10,000 11 269 -64
2019-06-15 18:22:12 GMT 47.613209 8.303974 10,000 18 269 -192
2019-06-15 18:22:08 GMT 47.608929 8.301861 9,975 23 271 -128
2019-06-15 18:22:02 GMT 47.601929 8.296669 10,000 33 272 -256
2019-06-15 18:21:59 GMT 47.598358 8.293058 10,000 37 273 -320
2019-06-15 18:21:56 GMT 47.595428 8.289537 10,000 41 272 -128
2019-06-15 18:21:52 GMT 47.592400 8.285593 10,000 42 271 0
2019-06-15 18:21:49 GMT 47.590168 8.282635 10,000 42 271 -128
2019-06-15 18:21:46 GMT 47.587372 8.278902 10,000 42 270 64
2019-06-15 18:21:42 GMT 47.583298 8.273460 10,000 42 269 64
2019-06-15 18:21:39 GMT 47.580368 8.269478 10,000 42 272 -64
2019-06-15 18:21:36 GMT 47.577576 8.265701 10,000 42 273 64
2019-06-15 18:21:32 GMT 47.573826 8.260662 10,000 41 274 64
2019-06-15 18:21:29 GMT 47.570618 8.256432 10,000 41 275 -64
2019-06-15 18:21:25 GMT 47.567596 8.252380 10,000 41 276 0
2019-06-15 18:21:21 GMT 47.563202 8.246613 10,000 41 275 64
2019-06-15 18:21:18 GMT 47.560558 8.243127 10,000 41 274 0
2019-06-15 18:21:15 GMT 47.557907 8.239605 10,000 41 274 64
2019-06-15 18:21:11 GMT 47.552399 8.232330 10,000 42 272 -64
2019-06-15 18:21:08 GMT 47.551109 8.230591 10,000 41 275 0
2019-06-15 18:21:05 GMT 47.547291 8.225591 10,000 42 274 -128
2019-06-15 18:21:00 GMT 47.542591 8.219323 10,000 42 273 -128
2019-06-15 18:20:57 GMT 47.539982 8.215802 10,000 42 273 64
2019-06-15 18:20:54 GMT 47.537888 8.213055 10,000 42 272 -64
2019-06-15 18:20:51 GMT 47.533607 8.207280 10,000 42 272 -64
2019-06-15 18:20:47 GMT 47.531742 8.204745 10,000 42 271 0
2019-06-15 18:20:44 GMT 47.528412 8.200195 10,000 42 271 -64
2019-06-15 18:20:41 GMT 47.525131 8.195730 10,000 42 270 64
2019-06-15 18:20:38 GMT 47.523087 8.192984 10,000 42 269 -64
2019-06-15 18:20:34 GMT 47.519028 8.187561 10,000 42 267 64
2019-06-15 18:20:30 GMT 47.515594 8.182892 10,000 42 267 -64
2019-06-15 18:20:27 GMT 47.509598 8.174721 10,000 43 267 -64
2019-06-15 18:20:24 GMT 47.509598 8.174721 10,000 43 267 64
2019-06-15 18:20:21 GMT 47.507442 8.171715 10,000 43 267 0
2019-06-15 18:20:18 GMT 47.503811 8.166715 10,000 43 267 0
2019-06-15 18:20:15 GMT 47.501862 8.164009 10,000 43 268 64
2019-06-15 18:20:12 GMT 47.499847 8.161263 10,000 43 268 -64
2019-06-15 18:20:09 GMT 47.496784 8.156997 10,000 42 267 -64
2019-06-15 18:20:06 GMT 47.494038 8.153264 10,000 42 268 -128
2019-06-15 18:20:02 GMT 47.490219 8.148053 10,000 42 266 64
2019-06-15 18:19:59 GMT 47.487122 8.143890 10,000 42 266 64
2019-06-15 18:19:55 GMT 47.482353 8.137489 10,000 42 266 0
2019-06-15 18:19:52 GMT 47.481445 8.136269 10,000 42 266 64
2019-06-15 18:19:49 GMT 47.477463 8.130939 10,000 41 266 -64
2019-06-15 18:19:46 GMT 47.475277 8.127981 10,000 41 266 64
2019-06-15 18:19:43 GMT 47.472855 8.124883 10,000 41 265 64
2019-06-15 18:19:40 GMT 47.470093 8.121231 10,000 41 265 -64
2019-06-15 18:19:37 GMT 47.467548 8.117911 10,000 41 266 64
2019-06-15 18:19:34 GMT 47.464569 8.114108 10,000 41 266 128
2019-06-15 18:19:31 GMT 47.460285 8.108614 10,000 41 269 -64
2019-06-15 18:19:27 GMT 47.458603 8.106400 10,000 41 269 0
2019-06-15 18:19:24 GMT 47.455399 8.102280 10,000 41 269 0
2019-06-15 18:19:21 GMT 47.449066 8.093966 10,000 41 270 0
2019-06-15 18:19:18 GMT 47.446831 8.091008 10,000 41 270 0
2019-06-15 18:19:15 GMT 47.446831 8.091008 10,000 41 270 64
2019-06-15 18:19:12 GMT 47.443619 8.086853 10,000 41 270 64
2019-06-15 18:19:08 GMT 47.440292 8.082436 10,000 41 269 -64
2019-06-15 18:19:05 GMT 47.436584 8.077560 10,000 42 269 0
2019-06-15 18:18:59 GMT 47.429188 8.067697 10,000 41 269 -64
2019-06-15 18:18:56 GMT 47.429188 8.067697 10,000 41 268 -128
2019-06-15 18:18:53 GMT 47.426605 8.064308 10,000 41 266 -64
2019-06-15 18:18:50 GMT 47.423447 8.060188 10,000 41 266 -64
2019-06-15 18:18:46 GMT 47.420517 8.056343 10,000 41 264 -64
2019-06-15 18:18:43 GMT 47.416672 8.051399 10,000 41 262 0
2019-06-15 18:18:40 GMT 47.414886 8.048996 10,000 41 260 -64
2019-06-15 18:18:37 GMT 47.412323 8.045700 10,000 41 261 -128
2019-06-15 18:18:34 GMT 47.408890 8.041237 10,025 42 261 -64
2019-06-15 18:18:31 GMT 47.406380 8.037908 10,025 42 261 -64
2019-06-15 18:18:28 GMT 47.402840 8.033048 10,025 43 260 0
2019-06-15 18:18:25 GMT 47.401257 8.030865 10,025 44 260 0
2019-06-15 18:18:22 GMT 47.398636 8.027161 10,025 46 260 0
2019-06-15 18:18:19 GMT 47.396164 8.023315 10,025 47 260 0
2019-06-15 18:18:16 GMT 47.391251 8.013681 10,000 56 261 -384
2019-06-15 18:18:13 GMT 47.391251 8.013681 10,000 60 261 -448
2019-06-15 18:18:10 GMT 47.389709 8.009583 10,000 65 262 -448
2019-06-15 18:18:07 GMT 47.388016 8.003334 10,000 73 263 -384
2019-06-15 18:18:04 GMT 47.387329 7.999901 10,000 78 263 -384
2019-06-15 18:18:01 GMT 47.386368 7.993240 10,000 84 265 -384
2019-06-15 18:17:57 GMT 47.386036 7.986004 10,000 93 267 -448
2019-06-15 18:17:54 GMT 47.386127 7.980934 10,000 96 267 -384
2019-06-15 18:17:51 GMT 47.386414 7.976967 10,000 104 268 -448
2019-06-15 18:17:48 GMT 47.387058 7.971990 10,000 102 268 -448
2019-06-15 18:17:45 GMT 47.390038 7.960017 10,000 111 267 -384
2019-06-15 18:17:42 GMT 47.390038 7.960017 10,000 122 267 -448
2019-06-15 18:17:39 GMT 47.391357 7.956505 10,000 122 267 -448
2019-06-15 18:17:33 GMT 47.396603 7.946355 10,000 142 266 -256
2019-06-15 18:17:30 GMT 47.401024 7.940439 10,000 142 266 -256
2019-06-15 18:17:24 GMT 47.404514 7.936918 10,000 174 262 -64
2019-06-15 18:17:21 GMT 47.407124 7.934735 10,025 157 264 -256
2019-06-15 18:17:17 GMT 47.411636 7.931854 10,025 163 263 -192
2019-06-15 18:17:14 GMT 47.420013 7.929039 10,025 176 262 -64
2019-06-15 18:17:06 GMT 47.425419 7.928748 10,025 185 262 -128
2019-06-15 18:17:03 GMT 47.428619 7.929039 10,025 193 261 -192
2019-06-15 18:17:00 GMT 47.432915 7.930227 10,025 196 262 -320
2019-06-15 18:16:56 GMT 47.437569 7.932411 10,050 202 262 -448
2019-06-15 18:16:53 GMT 47.441620 7.935081 10,100 209 262 -1024
2019-06-15 18:16:49 GMT 47.445435 7.938185 10,125 211 263 -1088
2019-06-15 18:16:46 GMT 47.449440 7.941636 10,250 212 264 -1536
2019-06-15 18:16:43 GMT 47.451954 7.943890 10,275 212 262 -1984
2019-06-15 18:16:40 GMT 47.454048 7.945791 10,425 213 262 -1792
2019-06-15 18:16:37 GMT 47.457138 7.948608 10,475 213 261 -1600
2019-06-15 18:16:34 GMT 47.460571 7.951904 10,525 214 261 -1344
2019-06-15 18:16:31 GMT 47.468433 7.959665 10,625 215 262 -896
2019-06-15 18:16:28 GMT 47.470016 7.961285 10,675 216 261 -1152
2019-06-15 18:16:22 GMT 47.473740 7.965299 10,775 218 262 -640
2019-06-15 18:16:19 GMT 47.475906 7.967697 10,825 224 264 -896
2019-06-15 18:16:16 GMT 47.478149 7.970444 10,825 224 264 -896
2019-06-15 18:16:12 GMT 47.481812 7.975800 10,900 231 264 -1024
2019-06-15 18:16:09 GMT 47.484493 7.980511 11,000 239 265 -1472
2019-06-15 18:16:06 GMT 47.486618 7.985344 11,050 244 264 -1408
2019-06-15 18:15:59 GMT 47.490326 7.998665 11,250 258 264 -640
2019-06-15 18:15:56 GMT 47.490730 8.001146 11,275 259 264 -448
2019-06-15 18:15:53 GMT 47.491745 8.018372 11,400 268 266 -256
2019-06-15 18:15:47 GMT 47.491745 8.018372 11,425 276 268 -320
2019-06-15 18:15:43 GMT 47.491379 8.024208 11,450 284 270 256
2019-06-15 18:15:40 GMT 47.490776 8.029245 11,450 286 271 0
2019-06-15 18:15:37 GMT 47.487488 8.042336 11,475 296 269 -1344
2019-06-15 18:15:34 GMT 47.487488 8.042336 11,550 302 267 -1792
2019-06-15 18:15:28 GMT 47.484306 8.049739 11,725 309 266 -1792
2019-06-15 18:15:25 GMT 47.482315 8.053391 11,875 318 266 -1152
2019-06-15 18:15:22 GMT 47.479511 8.057556 11,925 319 266 -1024
2019-06-15 18:15:19 GMT 47.472668 8.065303 12,000 327 267 -640
2019-06-15 18:15:16 GMT 47.472668 8.065303 12,050 330 268 -512
2019-06-15 18:15:12 GMT 47.468811 8.068703 12,100 333 271 -320
2019-06-15 18:15:09 GMT 47.465012 8.071587 12,100 333 274 128
2019-06-15 18:15:06 GMT 47.460239 8.075162 12,100 333 278 -384
2019-06-15 18:15:03 GMT 47.459106 8.076050 12,150 334 280 -1088
2019-06-15 18:14:57 GMT 47.452652 8.080867 12,150 334 282 -1408
2019-06-15 18:14:54 GMT 47.448441 8.083946 12,175 334 282 -1536
2019-06-15 18:14:51 GMT 47.445648 8.086075 12,250 334 281 -1600
2019-06-15 18:14:48 GMT 47.440037 8.090163 12,400 334 281 -2048
2019-06-15 18:14:45 GMT 47.437473 8.092064 12,475 334 280 -1792
2019-06-15 18:14:42 GMT 47.433563 8.094933 12,575 334 279 -1600
2019-06-15 18:14:36 GMT 47.426880 8.099945 12,750 333 279 -1280
2019-06-15 18:14:33 GMT 47.424301 8.101854 12,775 333 279 -1280
2019-06-15 18:14:30 GMT 47.419926 8.105164 12,925 334 280 -1344
2019-06-15 18:14:27 GMT 47.417179 8.107206 12,875 333 280 -1280
2019-06-15 18:14:24 GMT 47.413219 8.110164 12,975 333 280 -1280
2019-06-15 18:14:21 GMT 47.408157 8.114021 13,050 333 280 -1728
2019-06-15 18:14:18 GMT 47.406517 8.115234 13,100 333 279 -1856
2019-06-15 18:14:15 GMT 47.403992 8.117180 13,225 333 279 -1600
2019-06-15 18:14:12 GMT 47.400330 8.119995 13,225 333 279 -1600
2019-06-15 18:14:09 GMT 47.396896 8.122536 13,350 333 279 -1344
2019-06-15 18:14:06 GMT 47.393417 8.125145 13,425 334 280 -1216
2019-06-15 18:14:03 GMT 47.386501 8.130305 13,500 334 280 -1088
2019-06-15 18:14:00 GMT 47.381882 8.133797 13,575 334 281 -704
2019-06-15 18:13:57 GMT 47.381882 8.133797 13,600 334 282 -640
2019-06-15 18:13:54 GMT 47.378353 8.136362 13,625 334 283 -576
2019-06-15 18:13:51 GMT 47.376492 8.137770 13,650 334 285 -768
2019-06-15 18:13:48 GMT 47.371307 8.141556 13,700 334 287 -640
2019-06-15 18:13:45 GMT 47.368927 8.143341 13,700 334 288 -640
2019-06-15 18:13:42 GMT 47.364666 8.146503 13,750 334 288 -576
2019-06-15 18:13:39 GMT 47.361557 8.148834 13,775 334 289 -832
2019-06-15 18:13:36 GMT 47.357220 8.151996 13,850 334 291 -1088
2019-06-15 18:13:33 GMT 47.354095 8.154327 13,850 334 292 -1024
2019-06-15 18:13:30 GMT 47.347816 8.158968 13,950 334 292 -1024
2019-06-15 18:13:27 GMT 47.347816 8.158968 13,975 334 292 -1024
2019-06-15 18:13:24 GMT 47.343441 8.162208 14,025 334 293 -1216
2019-06-15 18:13:21 GMT 47.339764 8.164884 14,150 334 294 -1344
2019-06-15 18:13:18 GMT 47.337112 8.166824 14,150 334 294 -1344
2019-06-15 18:13:15 GMT 47.331242 8.171152 14,250 334 294 -1792
2019-06-15 18:13:09 GMT 47.319809 8.179527 14,425 334 293 -1472
2019-06-15 18:13:06 GMT 47.319809 8.179527 14,500 334 293 -1280
2019-06-15 18:13:02 GMT 47.316628 8.181857 14,550 334 293 -1344
2019-06-15 18:12:58 GMT 47.312016 8.185237 14,950 334 296 -960
2019-06-15 18:12:53 GMT 47.304661 8.190660 14,750 334 296 -1472
2019-06-15 18:12:50 GMT 47.300491 8.193741 14,800 334 296 -1472
2019-06-15 18:12:47 GMT 47.298523 8.195183 14,850 333 297 -1600
2019-06-15 18:12:43 GMT 47.292652 8.199604 15,125 333 296 -1024
2019-06-15 18:12:40 GMT 47.287296 8.203688 15,025 333 296 -1792
2019-06-15 18:12:37 GMT 47.282501 8.207405 15,150 333 295 -1472
2019-06-15 18:12:34 GMT 47.282501 8.207405 15,200 333 296 -1024
2019-06-15 18:12:31 GMT 47.278126 8.210731 15,900 47 325 -704
2019-06-15 18:12:28 GMT 47.270073 8.216999 15,300 333 299 -448
2019-06-15 18:12:24 GMT 47.270073 8.216999 15,325 334 300 -576
2019-06-15 18:12:18 GMT 47.260715 8.223478 15,400 341 302 -896
2019-06-15 18:12:14 GMT 47.257233 8.225258 15,475 345 303 -768
2019-06-15 18:12:08 GMT 47.249496 8.227774 15,550 356 303 -1344
2019-06-15 18:12:05 GMT 47.243317 8.228279 15,650 2 303 -1408
2019-06-15 18:12:02 GMT 47.239609 8.228073 15,700 7 302 -1088
2019-06-15 18:11:59 GMT 47.234879 8.227070 15,775 16 303 -896
2019-06-15 18:11:56 GMT 47.231808 8.226084 15,800 18 304 -896
2019-06-15 18:11:53 GMT 47.227524 8.224041 15,850 23 304 -896
2019-06-15 18:11:47 GMT 47.220078 8.218900 15,925 30 306 -832
2019-06-15 18:11:44 GMT 47.217144 8.216295 15,950 36 307 -832
2019-06-15 18:11:41 GMT 47.213184 8.212210 15,975 40 308 -1024
2019-06-15 18:11:36 GMT 47.207787 8.205308 16,025 46 310 -640
2019-06-15 18:11:33 GMT 47.201843 8.196144 16,075 47 313 -512
2019-06-15 18:11:26 GMT 47.197540 8.189209 16,100 47 315 -512
2019-06-15 18:11:23 GMT 47.195389 8.185707 16,150 47 317 -512
2019-06-15 18:11:20 GMT 47.192184 8.180626 16,175 47 319 -640
2019-06-15 18:11:16 GMT 47.188187 8.174180 16,200 47 322 -768
2019-06-15 18:11:13 GMT 47.184322 8.168053 16,250 47 325 -704
2019-06-15 18:11:10 GMT 47.181702 8.163872 16,250 47 325 -704
2019-06-15 18:11:07 GMT 47.177620 8.157349 16,325 47 329 -640
2019-06-15 18:11:04 GMT 47.175339 8.153757 16,350 47 330 -640
2019-06-15 18:11:00 GMT 47.172268 8.148757 16,400 47 334 -832
2019-06-15 18:10:57 GMT 47.168106 8.142174 16,425 47 334 -832
2019-06-15 18:10:54 GMT 47.162430 8.133110 16,500 47 337 -768
2019-06-15 18:10:51 GMT 47.158627 8.126995 16,525 47 341 -960
2019-06-15 18:10:48 GMT 47.158627 8.126995 16,550 47 349 -832
2019-06-15 18:10:44 GMT 47.154575 8.120587 16,600 47 342 -960
2019-06-15 18:10:41 GMT 47.151352 8.115463 16,625 47 343 -960
2019-06-15 18:10:38 GMT 47.148571 8.110938 16,825 47 349 -832
2019-06-15 18:10:34 GMT 47.144894 8.105023 16,750 47 348 -896
2019-06-15 18:10:30 GMT 47.138561 8.094881 16,825 47 353 -704
2019-06-15 18:10:27 GMT 47.137215 8.092769 16,850 47 355 -704
2019-06-15 18:10:24 GMT 47.128742 8.079318 16,900 47 358 -704
2019-06-15 18:10:21 GMT 47.128742 8.079318 16,950 47 360 -512
2019-06-15 18:10:18 GMT 47.125397 8.073921 16,975 47 361 -512
2019-06-15 18:10:15 GMT 47.122410 8.069247 17,000 47 364 -512
2019-06-15 18:10:12 GMT 47.119904 8.065269 17,025 47 366 -640
2019-06-15 18:10:09 GMT 47.116264 8.059387 17,050 47 368 -576
2019-06-15 18:10:06 GMT 47.111378 8.051640 17,075 47 373 -576
2019-06-15 18:10:03 GMT 47.105804 8.042679 17,125 47 375 -576
2019-06-15 18:10:00 GMT 47.105804 8.042679 17,150 47 377 -640
2019-06-15 18:09:57 GMT 47.101318 8.035538 17,175 47 380 -896
2019-06-15 18:09:54 GMT 47.097736 8.029879 17,200 47 383 -832
2019-06-15 18:09:51 GMT 47.092430 8.021498 17,250 47 384 -832
2019-06-15 18:09:45 GMT 47.087128 8.013016 17,350 47 389 -832
2019-06-15 18:09:42 GMT 47.083969 8.008003 17,350 47 391 -768
2019-06-15 18:09:38 GMT 47.079304 8.000582 17,400 47 393 -768
2019-06-15 18:09:35 GMT 47.070316 7.986356 17,475 47 404 -704
2019-06-15 18:09:32 GMT 47.066036 7.979595 18,875 47 446 -1024
2019-06-15 18:09:25 GMT 47.063755 7.976004 17,575 47 404 -768
2019-06-15 18:09:22 GMT 47.058632 7.967975 17,600 47 408 -896
2019-06-15 18:09:19 GMT 47.050690 7.955269 17,675 47 412 -960
2019-06-15 18:09:16 GMT 47.046062 7.947834 17,750 47 415 -960
2019-06-15 18:09:12 GMT 47.046062 7.947834 17,800 47 417 -1024
2019-06-15 18:09:09 GMT 47.041084 7.939946 17,825 47 420 -960
2019-06-15 18:09:06 GMT 47.037403 7.934101 17,875 47 422 -960
2019-06-15 18:09:03 GMT 47.035034 7.930275 17,900 47 423 -1024
2019-06-15 18:09:00 GMT 47.025440 7.915086 18,025 47 430 -896
2019-06-15 18:08:57 GMT 47.025440 7.915086 18,025 47 430 -896
2019-06-15 18:08:53 GMT 47.021118 7.908234 18,125 47 431 -896
2019-06-15 18:08:50 GMT 47.016270 7.900508 18,125 47 431 -832
2019-06-15 18:08:47 GMT 47.012741 7.894981 18,175 47 432 -896
2019-06-15 18:08:44 GMT 47.008163 7.887634 18,200 47 433 -896
2019-06-15 18:08:41 GMT 47.002678 7.879028 18,275 47 435 -896
2019-06-15 18:08:38 GMT 46.999969 7.874725 18,325 47 435 -1024
2019-06-15 18:08:35 GMT 46.996948 7.869987 18,350 47 436 -1024
2019-06-15 18:08:32 GMT 46.993652 7.864769 18,450 47 438 -1088
2019-06-15 18:08:29 GMT 46.987335 7.854813 18,475 47 438 -1088
2019-06-15 18:08:26 GMT 46.984039 7.849594 18,525 47 439 -1152
2019-06-15 18:08:23 GMT 46.980194 7.843464 18,575 47 440 -1088
2019-06-15 18:08:20 GMT 46.974373 7.834238 18,650 47 443 -1024
2019-06-15 18:08:17 GMT 46.970810 7.828583 18,675 47 444 -960
2019-06-15 18:08:14 GMT 46.966919 7.822403 18,700 47 444 -960
2019-06-15 18:08:11 GMT 46.963573 7.817125 18,800 47 445 -896
2019-06-15 18:08:08 GMT 46.960220 7.811772 18,800 47 446 -1024
2019-06-15 18:08:05 GMT 46.954868 7.803392 18,850 47 446 -1024
2019-06-15 18:08:02 GMT 46.950668 7.796791 18,925 47 446 -1024
2019-06-15 18:07:59 GMT 46.946503 7.790131 18,975 47 446 -1024
2019-06-15 18:07:56 GMT 46.942020 7.783039 19,100 47 447 -960
2019-06-15 18:07:53 GMT 46.937504 7.775996 19,050 47 446 -1024
2019-06-15 18:07:49 GMT 46.928844 7.762263 19,125 47 446 -896
2019-06-15 18:07:46 GMT 46.928844 7.762263 19,175 47 446 -896
2019-06-15 18:07:42 GMT 46.922104 7.751610 19,225 47 447 -896
2019-06-15 18:07:39 GMT 46.918716 7.746323 19,275 47 449 -896
2019-06-15 18:07:36 GMT 46.913956 7.738770 19,300 47 449 -896
2019-06-15 18:07:33 GMT 46.909149 7.731216 19,375 47 450 -896
2019-06-15 18:07:29 GMT 46.903519 7.722290 19,425 47 450 -1024
2019-06-15 18:07:26 GMT 46.899841 7.716487 19,450 47 450 -1024
2019-06-15 18:07:23 GMT 46.895874 7.710205 19,525 47 450 -1024
2019-06-15 18:07:20 GMT 46.891342 7.703133 19,600 47 451 -960
2019-06-15 18:07:17 GMT 46.887634 7.697296 19,625 47 451 -960
2019-06-15 18:07:14 GMT 46.883411 7.690641 19,675 47 452 -960
2019-06-15 18:07:11 GMT 46.878571 7.683035 19,675 47 452 -960
2019-06-15 18:07:07 GMT 46.872894 7.674088 19,750 47 452 -1024
2019-06-15 18:07:04 GMT 46.868866 7.667770 19,825 47 454 -1024
2019-06-15 18:07:01 GMT 46.864883 7.661490 19,875 47 455 -1088
2019-06-15 18:06:58 GMT 46.860321 7.654243 19,925 47 455 -1088
2019-06-15 18:06:52 GMT 46.850822 7.639412 20,050 47 457 -1152
2019-06-15 18:06:48 GMT 46.845936 7.631721 20,075 47 457 -1152
2019-06-15 18:06:45 GMT 46.840488 7.623138 20,250 47 457 -1088
2019-06-15 18:06:40 GMT 46.833878 7.612770 20,225 47 457 -1088
2019-06-15 18:06:37 GMT 46.830414 7.607362 20,350 47 457 -1088
2019-06-15 18:06:34 GMT 46.821774 7.593819 20,400 47 457 -1088
2019-06-15 18:06:31 GMT 46.821774 7.593819 20,400 47 457 -1088
2019-06-15 18:06:28 GMT 46.817139 7.586595 20,500 47 456 -1088
2019-06-15 18:06:25 GMT 46.812000 7.578506 20,550 47 455 -1024
2019-06-15 18:06:22 GMT 46.807949 7.572189 20,550 47 455 -1024
2019-06-15 18:06:19 GMT 46.804504 7.566767 21,000 47 453 -1088
2019-06-15 18:06:14 GMT 46.797638 7.556048 20,700 47 454 -1024
2019-06-15 18:06:11 GMT 46.793659 7.549736 20,750 47 453 -1088
2019-06-15 18:06:08 GMT 46.782532 7.532295 21,475 47 452 -1152
2019-06-15 18:06:04 GMT 46.782532 7.532295 20,875 47 452 -1152
2019-06-15 18:06:01 GMT 46.777084 7.523849 20,950 47 452 -1088
2019-06-15 18:05:58 GMT 46.773129 7.517601 21,000 47 452 -1088
2019-06-15 18:05:52 GMT 46.765121 7.505173 21,100 46 451 -1088
2019-06-15 18:05:49 GMT 46.761749 7.499777 21,150 46 451 -1088
2019-06-15 18:05:46 GMT 46.756897 7.492274 21,175 46 451 -1024
2019-06-15 18:05:43 GMT 46.753464 7.486915 21,225 46 451 -960
2019-06-15 18:05:39 GMT 46.746639 7.476265 21,300 46 451 -896
2019-06-15 18:05:36 GMT 46.742661 7.470033 21,375 47 452 -896
2019-06-15 18:05:33 GMT 46.737808 7.462463 21,400 47 453 -896
2019-06-15 18:05:30 GMT 46.733826 7.456233 21,425 47 452 -896
2019-06-15 18:05:27 GMT 46.730118 7.450472 21,475 47 454 -896
2019-06-15 18:05:23 GMT 46.724667 7.441933 21,550 46 455 -960
2019-06-15 18:05:20 GMT 46.721222 7.436577 21,550 46 455 -960
2019-06-15 18:05:17 GMT 46.715469 7.427629 21,600 47 456 -960
2019-06-15 18:05:14 GMT 46.711727 7.421745 21,675 47 456 -1024
2019-06-15 18:05:11 GMT 46.706589 7.413695 21,700 47 457 -960
2019-06-15 18:05:08 GMT 46.702240 7.406929 21,800 47 459 -960
2019-06-15 18:05:05 GMT 46.692127 7.391121 21,850 47 460 -1024
2019-06-15 18:05:00 GMT 46.692127 7.391121 21,900 47 460 -1024
2019-06-15 18:04:57 GMT 46.687454 7.383884 21,925 47 462 -1024
2019-06-15 18:04:54 GMT 46.682213 7.375740 21,975 47 464 -1024
2019-06-15 18:04:51 GMT 46.677555 7.368393 22,075 46 465 -1024
2019-06-15 18:04:45 GMT 46.668152 7.353767 22,175 46 469 -1024
2019-06-15 18:04:42 GMT 46.664009 7.347313 22,200 46 471 -1024
2019-06-15 18:04:38 GMT 46.658657 7.339005 22,225 46 471 -1024
2019-06-15 18:04:33 GMT 46.652370 7.329254 22,350 46 477 -1024
2019-06-15 18:04:30 GMT 46.646942 7.320780 22,400 46 480 -1088
2019-06-15 18:04:27 GMT 46.643017 7.314697 22,425 47 481 -1088
2019-06-15 18:04:24 GMT 46.636917 7.305238 22,550 46 488 -1152
2019-06-15 18:04:21 GMT 46.632633 7.298561 22,575 46 488 -1152
2019-06-15 18:04:17 GMT 46.626160 7.288491 22,625 46 489 -1088
2019-06-15 18:04:13 GMT 46.621555 7.281258 22,750 46 490 -1024
2019-06-15 18:04:10 GMT 46.616592 7.273552 22,775 46 491 -960
2019-06-15 18:04:07 GMT 46.610733 7.264442 22,800 46 491 -896
2019-06-15 18:04:02 GMT 46.598930 7.246170 23,275 49 496 -1152
2019-06-15 18:03:59 GMT 46.598930 7.246170 22,925 46 492 -896
2019-06-15 18:03:56 GMT 46.594273 7.238892 22,950 46 493 -896
2019-06-15 18:03:52 GMT 46.587757 7.228798 23,025 46 493 -896
2019-06-15 18:03:49 GMT 46.584312 7.223442 23,050 46 494 -896
2019-06-15 18:03:46 GMT 46.579285 7.215740 23,125 46 495 -896
2019-06-15 18:03:43 GMT 46.575233 7.209435 23,150 47 495 -960
2019-06-15 18:03:40 GMT 46.569927 7.201195 23,175 47 495 -960
2019-06-15 18:03:37 GMT 46.564014 7.191856 23,250 48 495 -1216
2019-06-15 18:03:33 GMT 46.551678 7.171257 23,375 50 495 -1152
2019-06-15 18:03:29 GMT 46.551678 7.171257 23,400 50 495 -1152
2019-06-15 18:03:26 GMT 46.549351 7.167137 23,450 51 495 -1152
2019-06-15 18:03:23 GMT 46.543671 7.156722 23,500 52 494 -1088
2019-06-15 18:03:20 GMT 46.540646 7.150932 23,575 54 494 -1088
2019-06-15 18:03:17 GMT 46.530964 7.131638 23,625 54 493 -1024
2019-06-15 18:03:14 GMT 46.527008 7.123562 23,700 54 493 -1024
2019-06-15 18:03:11 GMT 46.527008 7.123562 23,700 54 493 -1024
2019-06-15 18:03:08 GMT 46.522568 7.114384 23,750 54 493 -1024
2019-06-15 18:03:04 GMT 46.518349 7.105751 23,800 54 493 -1024
2019-06-15 18:03:00 GMT 46.514393 7.097649 23,875 54 494 -1024
2019-06-15 18:02:56 GMT 46.508339 7.085220 23,950 54 493 -1024
2019-06-15 18:02:53 GMT 46.505173 7.078746 23,975 54 493 -1024
2019-06-15 18:02:50 GMT 46.499912 7.067917 24,050 54 493 -960
2019-06-15 18:02:47 GMT 46.495468 7.058783 24,300 54 489 -1024
2019-06-15 18:02:44 GMT 46.491302 7.050133 24,150 54 490 -960
2019-06-15 18:02:39 GMT 46.486313 7.039959 24,200 54 490 -960
2019-06-15 18:02:33 GMT 46.479012 7.025002 24,300 54 488 -896
2019-06-15 18:02:29 GMT 46.467094 7.000420 24,475 54 488 -960
2019-06-15 18:02:25 GMT 46.467094 7.000420 24,450 54 488 -960
2019-06-15 18:02:22 GMT 46.463974 6.994034 24,450 54 488 -960
2019-06-15 18:02:18 GMT 46.459305 6.984424 24,550 54 489 -1024
2019-06-15 18:02:14 GMT 46.454086 6.973773 24,625 54 489 -1024
2019-06-15 18:02:11 GMT 46.449917 6.965195 24,675 54 490 -1024
2019-06-15 18:02:08 GMT 46.446030 6.957159 24,700 54 490 -1024
2019-06-15 18:02:03 GMT 46.434494 6.933579 24,800 54 492 -960
2019-06-15 18:02:00 GMT 46.434494 6.933579 24,850 54 492 -960
2019-06-15 18:01:56 GMT 46.430008 6.924401 24,850 54 492 -960
2019-06-15 18:01:53 GMT 46.422089 6.908324 24,975 54 492 -896
2019-06-15 18:01:50 GMT 46.422089 6.908324 25,050 54 492 -832
2019-06-15 18:01:47 GMT 46.418655 6.901357 25,025 54 492 -832
2019-06-15 18:01:44 GMT 46.414165 6.892204 25,125 54 488 -896
2019-06-15 18:01:41 GMT 46.410507 6.884676 25,125 54 492 -832
2019-06-15 18:01:37 GMT 46.404713 6.872841 25,200 54 491 -960
2019-06-15 18:01:34 GMT 46.399174 6.861580 25,250 54 491 -1024
2019-06-15 18:01:31 GMT 46.396820 6.856742 25,300 54 491 -1088
2019-06-15 18:01:28 GMT 46.392380 6.847631 25,325 54 492 -1088
2019-06-15 18:01:25 GMT 46.389999 6.842808 25,375 54 492 -1088
2019-06-15 18:01:22 GMT 46.386063 6.834769 25,450 54 492 -1152
2019-06-15 18:01:19 GMT 46.380020 6.822443 25,500 54 492 -1152
2019-06-15 18:01:15 GMT 46.376038 6.814407 25,550 54 492 -1088
2019-06-15 18:01:12 GMT 46.372375 6.806901 25,675 54 489 -960
2019-06-15 18:01:09 GMT 46.367611 6.797241 25,700 54 491 -960
2019-06-15 18:01:06 GMT 46.363377 6.788727 25,725 54 490 -960
2019-06-15 18:01:03 GMT 46.359184 6.780144 25,750 54 489 -960
2019-06-15 18:01:00 GMT 46.357361 6.776421 25,775 54 488 -896
2019-06-15 18:00:57 GMT 46.344818 6.750965 25,900 54 487 -960
2019-06-15 18:00:52 GMT 46.344818 6.750965 25,950 54 486 -960
2019-06-15 18:00:46 GMT 46.331772 6.724571 26,075 54 484 -1088
2019-06-15 18:00:42 GMT 46.331772 6.724571 26,100 54 484 -1088
2019-06-15 18:00:39 GMT 46.329712 6.720350 26,150 54 484 -1024
2019-06-15 18:00:36 GMT 46.326050 6.712981 26,200 54 485 -1024
2019-06-15 18:00:32 GMT 46.319801 6.700356 26,300 54 484 -1024
2019-06-15 18:00:29 GMT 46.316162 6.692951 26,325 54 484 -960
2019-06-15 18:00:26 GMT 46.312260 6.685112 26,450 54 474 -1024
2019-06-15 18:00:21 GMT 46.305496 6.671448 26,450 54 483 -960
2019-06-15 18:00:15 GMT 46.298759 6.657784 26,550 54 481 -960
2019-06-15 18:00:11 GMT 46.292038 6.644250 26,625 54 480 -1024
2019-06-15 18:00:08 GMT 46.288971 6.637953 27,050 54 474 -1024
2019-06-15 18:00:05 GMT 46.285080 6.630182 26,700 54 476 -960
2019-06-15 18:00:00 GMT 46.277664 6.615109 26,800 54 477 -960
2019-06-15 17:59:55 GMT 46.271255 6.602180 26,900 54 475 -960
2019-06-15 17:59:51 GMT 46.267181 6.593874 26,950 54 475 -960
2019-06-15 17:59:48 GMT 46.264114 6.587710 26,975 54 475 -960
2019-06-15 17:59:45 GMT 46.257980 6.575317 27,050 54 474 -896
2019-06-15 17:59:40 GMT 46.253139 6.565567 27,150 54 474 -960
2019-06-15 17:59:37 GMT 46.249603 6.558369 27,125 54 474 -960
2019-06-15 17:59:34 GMT 46.245228 6.549637 27,275 54 475 -960
2019-06-15 17:59:29 GMT 46.237869 6.534668 27,300 54 475 -960
2019-06-15 17:59:26 GMT 46.235046 6.529027 27,325 54 475 -960
2019-06-15 17:59:23 GMT 46.232483 6.523869 27,375 54 475 -960
2019-06-15 17:59:20 GMT 46.228134 6.515094 27,425 54 475 -896
2019-06-15 17:59:17 GMT 46.218643 6.496010 27,525 54 477 -896
2019-06-15 17:59:14 GMT 46.211472 6.481532 27,575 54 478 -896
2019-06-15 17:59:09 GMT 46.211472 6.481532 27,625 54 478 -896
2019-06-15 17:59:06 GMT 46.208908 6.476373 27,625 54 478 -896
2019-06-15 17:59:03 GMT 46.206299 6.471148 27,650 54 479 -832
2019-06-15 17:58:58 GMT 46.199604 6.457695 27,875 54 480 -896
2019-06-15 17:58:55 GMT 46.191879 6.442075 27,850 54 480 -896
2019-06-15 17:58:48 GMT 46.185379 6.429079 27,900 54 480 -896
2019-06-15 17:58:45 GMT 46.181774 6.421783 27,975 54 481 -960
2019-06-15 17:58:42 GMT 46.178421 6.415011 27,975 54 481 -960
2019-06-15 17:58:38 GMT 46.174515 6.407227 28,075 54 481 -1024
2019-06-15 17:58:35 GMT 46.168304 6.394713 28,125 54 483 -1024
2019-06-15 17:58:32 GMT 46.164642 6.387344 28,175 54 485 -832
2019-06-15 17:58:27 GMT 46.158142 6.374281 28,250 54 485 -896
2019-06-15 17:58:24 GMT 46.153702 6.365371 28,300 54 485 -896
2019-06-15 17:58:21 GMT 46.149563 6.356964 28,350 54 486 -896
2019-06-15 17:58:16 GMT 46.143768 6.345408 28,400 54 486 -896
2019-06-15 17:58:13 GMT 46.141136 6.340141 28,475 54 486 -896
2019-06-15 17:58:10 GMT 46.136444 6.330738 28,500 54 486 -960
2019-06-15 17:58:04 GMT 46.129032 6.316040 28,625 54 485 -960
2019-06-15 17:58:01 GMT 46.124611 6.307182 28,650 54 484 -960
2019-06-15 17:57:56 GMT 46.118046 6.294067 28,700 54 484 -960
2019-06-15 17:57:53 GMT 46.113556 6.285185 28,775 54 484 -960
2019-06-15 17:57:50 GMT 46.110180 6.278412 28,800 54 484 -896
2019-06-15 17:57:46 GMT 46.104904 6.267968 28,875 54 485 -1024
2019-06-15 17:57:42 GMT 46.099655 6.257469 28,950 54 485 -1024
2019-06-15 17:57:39 GMT 46.095467 6.249092 29,000 54 485 -960
2019-06-15 17:57:34 GMT 46.089203 6.236550 29,075 54 485 -960
2019-06-15 17:57:31 GMT 46.085770 6.229717 29,125 54 485 -896
2019-06-15 17:57:28 GMT 46.080780 6.219802 29,225 54 484 -832
2019-06-15 17:57:24 GMT 46.076843 6.211965 29,225 54 484 -832
2019-06-15 17:57:21 GMT 46.072403 6.203122 29,375 54 484 -768
2019-06-15 17:57:17 GMT 46.064510 6.187431 29,350 54 485 -832
2019-06-15 17:57:14 GMT 46.062424 6.183226 29,400 54 485 -896
2019-06-15 17:57:11 GMT 46.059017 6.176445 29,425 54 485 -960
2019-06-15 17:57:08 GMT 46.055061 6.168617 29,450 54 485 -1024
2019-06-15 17:57:03 GMT 46.049561 6.157636 29,550 54 484 -960
2019-06-15 17:57:00 GMT 46.045609 6.149803 29,575 54 484 -1024
2019-06-15 17:56:56 GMT 46.040630 6.139915 29,650 54 484 -1024
2019-06-15 17:56:52 GMT 46.035137 6.128998 29,725 54 484 -960
2019-06-15 17:56:49 GMT 46.029594 6.118080 29,750 54 484 -960
2019-06-15 17:56:46 GMT 46.026478 6.111832 29,825 54 484 -1024
2019-06-15 17:56:42 GMT 46.020939 6.100845 29,900 54 484 -704
2019-06-15 17:56:39 GMT 46.017773 6.094597 29,950 54 484 -448
2019-06-15 17:56:36 GMT 46.013855 6.086761 29,950 54 485 -384
2019-06-15 17:56:31 GMT 46.006760 6.072693 29,975 54 486 -192
2019-06-15 17:56:28 GMT 46.002037 6.063286 30,000 54 487 0
2019-06-15 17:56:25 GMT 45.998638 6.056419 30,000 54 489 -64
2019-06-15 17:56:22 GMT 45.994675 6.048577 30,000 54 489 -128
2019-06-15 17:56:19 GMT 45.990692 6.040672 30,000 54 489 -128
2019-06-15 17:56:16 GMT 45.987488 6.034308 30,025 54 491 -128
2019-06-15 17:56:13 GMT 45.984329 6.028011 30,025 54 491 -192
2019-06-15 17:56:10 GMT 45.979507 6.018517 30,050 54 492 -64
2019-06-15 17:56:07 GMT 45.974430 6.008492 30,050 53 493 0
2019-06-15 17:56:02 GMT 45.967216 5.994141 30,050 53 495 0
2019-06-15 17:55:59 GMT 45.963730 5.987281 30,050 53 494 0
2019-06-15 17:55:56 GMT 45.959396 5.978828 30,050 53 495 0
2019-06-15 17:55:50 GMT 45.952652 5.965576 30,050 53 496 0
2019-06-15 17:55:47 GMT 45.948875 5.958160 30,050 53 496 0
2019-06-15 17:55:43 GMT 45.942673 5.945881 30,050 54 496 0
2019-06-15 17:55:40 GMT 45.937283 5.935295 30,050 54 496 0
2019-06-15 17:55:36 GMT 45.933792 5.928360 30,050 53 497 0
2019-06-15 17:55:32 GMT 45.923225 5.907555 30,050 53 498 64
2019-06-15 17:55:29 GMT 45.923225 5.907555 30,050 53 498 64
2019-06-15 17:55:26 GMT 45.920525 5.902267 30,050 53 498 64
2019-06-15 17:55:20 GMT 45.912098 5.885719 30,050 53 498 0
2019-06-15 17:55:17 GMT 45.908562 5.878784 30,050 53 498 0
2019-06-15 17:55:14 GMT 45.903671 5.869171 30,050 53 498 64
2019-06-15 17:55:11 GMT 45.897991 5.857979 30,050 53 499 64
2019-06-15 17:55:07 GMT 45.893097 5.848344 30,025 53 499 64
2019-06-15 17:55:03 GMT 45.888729 5.839783 30,050 53 499 64
2019-06-15 17:54:57 GMT 45.879227 5.821079 30,025 53 500 0
2019-06-15 17:54:53 GMT 45.874855 5.812523 30,025 53 500 0
2019-06-15 17:54:48 GMT 45.863983 5.791135 30,025 53 499 64
2019-06-15 17:54:42 GMT 45.858562 5.780457 30,025 53 499 0
2019-06-15 17:54:39 GMT 45.856377 5.776131 30,025 53 499 0
2019-06-15 17:54:36 GMT 45.850937 5.765478 30,025 53 499 0
2019-06-15 17:54:33 GMT 45.848785 5.761190 30,025 53 498 64
2019-06-15 17:54:30 GMT 45.844162 5.752080 30,025 53 500 0
2019-06-15 17:54:26 GMT 45.836792 5.737677 30,025 53 498 64
2019-06-15 17:54:23 GMT 45.834354 5.732872 30,025 53 498 64
2019-06-15 17:54:20 GMT 45.828918 5.722202 30,025 53 499 0
2019-06-15 17:54:15 GMT 45.823196 5.711082 30,025 53 498 64
2019-06-15 17:54:12 GMT 45.820484 5.705750 30,025 53 498 64
2019-06-15 17:54:08 GMT 45.814198 5.693527 30,025 53 498 64
2019-06-15 17:54:05 GMT 45.808777 5.682879 30,000 53 495 0
2019-06-15 17:54:02 GMT 45.806030 5.677587 30,025 53 498 64
2019-06-15 17:53:58 GMT 45.798977 5.663727 30,000 53 498 0
2019-06-15 17:53:54 GMT 45.794369 5.654663 30,000 53 498 0
2019-06-15 17:53:51 GMT 45.791668 5.649376 30,000 53 498 0
2019-06-15 17:53:46 GMT 45.785110 5.636656 30,000 53 498 0
2019-06-15 17:53:43 GMT 45.778587 5.623901 30,000 53 498 0
2019-06-15 17:53:40 GMT 45.775635 5.618033 30,000 53 496 -64
2019-06-15 17:53:36 GMT 45.769650 5.606392 30,000 53 497 0
2019-06-15 17:53:33 GMT 45.766113 5.599544 30,000 53 496 -64
2019-06-15 17:53:30 GMT 45.760391 5.588424 30,000 53 496 -64
2019-06-15 17:53:27 GMT 45.758244 5.584145 30,000 53 496 0
2019-06-15 17:53:23 GMT 45.752239 5.572540 30,000 53 496 0
2019-06-15 17:53:20 GMT 45.748978 5.566223 30,000 53 495 0
2019-06-15 17:53:15 GMT 45.742184 5.553040 30,000 53 495 0
2019-06-15 17:53:12 GMT 45.737320 5.543540 30,000 53 495 0
2019-06-15 17:53:09 GMT 45.734070 5.537243 30,000 53 495 0
2019-06-15 17:53:05 GMT 45.728638 5.526672 30,000 53 495 0
2019-06-15 17:53:02 GMT 45.723793 5.517197 30,000 53 495 0
2019-06-15 17:52:59 GMT 45.720257 5.510330 30,000 53 495 0
2019-06-15 17:52:55 GMT 45.714855 5.499825 30,000 53 495 0
2019-06-15 17:52:51 GMT 45.709175 5.488770 30,000 53 495 0
2019-06-15 17:52:47 GMT 45.703720 5.478225 30,000 53 495 64
2019-06-15 17:52:44 GMT 45.699402 5.469818 30,000 53 495 0
2019-06-15 17:52:40 GMT 45.693722 5.458763 30,000 53 496 0
2019-06-15 17:52:37 GMT 45.689625 5.450867 30,000 53 496 0
2019-06-15 17:52:33 GMT 45.686089 5.444000 30,000 53 496 -64
2019-06-15 17:52:30 GMT 45.680920 5.433975 30,000 53 496 -64
2019-06-15 17:52:26 GMT 45.676300 5.425035 30,000 53 495 0
2019-06-15 17:52:23 GMT 45.670578 5.413982 30,000 53 495 0
2019-06-15 17:52:19 GMT 45.665695 5.404518 30,000 53 495 0
2019-06-15 17:52:15 GMT 45.659454 5.392411 30,000 53 494 0
2019-06-15 17:52:11 GMT 45.654831 5.383502 30,000 53 494 64
2019-06-15 17:52:08 GMT 45.651581 5.377205 30,000 53 495 64
2019-06-15 17:52:05 GMT 45.647507 5.369300 30,000 53 495 64
2019-06-15 17:52:00 GMT 45.639862 5.354599 30,000 53 495 0
2019-06-15 17:51:57 GMT 45.636089 5.347252 30,000 53 496 0
2019-06-15 17:51:53 GMT 45.629013 5.333527 30,000 53 497 -64
2019-06-15 17:51:48 GMT 45.623520 5.323010 30,000 53 497 -64
2019-06-15 17:51:43 GMT 45.617249 5.310885 30,000 53 497 -64
2019-06-15 17:51:40 GMT 45.611790 5.300354 30,000 53 497 -64
2019-06-15 17:51:37 GMT 45.607956 5.292932 30,000 53 497 -64
2019-06-15 17:51:34 GMT 45.604389 5.286140 30,000 53 497 -64
2019-06-15 17:51:29 GMT 45.594040 5.266136 30,025 53 496 -256
2019-06-15 17:51:26 GMT 45.588318 5.255082 30,025 53 495 -640
2019-06-15 17:51:18 GMT 45.578552 5.236221 30,125 53 494 -1024
2019-06-15 17:51:12 GMT 45.573895 5.227364 30,175 53 493 -960
2019-06-15 17:51:07 GMT 45.567657 5.215347 30,225 53 493 -960
2019-06-15 17:51:04 GMT 45.563843 5.208069 30,275 53 491 -960
2019-06-15 17:51:01 GMT 45.554626 5.190370 30,625 53 489 -896
2019-06-15 17:50:58 GMT 45.554626 5.190370 30,400 53 490 -1024
2019-06-15 17:50:55 GMT 45.550854 5.183144 30,500 53 489 -960
2019-06-15 17:50:47 GMT 45.539612 5.161351 30,575 53 489 -960
2019-06-15 17:50:43 GMT 45.535034 5.152522 30,625 53 489 -960
2019-06-15 17:50:39 GMT 45.529949 5.142740 30,725 53 490 -896
2019-06-15 17:50:36 GMT 45.526737 5.136510 30,750 53 488 -960
2019-06-15 17:50:33 GMT 45.522446 5.128261 30,775 53 489 -896
2019-06-15 17:50:30 GMT 45.518127 5.119964 30,900 53 489 -896
2019-06-15 17:50:25 GMT 45.511642 5.107596 30,900 53 488 -896
2019-06-15 17:50:22 GMT 45.506790 5.098310 30,950 53 489 -896
2019-06-15 17:50:17 GMT 45.499226 5.083856 31,050 53 490 -896
2019-06-15 17:50:12 GMT 45.494896 5.075617 31,100 53 491 -896
2019-06-15 17:50:09 GMT 45.489216 5.064764 31,175 53 491 -960
2019-06-15 17:50:05 GMT 45.483810 5.054365 31,225 53 491 -960
2019-06-15 17:50:02 GMT 45.480278 5.047615 31,250 53 491 -1024
2019-06-15 17:49:58 GMT 45.474087 5.035624 31,325 54 492 -1024
2019-06-15 17:49:54 GMT 45.469109 5.025642 31,400 55 492 -1024
2019-06-15 17:49:50 GMT 45.465225 5.017678 31,450 55 493 -1024
2019-06-15 17:49:47 GMT 45.460327 5.007477 31,500 56 493 -960
2019-06-15 17:49:44 GMT 45.456299 4.998910 31,550 56 493 -896
2019-06-15 17:49:41 GMT 45.453003 4.991847 31,600 56 493 -960
2019-06-15 17:49:38 GMT 45.449230 4.983774 31,625 56 493 -960
2019-06-15 17:49:35 GMT 45.445175 4.975172 31,675 56 492 -960
2019-06-15 17:49:31 GMT 45.439362 4.962747 31,750 56 491 -1024
2019-06-15 17:49:27 GMT 45.433823 4.950910 31,825 56 491 -1088
2019-06-15 17:49:23 GMT 45.429520 4.941820 31,900 56 491 -1088
2019-06-15 17:49:20 GMT 45.426277 4.934804 31,925 56 491 -1088
2019-06-15 17:49:17 GMT 45.422974 4.927837 31,975 56 491 -1024
2019-06-15 17:49:11 GMT 45.413452 4.907488 32,075 56 491 -960
2019-06-15 17:49:08 GMT 45.410660 4.901603 32,125 56 492 -1024
2019-06-15 17:49:00 GMT 45.400360 4.879630 32,225 56 490 -832
2019-06-15 17:48:57 GMT 45.398067 4.874781 32,250 56 490 -832
2019-06-15 17:48:54 GMT 45.393539 4.865178 32,325 56 490 -832
2019-06-15 17:48:51 GMT 45.390247 4.858235 32,375 56 490 -896
2019-06-15 17:48:48 GMT 45.386215 4.849745 32,400 56 490 -896
2019-06-15 17:48:45 GMT 45.382690 4.842224 32,450 56 490 -960
2019-06-15 17:48:42 GMT 45.376877 4.829930 32,525 56 491 -960
2019-06-15 17:48:38 GMT 45.374359 4.824633 32,600 56 492 -1024
2019-06-15 17:48:34 GMT 45.367035 4.809004 32,650 56 493 -1024
2019-06-15 17:48:31 GMT 45.364517 4.803641 32,675 56 493 -1024
2019-06-15 17:48:27 GMT 45.358200 4.790170 32,750 56 494 -1024
2019-06-15 17:48:23 GMT 45.355148 4.783675 32,975 56 496 -704
2019-06-15 17:48:20 GMT 45.350601 4.773952 32,850 56 496 -832
2019-06-15 17:48:17 GMT 45.346767 4.765856 32,975 56 495 -256
2019-06-15 17:48:14 GMT 45.341694 4.755003 32,975 56 495 -256
2019-06-15 17:48:10 GMT 45.337875 4.746898 33,025 56 495 -64
2019-06-15 17:48:06 GMT 45.334030 4.738835 33,025 56 495 -64
2019-06-15 17:48:01 GMT 45.326935 4.723729 33,000 56 495 0
2019-06-15 17:47:56 GMT 45.320068 4.709146 33,000 56 495 -64
2019-06-15 17:47:52 GMT 45.314941 4.698356 33,000 56 495 -192
2019-06-15 17:47:48 GMT 45.310410 4.688677 33,050 56 495 -192
2019-06-15 17:47:45 GMT 45.307114 4.681614 33,025 56 494 -384
2019-06-15 17:47:39 GMT 45.298737 4.663827 33,100 56 494 -960
2019-06-15 17:47:35 GMT 45.293381 4.652514 33,125 56 494 -960
2019-06-15 17:47:32 GMT 45.288300 4.641791 33,200 56 493 -896
2019-06-15 17:47:28 GMT 45.284500 4.633680 33,225 56 492 -832
2019-06-15 17:47:24 GMT 45.280197 4.624574 33,275 56 492 -832
2019-06-15 17:47:18 GMT 45.272655 4.608564 33,375 56 491 -832
2019-06-15 17:47:14 GMT 45.266830 4.596340 33,425 56 490 -832
2019-06-15 17:47:08 GMT 45.259689 4.581430 33,500 55 491 -896
2019-06-15 17:47:03 GMT 45.253849 4.569174 33,625 55 492 -960
2019-06-15 17:46:58 GMT 45.246914 4.554771 33,850 55 493 -1024
2019-06-15 17:46:54 GMT 45.238396 4.537220 33,775 55 494 -1024
2019-06-15 17:46:47 GMT 45.232773 4.525386 33,850 56 495 -896
2019-06-15 17:46:41 GMT 45.223572 4.505179 33,925 58 497 -384
2019-06-15 17:46:36 GMT 45.220184 4.497463 33,950 58 498 -192
2019-06-15 17:46:33 GMT 45.215652 4.486934 33,975 58 498 -128
2019-06-15 17:46:30 GMT 45.210415 4.474651 33,975 58 498 -128
2019-06-15 17:46:26 GMT 45.207066 4.466813 34,000 58 498 -128
2019-06-15 17:46:21 GMT 45.201370 4.453452 34,000 58 498 -128
2019-06-15 17:46:18 GMT 45.194729 4.437807 34,025 59 497 -192
2019-06-15 17:46:15 GMT 45.194729 4.437807 34,025 59 497 -256
2019-06-15 17:46:10 GMT 45.188690 4.423240 34,050 60 497 -576
2019-06-15 17:46:07 GMT 45.183929 4.411403 34,050 60 497 -576
2019-06-15 17:46:04 GMT 45.182098 4.406891 34,100 55 494 -832
2019-06-15 17:46:00 GMT 45.176422 4.392831 34,125 58 495 -896
2019-06-15 17:45:57 GMT 45.172348 4.383414 34,200 52 492 -768
2019-06-15 17:45:53 GMT 45.167862 4.373670 34,225 55 494 -832
2019-06-15 17:45:48 GMT 45.162422 4.362510 34,300 53 493 -768
2019-06-15 17:45:45 GMT 45.156742 4.351591 34,375 52 492 -768
2019-06-15 17:45:37 GMT 45.146641 4.333370 34,475 51 491 -896
2019-06-15 17:45:34 GMT 45.140961 4.323388 34,525 51 491 -960
2019-06-15 17:45:28 GMT 45.133575 4.310368 34,600 51 491 -1024
2019-06-15 17:45:25 GMT 45.130737 4.305398 34,650 51 491 -1088
2019-06-15 17:45:21 GMT 45.124191 4.293889 34,725 51 491 -1088
2019-06-15 17:45:15 GMT 45.115078 4.277902 34,850 51 490 -1088
2019-06-15 17:45:08 GMT 45.105442 4.260954 34,950 51 489 -1088
2019-06-15 17:45:04 GMT 45.098969 4.249498 35,000 51 488 -960
2019-06-15 17:44:59 GMT 45.093887 4.240526 35,125 51 486 -896
2019-06-15 17:44:56 GMT 45.088821 4.231612 35,150 51 486 -896
2019-06-15 17:44:53 GMT 45.084026 4.223238 35,200 51 485 -832
2019-06-15 17:44:48 GMT 45.077820 4.212407 35,250 51 484 -896
2019-06-15 17:44:45 GMT 45.072250 4.202538 35,325 51 484 -960
2019-06-15 17:44:39 GMT 45.065544 4.190681 35,400 51 483 -960
2019-06-15 17:44:36 GMT 45.060516 4.181772 35,450 51 483 -960
2019-06-15 17:44:32 GMT 45.055210 4.172460 35,500 51 483 -1024
2019-06-15 17:44:28 GMT 45.050171 4.163557 35,550 51 483 -1024
2019-06-15 17:44:25 GMT 45.044037 4.152765 35,625 51 482 -1088
2019-06-15 17:44:20 GMT 45.037354 4.140996 35,700 51 481 -1088
2019-06-15 17:44:16 GMT 45.029282 4.126840 35,825 51 481 -1024
2019-06-15 17:44:10 GMT 45.024216 4.118042 35,875 51 482 -768
2019-06-15 17:44:03 GMT 45.015015 4.101889 35,950 51 482 -448
2019-06-15 17:43:59 GMT 45.008560 4.090707 36,000 51 482 0
2019-06-15 17:43:53 GMT 44.999863 4.075535 36,000 51 482 0
2019-06-15 17:43:48 GMT 44.993996 4.065276 36,025 51 483 0
2019-06-15 17:43:42 GMT 44.985569 4.050606 36,025 51 484 -128
2019-06-15 17:43:36 GMT 44.977112 4.035841 36,025 51 487 -256
2019-06-15 17:43:31 GMT 44.962944 4.011216 36,050 51 492 0
2019-06-15 17:43:26 GMT 44.962944 4.011216 36,050 51 488 64
2019-06-15 17:43:22 GMT 44.956429 3.999827 36,050 51 489 0
2019-06-15 17:43:18 GMT 44.950745 3.989868 36,050 51 489 0
2019-06-15 17:43:15 GMT 44.947071 3.983415 36,050 51 490 -64
2019-06-15 17:43:09 GMT 44.938522 3.968549 36,050 51 492 0
2019-06-15 17:43:06 GMT 44.934265 3.961029 36,050 51 492 0
2019-06-15 17:43:02 GMT 44.928589 3.951024 36,050 51 493 0
2019-06-15 17:42:58 GMT 44.923782 3.942522 36,050 51 493 0
2019-06-15 17:42:53 GMT 44.916439 3.929354 36,050 53 494 -64
2019-06-15 17:42:49 GMT 44.904011 3.905439 36,050 55 496 -128
2019-06-15 17:42:45 GMT 44.904011 3.905439 36,050 55 496 -64
2019-06-15 17:42:40 GMT 44.897121 3.890902 36,050 57 498 -128
2019-06-15 17:42:36 GMT 44.894669 3.885433 36,050 59 500 -128
2019-06-15 17:42:31 GMT 44.887344 3.868168 36,050 60 500 -128
2019-06-15 17:42:28 GMT 44.884781 3.861956 36,050 60 500 0
2019-06-15 17:42:24 GMT 44.879383 3.848296 36,050 60 500 64
2019-06-15 17:42:18 GMT 44.871517 3.828333 36,050 61 501 64
2019-06-15 17:42:14 GMT 44.868164 3.819776 36,050 61 501 64
2019-06-15 17:42:11 GMT 44.864113 3.809509 36,025 61 501 64
2019-06-15 17:42:07 GMT 44.861206 3.802120 36,025 61 501 64
2019-06-15 17:42:04 GMT 44.856033 3.788975 36,025 60 502 64
2019-06-15 17:42:00 GMT 44.852428 3.779833 36,025 60 502 64
2019-06-15 17:41:56 GMT 44.848343 3.769553 36,025 60 502 64
2019-06-15 17:41:50 GMT 44.841568 3.752485 36,000 60 502 64
2019-06-15 17:41:47 GMT 44.837067 3.741046 36,000 60 502 64
2019-06-15 17:41:39 GMT 44.828018 3.718218 36,000 60 502 64
2019-06-15 17:41:36 GMT 44.825500 3.711940 36,000 60 503 64
2019-06-15 17:41:28 GMT 44.816711 3.689706 35,975 60 503 64
2019-06-15 17:41:23 GMT 44.811035 3.675385 35,975 60 503 0
2019-06-15 17:41:19 GMT 44.806297 3.663405 35,975 60 503 0
2019-06-15 17:41:16 GMT 44.799034 3.645116 35,975 60 502 0
2019-06-15 17:41:09 GMT 44.793819 3.632053 35,975 60 502 -64
2019-06-15 17:41:04 GMT 44.789257 3.620665 35,975 60 502 0
2019-06-15 17:40:57 GMT 44.780926 3.599630 36,000 60 501 -64
2019-06-15 17:40:54 GMT 44.776596 3.588778 36,000 60 501 -64
2019-06-15 17:40:46 GMT 44.768005 3.567222 36,000 60 500 0
2019-06-15 17:40:41 GMT 44.762375 3.553096 36,000 60 500 0
2019-06-15 17:40:35 GMT 44.755554 3.536057 36,000 60 500 0
2019-06-15 17:40:32 GMT 44.753784 3.531569 36,000 60 500 0
2019-06-15 17:40:26 GMT 44.746994 3.514513 35,975 60 500 0
2019-06-15 17:40:21 GMT 44.740658 3.498677 35,975 60 500 -64
2019-06-15 17:40:16 GMT 44.728882 3.469201 36,000 60 500 -128
2019-06-15 17:40:10 GMT 44.728882 3.469201 36,000 60 500 -128
2019-06-15 17:40:06 GMT 44.723419 3.455658 36,000 60 500 -128
2019-06-15 17:40:00 GMT 44.716415 3.438132 36,025 60 499 -64
2019-06-15 17:39:53 GMT 44.706940 3.414394 36,025 60 498 -64
2019-06-15 17:39:49 GMT 44.703323 3.405360 36,025 60 499 -64
2019-06-15 17:39:46 GMT 44.700855 3.399197 36,025 60 499 0
2019-06-15 17:39:38 GMT 44.691101 3.374895 36,025 60 500 0
2019-06-15 17:39:30 GMT 44.682514 3.353510 36,025 60 499 0
2019-06-15 17:39:27 GMT 44.680233 3.347816 36,000 60 499 0
2019-06-15 17:39:19 GMT 44.671387 3.325843 36,025 60 499 0
2019-06-15 17:39:14 GMT 44.659611 3.296568 36,025 60 499 0
2019-06-15 17:39:09 GMT 44.659611 3.296568 36,025 60 499 0
2019-06-15 17:39:05 GMT 44.654160 3.283016 36,000 60 499 0
2019-06-15 17:38:59 GMT 44.647785 3.267294 36,000 60 499 64
2019-06-15 17:38:55 GMT 44.643688 3.257178 36,000 60 499 64
2019-06-15 17:38:51 GMT 44.638733 3.244760 36,000 60 498 64
2019-06-15 17:38:48 GMT 44.635544 3.236880 36,000 60 498 0
2019-06-15 17:38:43 GMT 44.629669 3.222198 36,000 60 499 64
2019-06-15 17:38:38 GMT 44.624512 3.209281 36,000 60 499 64
2019-06-15 17:38:34 GMT 44.619762 3.197423 36,000 60 498 64
2019-06-15 17:38:30 GMT 44.613663 3.182217 35,975 59 498 128
2019-06-15 17:38:24 GMT 44.607891 3.168283 35,975 58 497 64
2019-06-15 17:38:16 GMT 44.597790 3.145238 35,975 57 497 64
2019-06-15 17:38:10 GMT 44.591270 3.131237 35,975 53 494 64
2019-06-15 17:38:06 GMT 44.586960 3.122210 35,975 55 495 128
2019-06-15 17:38:02 GMT 44.581215 3.110538 35,975 54 495 64
2019-06-15 17:37:49 GMT 44.564644 3.078383 35,975 54 494 0
2019-06-15 17:37:46 GMT 44.559265 3.067998 35,975 54 494 0
2019-06-15 17:37:37 GMT 44.546673 3.043682 35,975 54 494 0
2019-06-15 17:37:34 GMT 44.543198 3.036935 35,975 53 494 0
2019-06-15 17:37:29 GMT 44.536469 3.024052 35,975 53 494 -64
2019-06-15 17:37:26 GMT 44.532715 3.016793 35,975 53 494 -64
2019-06-15 17:37:18 GMT 44.522236 2.996655 35,975 53 494 -64
2019-06-15 17:37:13 GMT 44.515228 2.983180 35,975 53 494 -64
2019-06-15 17:37:09 GMT 44.508781 2.970797 35,975 53 494 -64
2019-06-15 17:37:02 GMT 44.501240 2.956327 36,000 53 493 -64
2019-06-15 17:36:59 GMT 44.495605 2.945542 36,000 53 493 -64
2019-06-15 17:36:53 GMT 44.488586 2.932107 36,000 53 493 -64
2019-06-15 17:36:46 GMT 44.478653 2.913012 36,000 53 494 -64
2019-06-15 17:36:43 GMT 44.466019 2.888816 36,000 53 494 -64
2019-06-15 17:36:36 GMT 44.466019 2.888816 36,000 53 494 0
2019-06-15 17:36:33 GMT 44.461159 2.879490 36,025 53 494 0
2019-06-15 17:36:24 GMT 44.449631 2.857361 36,025 53 495 0
2019-06-15 17:36:17 GMT 44.439651 2.838266 36,000 53 495 64
2019-06-15 17:36:12 GMT 44.433414 2.826434 36,000 53 495 64
2019-06-15 17:36:07 GMT 44.426926 2.814004 36,000 53 495 64
2019-06-15 17:36:01 GMT 44.418274 2.797525 36,000 53 495 0
2019-06-15 17:35:56 GMT 44.411255 2.784163 36,000 53 495 0
2019-06-15 17:35:49 GMT 44.403107 2.768689 36,000 53 495 0
2019-06-15 17:35:45 GMT 44.397171 2.757307 36,000 53 495 0
2019-06-15 17:35:39 GMT 44.388794 2.741350 36,000 53 495 -64
2019-06-15 17:35:33 GMT 44.380371 2.725329 36,025 53 495 -64
2019-06-15 17:35:27 GMT 44.371719 2.708784 36,025 53 496 -64
2019-06-15 17:35:24 GMT 44.368195 2.702114 36,025 53 496 -64
2019-06-15 17:35:17 GMT 44.358185 2.683009 36,025 53 496 0
2019-06-15 17:35:11 GMT 44.346268 2.660299 36,025 53 495 0
2019-06-15 17:35:05 GMT 44.341644 2.651498 36,025 53 495 0
2019-06-15 17:35:01 GMT 44.338120 2.644825 36,025 53 496 64
2019-06-15 17:34:57 GMT 44.331619 2.632468 36,000 53 496 0
2019-06-15 17:34:54 GMT 44.327274 2.624192 36,000 53 496 0
2019-06-15 17:34:50 GMT 44.322098 2.614419 36,000 53 496 0
2019-06-15 17:34:47 GMT 44.317474 2.605656 36,000 53 496 0
2019-06-15 17:34:43 GMT 44.312050 2.595386 36,000 53 496 0
2019-06-15 17:34:36 GMT 44.303905 2.579911 36,000 53 496 -64
2019-06-15 17:34:32 GMT 44.297619 2.568054 36,025 53 496 0
2019-06-15 17:34:27 GMT 44.290604 2.554648 36,025 53 496 0
2019-06-15 17:34:21 GMT 44.283001 2.540253 36,000 53 496 0
2019-06-15 17:34:16 GMT 44.274536 2.524305 36,000 53 496 64
2019-06-15 17:34:10 GMT 44.268036 2.512011 36,000 53 495 64
2019-06-15 17:34:05 GMT 44.261261 2.499128 36,000 53 495 0
2019-06-15 17:34:00 GMT 44.253342 2.484283 36,000 53 495 0
2019-06-15 17:33:54 GMT 44.245468 2.469373 36,000 53 495 0
2019-06-15 17:33:48 GMT 44.238419 2.456033 36,000 53 495 0
2019-06-15 17:33:43 GMT 44.231598 2.443216 36,000 53 495 0
2019-06-15 17:33:35 GMT 44.218853 2.419136 36,000 53 494 0
2019-06-15 17:33:32 GMT 44.214756 2.411432 36,000 53 494 0
2019-06-15 17:33:27 GMT 44.208252 2.399205 36,000 53 494 0
2019-06-15 17:33:23 GMT 44.204727 2.392535 36,000 53 494 -64
2019-06-15 17:33:18 GMT 44.197128 2.378213 36,000 53 494 0
2019-06-15 17:33:13 GMT 44.189526 2.363892 36,000 53 494 0
2019-06-15 17:33:04 GMT 44.173512 2.333810 36,000 53 494 -64
2019-06-15 17:33:01 GMT 44.173512 2.333810 36,000 53 494 -64
2019-06-15 17:32:51 GMT 44.160187 2.308854 36,000 53 494 -64
2019-06-15 17:32:48 GMT 44.155869 2.300720 36,000 53 494 -64
2019-06-15 17:32:42 GMT 44.147186 2.284390 36,000 53 494 -64
2019-06-15 17:32:39 GMT 44.143112 2.276786 36,000 53 494 -64
2019-06-15 17:32:31 GMT 44.133057 2.257952 36,025 53 494 -64
2019-06-15 17:32:28 GMT 44.117340 2.228436 36,025 53 492 0
2019-06-15 17:32:20 GMT 44.117340 2.228436 36,025 53 492 0
2019-06-15 17:32:16 GMT 44.111618 2.217769 36,025 53 492 0
2019-06-15 17:32:13 GMT 44.107826 2.210606 36,000 53 493 0
2019-06-15 17:32:09 GMT 44.104019 2.203525 36,000 53 493 0
2019-06-15 17:32:06 GMT 44.099121 2.194388 36,025 53 492 0
2019-06-15 17:32:02 GMT 44.092884 2.182748 36,000 53 492 0
2019-06-15 17:31:55 GMT 44.082550 2.163476 36,000 53 493 0
2019-06-15 17:31:52 GMT 44.079025 2.156897 36,000 53 493 0
2019-06-15 17:31:48 GMT 44.076050 2.151276 36,000 53 493 0
2019-06-15 17:31:42 GMT 44.065750 2.131986 36,000 53 492 64
2019-06-15 17:31:38 GMT 44.061134 2.123435 36,000 53 492 64
2019-06-15 17:31:34 GMT 44.055679 2.113271 36,000 53 492 64
2019-06-15 17:31:31 GMT 44.050800 2.104143 36,000 53 491 0
2019-06-15 17:31:27 GMT 44.045883 2.095067 36,000 53 492 64
2019-06-15 17:31:23 GMT 44.041031 2.085933 36,000 53 492 64
2019-06-15 17:31:20 GMT 44.037186 2.078843 36,000 53 492 0
2019-06-15 17:31:16 GMT 44.023335 2.053070 36,000 53 492 0
2019-06-15 17:31:11 GMT 44.023335 2.053070 36,000 53 491 0
2019-06-15 17:31:06 GMT 44.017365 2.041924 36,000 53 492 0
2019-06-15 17:31:00 GMT 44.009766 2.027808 36,000 53 491 0
2019-06-15 17:30:56 GMT 44.004341 2.017691 36,000 53 491 0
2019-06-15 17:30:48 GMT 43.992096 1.995041 36,000 53 491 0
2019-06-15 17:30:45 GMT 43.989395 1.989994 36,000 53 491 0
2019-06-15 17:30:37 GMT 43.979061 1.970869 36,000 53 491 0
2019-06-15 17:30:34 GMT 43.974701 1.962784 36,000 53 491 0
2019-06-15 17:30:28 GMT 43.965225 1.945155 36,000 53 490 0
2019-06-15 17:30:24 GMT 43.961151 1.937554 36,000 53 491 0
2019-06-15 17:30:19 GMT 43.952728 1.921969 36,000 53 490 0
2019-06-15 17:30:14 GMT 43.947594 1.912406 36,000 53 490 0
2019-06-15 17:30:09 GMT 43.938610 1.895796 36,000 53 490 0
2019-06-15 17:30:02 GMT 43.931580 1.882750 36,000 53 490 0
2019-06-15 17:29:58 GMT 43.924210 1.869145 36,000 53 490 0
2019-06-15 17:29:51 GMT 43.915798 1.853616 36,000 53 490 0
2019-06-15 17:29:48 GMT 43.911747 1.846095 36,000 53 490 0
2019-06-15 17:29:42 GMT 43.903290 1.830565 36,000 53 490 0
2019-06-15 17:29:38 GMT 43.897888 1.820537 36,000 53 490 0
2019-06-15 17:29:31 GMT 43.888092 1.802524 36,000 53 490 0
2019-06-15 17:29:25 GMT 43.874771 1.777933 36,000 53 490 0
2019-06-15 17:29:20 GMT 43.874771 1.777933 36,000 53 489 0
2019-06-15 17:29:16 GMT 43.859844 1.750488 36,000 53 489 0
2019-06-15 17:29:10 GMT 43.859844 1.750488 36,000 53 489 0
2019-06-15 17:29:05 GMT 43.850372 1.732966 36,000 53 488 0
2019-06-15 17:28:59 GMT 43.846577 1.726031 36,000 53 489 0
2019-06-15 17:28:55 GMT 43.839523 1.713037 36,000 52 488 0
2019-06-15 17:28:49 GMT 43.826183 1.688625 36,000 53 489 0
2019-06-15 17:28:45 GMT 43.826183 1.688625 36,000 53 489 0
2019-06-15 17:28:38 GMT 43.817505 1.672668 36,000 53 489 0
2019-06-15 17:28:34 GMT 43.812332 1.663151 36,000 53 489 0
2019-06-15 17:28:27 GMT 43.801758 1.643734 36,000 53 489 0
2019-06-15 17:28:24 GMT 43.797417 1.635786 36,000 53 489 0
2019-06-15 17:28:16 GMT 43.786514 1.615821 36,000 53 489 0
2019-06-15 17:28:05 GMT 43.772697 1.590467 36,000 52 488 -64
2019-06-15 17:28:01 GMT 43.755287 1.558555 36,000 52 488 -64
2019-06-15 17:27:53 GMT 43.755287 1.558555 36,000 52 488 0
2019-06-15 17:27:48 GMT 43.750122 1.549136 36,000 52 488 0
2019-06-15 17:27:45 GMT 43.743896 1.537703 36,000 52 488 0
2019-06-15 17:27:39 GMT 43.736805 1.524745 36,000 52 488 0
2019-06-15 17:27:32 GMT 43.727028 1.506893 36,000 52 488 0
2019-06-15 17:27:27 GMT 43.719162 1.492440 36,000 52 488 0
2019-06-15 17:27:22 GMT 43.714275 1.483481 36,000 52 488 0
2019-06-15 17:27:19 GMT 43.709656 1.475042 36,000 52 489 0
2019-06-15 17:27:13 GMT 43.700680 1.458631 36,000 52 489 0
2019-06-15 17:27:01 GMT 43.685131 1.430381 36,000 52 489 0
2019-06-15 17:26:52 GMT 43.670933 1.404550 36,000 52 489 0
2019-06-15 17:26:40 GMT 43.642227 1.352468 36,000 52 488 0
2019-06-15 17:26:30 GMT 43.628338 1.327188 36,000 52 489 0
2019-06-15 17:26:20 GMT 43.624474 1.320256 36,000 52 489 0
2019-06-15 17:26:09 GMT 43.613571 1.300411 36,000 52 488 0
2019-06-15 17:26:06 GMT 43.609203 1.292463 36,000 52 488 0
2019-06-15 17:25:58 GMT 43.599106 1.274218 36,000 52 488 0
2019-06-15 17:25:55 GMT 43.595009 1.266763 36,000 52 488 64
2019-06-15 17:25:48 GMT 43.585136 1.248975 36,000 52 488 0
2019-06-15 17:25:44 GMT 43.580750 1.241072 35,975 52 488 0
2019-06-15 17:25:35 GMT 43.566795 1.215886 35,975 52 488 0
2019-06-15 17:25:28 GMT 43.556973 1.198098 35,975 52 488 0
2019-06-15 17:25:24 GMT 43.553146 1.191186 35,975 52 488 0
2019-06-15 17:25:15 GMT 43.540558 1.168447 36,000 52 488 0
2019-06-15 17:25:07 GMT 43.528297 1.146240 36,000 52 488 0
2019-06-15 17:25:02 GMT 43.522522 1.135935 36,000 52 488 0
2019-06-15 17:24:56 GMT 43.509979 1.113260 36,000 52 488 0
2019-06-15 17:24:53 GMT 43.509979 1.113260 36,000 52 488 0
2019-06-15 17:24:46 GMT 43.499863 1.095056 36,000 52 488 0
2019-06-15 17:24:42 GMT 43.494362 1.085227 36,000 52 488 0
2019-06-15 17:24:31 GMT 43.480728 1.060564 36,000 52 488 0
2019-06-15 17:24:26 GMT 43.473598 1.047756 36,000 52 488 0
2019-06-15 17:24:23 GMT 43.468384 1.038470 36,000 52 488 0
2019-06-15 17:24:18 GMT 43.461823 1.026647 36,000 52 487 -64
2019-06-15 17:24:15 GMT 43.457199 1.018279 36,000 52 488 -64
2019-06-15 17:24:12 GMT 43.454727 1.013808 36,000 52 487 0
2019-06-15 17:24:09 GMT 43.449554 1.004483 36,000 52 487 0
2019-06-15 17:24:01 GMT 43.438869 0.985369 36,000 52 487 0
2019-06-15 17:23:58 GMT 43.434219 0.977017 36,000 52 487 0
2019-06-15 17:23:51 GMT 43.424377 0.959324 36,025 52 487 0
2019-06-15 17:23:48 GMT 43.420807 0.952936 36,000 52 487 0
2019-06-15 17:23:43 GMT 43.414246 0.941162 36,000 52 488 0
2019-06-15 17:23:40 GMT 43.410416 0.934285 36,000 52 487 0
2019-06-15 17:23:34 GMT 43.401676 0.918601 36,025 52 488 0
2019-06-15 17:23:29 GMT 43.390457 0.898459 36,000 52 488 0
2019-06-15 17:23:25 GMT 43.390457 0.898459 36,000 52 488 0
2019-06-15 17:23:22 GMT 43.381668 0.882739 36,000 52 487 0
2019-06-15 17:23:19 GMT 43.381668 0.882739 36,000 52 487 0
2019-06-15 17:23:13 GMT 43.373184 0.867528 36,000 52 487 0
2019-06-15 17:23:08 GMT 43.366013 0.854762 36,000 52 487 0
2019-06-15 17:23:02 GMT 43.358871 0.841987 36,000 52 488 0
2019-06-15 17:22:56 GMT 43.350906 0.827807 36,000 52 487 0
2019-06-15 17:22:52 GMT 43.343765 0.815081 36,000 52 487 0
2019-06-15 17:22:47 GMT 43.337173 0.803279 36,000 52 487 0
2019-06-15 17:22:43 GMT 43.331100 0.792520 36,000 52 488 0
2019-06-15 17:22:34 GMT 43.315971 0.765577 36,000 52 488 0
2019-06-15 17:22:25 GMT 43.307732 0.750863 36,025 52 488 0
2019-06-15 17:22:20 GMT 43.300552 0.738128 36,025 52 488 0
2019-06-15 17:22:13 GMT 43.289566 0.718583 36,025 52 487 0
2019-06-15 17:22:10 GMT 43.286545 0.713153 36,025 52 487 0
2019-06-15 17:22:01 GMT 43.274727 0.692139 36,025 52 488 0
2019-06-15 17:21:58 GMT 43.270306 0.684291 36,025 52 488 0
2019-06-15 17:21:51 GMT 43.260132 0.666206 36,025 52 487 0
2019-06-15 17:21:48 GMT 43.257362 0.661272 36,025 52 487 0
2019-06-15 17:21:42 GMT 43.248566 0.645643 36,000 52 487 0
2019-06-15 17:21:39 GMT 43.243584 0.636880 36,025 52 487 0
2019-06-15 17:21:33 GMT 43.234497 0.620728 36,000 52 488 0
2019-06-15 17:21:30 GMT 43.230923 0.614384 36,000 52 488 0
2019-06-15 17:21:24 GMT 43.224312 0.602679 36,000 52 487 0
2019-06-15 17:21:19 GMT 43.216862 0.589469 36,000 52 487 0
2019-06-15 17:21:15 GMT 43.211651 0.580248 36,000 52 487 0
2019-06-15 17:21:12 GMT 43.205017 0.568479 36,000 52 488 0
2019-06-15 17:21:08 GMT 43.200302 0.560239 36,000 52 488 0
2019-06-15 17:21:04 GMT 43.195637 0.551932 36,000 52 487 0
2019-06-15 17:20:58 GMT 43.187347 0.537372 36,000 52 487 0
2019-06-15 17:20:54 GMT 43.181534 0.527152 36,000 52 487 0
2019-06-15 17:20:50 GMT 43.176544 0.518401 36,000 52 488 0
2019-06-15 17:20:47 GMT 43.171326 0.509140 36,000 52 488 0
2019-06-15 17:20:39 GMT 43.161373 0.491573 36,000 52 486 0
2019-06-15 17:20:36 GMT 43.155853 0.481865 36,000 52 488 0
2019-06-15 17:20:32 GMT 43.151459 0.474073 36,000 52 487 0
2019-06-15 17:20:26 GMT 43.143169 0.459464 36,000 52 487 0
2019-06-15 17:20:21 GMT 43.135986 0.446799 36,000 52 486 0
2019-06-15 17:20:18 GMT 43.130722 0.437601 36,000 52 486 0
2019-06-15 17:20:15 GMT 43.127975 0.432682 36,000 52 486 0
2019-06-15 17:20:10 GMT 43.122208 0.422527 36,000 52 486 0
2019-06-15 17:20:07 GMT 43.117813 0.414734 36,000 52 486 64
2019-06-15 17:20:04 GMT 43.112820 0.405971 36,000 52 486 64
2019-06-15 17:19:59 GMT 43.099869 0.383180 36,000 52 486 64
2019-06-15 17:19:55 GMT 43.099869 0.383180 36,000 52 486 64
2019-06-15 17:19:49 GMT 43.092430 0.370069 36,000 52 487 0
2019-06-15 17:19:45 GMT 43.085541 0.357906 36,000 52 486 0
2019-06-15 17:19:36 GMT 43.073135 0.336105 36,000 52 486 0
2019-06-15 17:19:32 GMT 43.067322 0.325949 36,000 52 486 0
2019-06-15 17:19:26 GMT 43.060402 0.313830 36,000 52 486 0
2019-06-15 17:19:23 GMT 43.057655 0.308990 36,000 52 486 0
2019-06-15 17:19:16 GMT 43.046310 0.289158 36,000 52 485 0
2019-06-15 17:19:13 GMT 43.041641 0.280982 36,000 52 486 0
2019-06-15 17:19:05 GMT 43.030609 0.261645 36,000 52 486 0
2019-06-15 17:19:02 GMT 43.027302 0.255824 36,000 52 485 0
2019-06-15 17:18:59 GMT 43.024555 0.250985 36,000 52 485 0
2019-06-15 17:18:53 GMT 43.014641 0.233590 36,000 52 485 0
2019-06-15 17:18:49 GMT 43.009140 0.223942 36,000 52 485 0
2019-06-15 17:18:42 GMT 42.997787 0.204205 36,000 52 485 -64
2019-06-15 17:18:36 GMT 42.992844 0.195518 36,000 52 485 -64
2019-06-15 17:18:31 GMT 42.985382 0.182552 36,000 51 485 0
2019-06-15 17:18:28 GMT 42.980423 0.173885 36,000 51 485 0
2019-06-15 17:18:23 GMT 42.971298 0.157994 36,000 51 485 0
2019-06-15 17:18:20 GMT 42.968536 0.153170 36,000 51 485 0
2019-06-15 17:18:13 GMT 42.961060 0.140206 36,000 51 485 0
2019-06-15 17:18:09 GMT 42.954987 0.129600 36,000 51 485 0
2019-06-15 17:18:05 GMT 42.948910 0.119019 36,000 51 485 0
2019-06-15 17:17:59 GMT 42.939514 0.102709 36,000 51 485 0
2019-06-15 17:17:53 GMT 42.932335 0.090245 36,000 52 484 0
2019-06-15 17:17:49 GMT 42.927109 0.081120 36,000 52 484 0
2019-06-15 17:17:46 GMT 42.921341 0.071028 36,000 52 484 0
2019-06-15 17:17:41 GMT 42.915810 0.061406 36,000 52 484 0
2019-06-15 17:17:38 GMT 42.906128 0.044665 36,000 51 484 0
2019-06-15 17:17:34 GMT 42.906128 0.044665 36,000 51 483 0
2019-06-15 17:17:31 GMT 42.901749 0.036983 36,000 51 483 0
2019-06-15 17:17:28 GMT 42.897610 0.029755 36,000 51 483 0
2019-06-15 17:17:24 GMT 42.892628 0.021188 36,000 51 483 0
2019-06-15 17:17:17 GMT 42.882710 0.003924 36,000 51 483 0
2019-06-15 17:17:13 GMT 42.876938 -0.006147 35,975 51 483 0
2019-06-15 17:17:07 GMT 42.868931 -0.020011 36,000 51 483 0
2019-06-15 17:17:02 GMT 42.862320 -0.031520 36,000 51 483 0
2019-06-15 17:16:59 GMT 42.858227 -0.038714 36,000 51 483 0
2019-06-15 17:16:56 GMT 42.853802 -0.046365 36,000 51 483 0
2019-06-15 17:16:53 GMT 42.848282 -0.055890 36,000 51 483 0
2019-06-15 17:16:48 GMT 42.842468 -0.065982 36,000 51 483 0
2019-06-15 17:16:44 GMT 42.837250 -0.075052 36,000 51 483 0
2019-06-15 17:16:36 GMT 42.826172 -0.094086 35,975 51 483 0
2019-06-15 17:16:25 GMT 42.810696 -0.120850 36,000 51 483 0
2019-06-15 17:16:22 GMT 42.806320 -0.128451 36,000 51 483 0
2019-06-15 17:16:15 GMT 42.796875 -0.144633 36,000 51 483 0
2019-06-15 17:16:12 GMT 42.794128 -0.149439 36,000 51 483 0
2019-06-15 17:16:05 GMT 42.783321 -0.167989 36,000 51 483 -64
2019-06-15 17:16:02 GMT 42.778564 -0.176031 36,000 51 483 -64
2019-06-15 17:15:55 GMT 42.768036 -0.194133 36,000 51 483 -64
2019-06-15 17:15:50 GMT 42.762222 -0.204121 36,000 51 483 -64
2019-06-15 17:15:44 GMT 42.753937 -0.218416 36,000 51 483 -64
2019-06-15 17:15:38 GMT 42.746475 -0.231275 36,000 51 483 -64
2019-06-15 17:15:33 GMT 42.738724 -0.244701 36,000 51 484 0
2019-06-15 17:15:29 GMT 42.732346 -0.255624 36,000 50 483 -64
2019-06-15 17:15:21 GMT 42.721573 -0.273410 36,025 48 482 0
2019-06-15 17:15:18 GMT 42.717545 -0.279832 36,025 48 482 0
2019-06-15 17:15:13 GMT 42.708115 -0.294384 36,025 46 481 0
2019-06-15 17:15:06 GMT 42.699108 -0.307809 36,025 46 481 0
2019-06-15 17:15:02 GMT 42.693924 -0.315233 36,025 45 481 0
2019-06-15 17:14:54 GMT 42.680145 -0.334147 36,025 44 481 0
2019-06-15 17:14:50 GMT 42.675064 -0.340826 36,025 43 480 0
2019-06-15 17:14:44 GMT 42.662380 -0.356864 36,025 42 480 64
2019-06-15 17:14:41 GMT 42.659409 -0.360489 36,025 41 480 64
2019-06-15 17:14:34 GMT 42.649841 -0.372099 36,025 41 480 64
2019-06-15 17:14:31 GMT 42.642197 -0.381338 36,025 41 480 64
2019-06-15 17:14:22 GMT 42.628956 -0.397424 36,025 41 480 64
2019-06-15 17:14:19 GMT 42.623657 -0.403810 36,025 41 480 64
2019-06-15 17:14:12 GMT 42.613407 -0.416267 36,000 41 481 64
2019-06-15 17:14:09 GMT 42.607407 -0.423473 36,000 41 481 0
2019-06-15 17:14:03 GMT 42.596786 -0.436323 36,000 41 481 0
2019-06-15 17:13:59 GMT 42.588821 -0.445945 36,000 41 481 0
2019-06-15 17:13:53 GMT 42.578865 -0.457977 36,000 41 481 0
2019-06-15 17:13:47 GMT 42.572254 -0.466025 36,000 41 481 0
2019-06-15 17:13:42 GMT 42.562290 -0.478097 36,000 41 481 0
2019-06-15 17:13:39 GMT 42.556984 -0.484484 36,000 41 481 0
2019-06-15 17:13:36 GMT 42.553024 -0.489329 36,000 41 481 0
2019-06-15 17:13:30 GMT 42.542725 -0.501751 36,000 41 481 0
2019-06-15 17:13:25 GMT 42.535755 -0.510162 36,000 41 480 0
2019-06-15 17:13:19 GMT 42.525146 -0.522974 36,000 41 480 0
2019-06-15 17:13:15 GMT 42.517502 -0.532213 36,000 41 480 0
2019-06-15 17:13:11 GMT 42.509216 -0.542200 36,000 41 480 0
2019-06-15 17:13:08 GMT 42.500244 -0.552999 36,000 41 480 0
2019-06-15 17:13:00 GMT 42.492966 -0.561738 36,000 41 480 0
2019-06-15 17:12:55 GMT 42.483337 -0.573333 36,000 41 480 0
2019-06-15 17:12:48 GMT 42.472355 -0.586555 36,000 41 480 64
2019-06-15 17:12:43 GMT 42.464764 -0.595689 36,000 41 480 64
2019-06-15 17:12:36 GMT 42.453781 -0.608867 36,000 41 480 0
2019-06-15 17:12:33 GMT 42.448151 -0.615671 35,975 41 480 0
2019-06-15 17:12:26 GMT 42.436180 -0.630053 35,975 41 480 0
2019-06-15 17:12:22 GMT 42.428879 -0.638830 35,975 41 480 -64
2019-06-15 17:12:15 GMT 42.417938 -0.651939 36,000 41 480 -64
2019-06-15 17:12:12 GMT 42.413269 -0.657557 36,000 41 480 -64
2019-06-15 17:12:02 GMT 42.394730 -0.679841 36,000 41 479 0
2019-06-15 17:11:50 GMT 42.367859 -0.711989 35,975 41 479 0
2019-06-15 17:11:40 GMT 42.359928 -0.721521 35,975 41 478 0
2019-06-15 17:11:35 GMT 42.349640 -0.733848 36,000 41 478 0
2019-06-15 17:11:32 GMT 42.341721 -0.743325 36,000 41 478 0
2019-06-15 17:11:23 GMT 42.333115 -0.753625 35,975 41 478 -64
2019-06-15 17:11:20 GMT 42.326458 -0.761570 36,000 41 478 -64
2019-06-15 17:11:13 GMT 42.308258 -0.783275 36,000 41 478 0
2019-06-15 17:11:09 GMT 42.308258 -0.783275 36,000 41 478 0
2019-06-15 17:11:03 GMT 42.296665 -0.797084 36,000 41 478 0
2019-06-15 17:10:59 GMT 42.291729 -0.803024 36,000 41 478 0
2019-06-15 17:10:52 GMT 42.280151 -0.816858 36,000 41 478 0
2019-06-15 17:10:49 GMT 42.275482 -0.822352 36,000 41 478 0
2019-06-15 17:10:46 GMT 42.270538 -0.828282 36,000 41 478 0
2019-06-15 17:10:42 GMT 42.261238 -0.839368 36,000 41 478 0
2019-06-15 17:10:39 GMT 42.258957 -0.842140 36,000 41 478 0
2019-06-15 17:10:36 GMT 42.255280 -0.846458 36,000 41 478 0
2019-06-15 17:10:31 GMT 42.244389 -0.859489 36,000 41 478 -64
2019-06-15 17:10:28 GMT 42.240372 -0.864237 36,000 41 478 -64
2019-06-15 17:10:17 GMT 42.222179 -0.885932 36,000 41 478 0
2019-06-15 17:10:09 GMT 42.209240 -0.901326 36,000 41 478 0
2019-06-15 17:10:06 GMT 42.205284 -0.906053 36,025 41 478 0
2019-06-15 17:09:58 GMT 42.190338 -0.923788 36,025 41 478 0
2019-06-15 17:09:55 GMT 42.185032 -0.930133 36,025 41 478 0
2019-06-15 17:09:48 GMT 42.174133 -0.943139 36,025 41 478 0
2019-06-15 17:09:44 GMT 42.168835 -0.949423 36,025 41 478 0
2019-06-15 17:09:39 GMT 42.159195 -0.960857 36,025 41 478 0
2019-06-15 17:09:36 GMT 42.154587 -0.966360 36,025 41 478 -64
2019-06-15 17:09:33 GMT 42.149277 -0.972665 36,025 41 478 -64
2019-06-15 17:09:26 GMT 42.137318 -0.986853 36,025 41 478 0
2019-06-15 17:09:18 GMT 42.125072 -1.001353 36,025 41 478 0
2019-06-15 17:09:15 GMT 42.119392 -1.008059 36,025 41 478 0
2019-06-15 17:09:11 GMT 42.113762 -1.014766 36,025 41 478 0
2019-06-15 17:09:08 GMT 42.106476 -1.023351 36,025 41 478 0
2019-06-15 17:09:05 GMT 42.101471 -1.029266 36,025 41 478 0
2019-06-15 17:09:00 GMT 42.096165 -1.035525 36,025 41 478 64
2019-06-15 17:08:56 GMT 42.089184 -1.043765 36,025 41 478 64
2019-06-15 17:08:53 GMT 42.084572 -1.049258 36,025 41 478 64
2019-06-15 17:08:49 GMT 42.076584 -1.058683 36,000 41 478 64
2019-06-15 17:08:43 GMT 42.065964 -1.071292 36,000 41 479 64
2019-06-15 17:08:39 GMT 42.059669 -1.078768 36,000 41 479 64
2019-06-15 17:08:36 GMT 42.054016 -1.085399 36,000 41 479 64
2019-06-15 17:08:33 GMT 42.050354 -1.089706 36,000 41 479 64
2019-06-15 17:08:27 GMT 42.040695 -1.101130 36,000 41 479 64
2019-06-15 17:08:22 GMT 42.032063 -1.111280 35,975 41 478 64
2019-06-15 17:08:17 GMT 42.022427 -1.122713 35,975 41 478 0
2019-06-15 17:08:14 GMT 42.018768 -1.126973 35,975 41 478 0
2019-06-15 17:08:11 GMT 42.014786 -1.131717 36,000 41 479 0
2019-06-15 17:08:07 GMT 42.005482 -1.142706 36,000 41 479 -64
2019-06-15 17:08:04 GMT 42.000137 -1.148945 35,975 41 479 -64
2019-06-15 17:08:00 GMT 41.995472 -1.154459 36,000 41 479 -64
2019-06-15 17:07:56 GMT 41.978851 -1.174068 36,000 41 478 -64
2019-06-15 17:07:51 GMT 41.978851 -1.174068 36,000 41 478 0
2019-06-15 17:07:45 GMT 41.970566 -1.183839 36,000 41 478 0
2019-06-15 17:07:42 GMT 41.966236 -1.188951 36,000 41 478 0
2019-06-15 17:07:39 GMT 41.960953 -1.195200 36,000 41 477 0
2019-06-15 17:07:34 GMT 41.951981 -1.205750 36,000 41 477 0
2019-06-15 17:07:31 GMT 41.946991 -1.211617 36,000 41 477 0
2019-06-15 17:07:28 GMT 41.942368 -1.217048 36,000 41 477 0
2019-06-15 17:07:24 GMT 41.935043 -1.225662 36,000 41 477 -64
2019-06-15 17:07:21 GMT 41.930393 -1.231107 36,000 41 477 -64
2019-06-15 17:07:18 GMT 41.926758 -1.235400 36,000 41 477 -64
2019-06-15 17:07:11 GMT 41.913170 -1.251356 36,000 41 476 -64
2019-06-15 17:07:07 GMT 41.906525 -1.259183 36,000 41 476 -64
2019-06-15 17:07:02 GMT 41.892639 -1.275500 36,025 41 476 -64
2019-06-15 17:06:58 GMT 41.892639 -1.275500 36,025 41 476 -64
2019-06-15 17:06:52 GMT 41.880707 -1.289520 36,025 41 476 0
2019-06-15 17:06:49 GMT 41.878345 -1.292235 36,025 41 476 0
2019-06-15 17:06:46 GMT 41.871735 -1.300007 36,025 41 476 0
2019-06-15 17:06:40 GMT 41.861774 -1.311653 36,025 41 476 -64
2019-06-15 17:06:37 GMT 41.857166 -1.317082 36,025 41 476 0
2019-06-15 17:06:29 GMT 41.843582 -1.333029 36,025 41 476 0
2019-06-15 17:06:25 GMT 41.837585 -1.340020 36,025 41 476 0
2019-06-15 17:06:18 GMT 41.825325 -1.354384 36,025 41 476 0
2019-06-15 17:06:15 GMT 41.821014 -1.359433 36,025 41 476 0
2019-06-15 17:06:08 GMT 41.808746 -1.373728 36,025 41 476 0
2019-06-15 17:06:04 GMT 41.802429 -1.381094 36,025 41 476 0
2019-06-15 17:05:58 GMT 41.792175 -1.393079 36,000 41 476 0
2019-06-15 17:05:54 GMT 41.785858 -1.400445 36,000 41 476 64
2019-06-15 17:05:46 GMT 41.773232 -1.415128 36,000 41 476 64
2019-06-15 17:05:43 GMT 41.767925 -1.421324 36,000 41 476 0
2019-06-15 17:05:37 GMT 41.757980 -1.432967 36,000 41 476 0
2019-06-15 17:05:33 GMT 41.750977 -1.441082 36,000 41 476 0
2019-06-15 17:05:24 GMT 41.737713 -1.456583 36,000 41 476 0
2019-06-15 17:05:21 GMT 41.732079 -1.463162 36,000 41 476 0
2019-06-15 17:05:14 GMT 41.718109 -1.479409 36,000 41 477 0
2019-06-15 17:05:04 GMT 41.701820 -1.498356 36,000 41 477 0
2019-06-15 17:05:01 GMT 41.699818 -1.500656 36,000 41 477 0
2019-06-15 17:04:54 GMT 41.686523 -1.516113 36,000 41 476 0
2019-06-15 17:04:51 GMT 41.682549 -1.520776 36,000 41 476 0
2019-06-15 17:04:43 GMT 41.666290 -1.539709 36,000 41 476 0
2019-06-15 17:04:32 GMT 41.649994 -1.558685 36,000 41 476 0
2019-06-15 17:04:21 GMT 41.629074 -1.583030 36,000 41 477 0
2019-06-15 17:04:09 GMT 41.612091 -1.602631 36,000 40 476 0
2019-06-15 17:03:59 GMT 41.593414 -1.624166 36,000 40 476 0
2019-06-15 17:03:47 GMT 41.576782 -1.643414 36,000 40 475 0
2019-06-15 17:03:42 GMT 41.567459 -1.654254 36,000 41 476 0
2019-06-15 17:03:38 GMT 41.560501 -1.662306 36,000 40 476 0
2019-06-15 17:03:35 GMT 41.554871 -1.668861 36,000 40 476 0
2019-06-15 17:03:27 GMT 41.541542 -1.684166 36,000 40 475 64
2019-06-15 17:03:16 GMT 41.523571 -1.704861 36,000 40 475 0
2019-06-15 17:03:06 GMT 41.505890 -1.725166 36,000 40 476 0
2019-06-15 17:02:54 GMT 41.488266 -1.745515 36,000 40 476 0
2019-06-15 17:02:44 GMT 41.470596 -1.765797 36,000 40 475 0
2019-06-15 17:02:36 GMT 41.452625 -1.786428 36,000 40 475 0
2019-06-15 17:02:30 GMT 41.448257 -1.791396 36,000 40 475 0
2019-06-15 17:02:25 GMT 41.434296 -1.807438 36,000 40 475 0
2019-06-15 17:02:18 GMT 41.419018 -1.825072 36,000 40 475 0
2019-06-15 17:02:13 GMT 41.419018 -1.825072 36,000 40 475 0
2019-06-15 17:02:03 GMT 41.400394 -1.846406 36,000 39 475 0
2019-06-15 17:01:51 GMT 41.381123 -1.866677 36,000 36 475 64
2019-06-15 17:01:47 GMT 41.375443 -1.872170 36,000 34 474 0
2019-06-15 17:01:42 GMT 41.364258 -1.882446 36,000 33 474 0
2019-06-15 17:01:37 GMT 41.355797 -1.889711 36,000 31 474 0
2019-06-15 17:01:32 GMT 41.344162 -1.899048 36,000 29 474 0
2019-06-15 17:01:28 GMT 41.339630 -1.902527 36,000 28 473 -64
2019-06-15 17:01:21 GMT 41.323792 -1.913757 36,000 26 473 0
2019-06-15 17:01:10 GMT 41.303513 -1.927429 36,000 26 473 0
2019-06-15 17:01:07 GMT 41.298477 -1.930847 36,000 26 473 0
2019-06-15 17:00:59 GMT 41.284016 -1.940523 36,000 26 473 0
2019-06-15 17:00:56 GMT 41.278564 -1.944214 36,000 26 473 0
2019-06-15 17:00:49 GMT 41.262974 -1.954692 36,000 26 472 0
2019-06-15 17:00:45 GMT 41.256363 -1.959187 36,000 26 472 0
2019-06-15 17:00:38 GMT 41.240768 -1.969674 36,000 26 472 0
2019-06-15 17:00:32 GMT 41.221680 -1.982470 35,975 26 472 64
2019-06-15 17:00:25 GMT 41.216629 -1.985901 35,975 26 472 0
2019-06-15 17:00:22 GMT 41.211548 -1.989258 35,975 26 472 64
2019-06-15 17:00:16 GMT 41.198685 -1.997925 35,975 26 472 64
2019-06-15 17:00:12 GMT 41.190903 -2.003113 35,975 26 472 64
2019-06-15 17:00:06 GMT 41.179596 -2.010681 35,975 26 472 0
2019-06-15 17:00:02 GMT 41.169800 -2.017212 35,975 26 472 0
2019-06-15 16:59:56 GMT 41.158859 -2.024475 35,975 26 473 0
2019-06-15 16:59:51 GMT 41.151077 -2.029663 35,975 26 472 64
2019-06-15 16:59:45 GMT 41.138584 -2.038026 35,975 26 472 64
2019-06-15 16:59:40 GMT 41.128811 -2.044518 35,975 26 472 64
2019-06-15 16:59:34 GMT 41.116707 -2.052571 35,950 26 472 0
2019-06-15 16:59:29 GMT 41.106930 -2.059063 35,950 26 473 0
2019-06-15 16:59:24 GMT 41.097572 -2.065305 35,950 26 472 0
2019-06-15 16:59:19 GMT 41.088589 -2.071297 35,950 26 472 0
2019-06-15 16:59:14 GMT 41.076485 -2.079350 35,950 26 472 0
2019-06-15 16:59:08 GMT 41.066708 -2.085842 35,950 26 473 0
2019-06-15 16:59:02 GMT 41.053802 -2.094482 35,950 26 473 -64
2019-06-15 16:58:59 GMT 41.046799 -2.099182 35,950 26 473 -64
2019-06-15 16:58:52 GMT 41.034714 -2.107300 35,950 26 473 0
2019-06-15 16:58:46 GMT 41.024139 -2.114380 35,975 26 473 -64
2019-06-15 16:58:40 GMT 41.010498 -2.123535 35,975 26 473 -64
2019-06-15 16:58:36 GMT 41.005783 -2.126648 35,975 26 473 -64
2019-06-15 16:58:29 GMT 40.990501 -2.136778 35,975 26 474 -64
2019-06-15 16:58:26 GMT 40.983475 -2.141460 35,975 26 474 -64
2019-06-15 16:58:19 GMT 40.970535 -2.150085 35,975 26 474 -128
2019-06-15 16:58:16 GMT 40.961563 -2.156067 36,000 26 474 -128
2019-06-15 16:58:10 GMT 40.950977 -2.163121 36,000 26 474 -64
2019-06-15 16:58:04 GMT 40.941559 -2.169434 36,000 26 474 -64
2019-06-15 16:57:57 GMT 40.927094 -2.179077 36,025 26 474 -64
2019-06-15 16:57:53 GMT 40.919632 -2.184021 36,025 26 475 -64
2019-06-15 16:57:47 GMT 40.909424 -2.190796 36,025 26 475 -64
2019-06-15 16:57:44 GMT 40.900360 -2.196777 36,050 26 475 -64
2019-06-15 16:57:36 GMT 40.886215 -2.206116 36,050 26 476 -64
2019-06-15 16:57:33 GMT 40.878731 -2.211061 36,050 26 476 -64
2019-06-15 16:57:25 GMT 40.864578 -2.220487 36,050 26 477 -64
2019-06-15 16:57:20 GMT 40.856277 -2.226013 36,050 26 477 0
2019-06-15 16:57:15 GMT 40.832970 -2.241523 36,050 26 479 0
2019-06-15 16:57:09 GMT 40.832970 -2.241523 36,050 26 479 0
2019-06-15 16:57:04 GMT 40.823101 -2.248077 36,050 26 479 0
2019-06-15 16:57:00 GMT 40.816360 -2.252502 36,050 26 481 0
2019-06-15 16:56:55 GMT 40.803268 -2.261169 36,050 26 480 0
2019-06-15 16:56:50 GMT 40.792934 -2.268053 36,050 26 481 0
2019-06-15 16:56:44 GMT 40.782211 -2.275146 36,050 26 481 0
2019-06-15 16:56:39 GMT 40.771847 -2.282035 36,050 26 482 0
2019-06-15 16:56:33 GMT 40.761108 -2.289185 36,050 26 482 -64
2019-06-15 16:56:27 GMT 40.750305 -2.296265 36,050 26 482 64
2019-06-15 16:56:22 GMT 40.739960 -2.303134 36,050 26 482 0
2019-06-15 16:56:16 GMT 40.727528 -2.311249 36,050 26 482 64
2019-06-15 16:56:11 GMT 40.719566 -2.316492 36,050 26 482 64
2019-06-15 16:56:02 GMT 40.699173 -2.329895 36,025 26 483 0
2019-06-15 16:55:52 GMT 40.678741 -2.343334 36,025 26 483 0
2019-06-15 16:55:40 GMT 40.653931 -2.359626 36,025 26 484 0
2019-06-15 16:55:31 GMT 40.631882 -2.374146 36,025 26 485 0
2019-06-15 16:55:21 GMT 40.610229 -2.388367 36,025 26 484 0
2019-06-15 16:55:10 GMT 40.595444 -2.398132 36,025 26 484 0
2019-06-15 16:55:07 GMT 40.587406 -2.403384 36,025 26 484 0
2019-06-15 16:54:59 GMT 40.574604 -2.411811 36,025 26 484 0
2019-06-15 16:54:56 GMT 40.565781 -2.417603 36,000 26 484 64
2019-06-15 16:54:48 GMT 40.548580 -2.428915 36,000 26 483 64
2019-06-15 16:54:45 GMT 40.543785 -2.432098 36,000 26 483 64
2019-06-15 16:54:37 GMT 40.529774 -2.441212 36,000 26 483 64
2019-06-15 16:54:34 GMT 40.521744 -2.446472 35,975 26 483 64
2019-06-15 16:54:29 GMT 40.514145 -2.451416 35,975 26 483 64
2019-06-15 16:54:26 GMT 40.507736 -2.455627 35,975 26 483 0
2019-06-15 16:54:23 GMT 40.498535 -2.461609 35,975 26 483 0
2019-06-15 16:54:19 GMT 40.492905 -2.465245 35,975 26 483 0
2019-06-15 16:54:15 GMT 40.484898 -2.470488 35,975 26 483 0
2019-06-15 16:54:12 GMT 40.478119 -2.474915 35,975 26 483 0
2019-06-15 16:54:08 GMT 40.472900 -2.478333 35,975 26 483 0
2019-06-15 16:54:05 GMT 40.466080 -2.482788 35,975 26 483 64
2019-06-15 16:54:01 GMT 40.451294 -2.492432 35,975 26 483 0
2019-06-15 16:53:54 GMT 40.442093 -2.498413 35,950 26 482 0
2019-06-15 16:53:49 GMT 40.432480 -2.504700 35,975 26 482 64
2019-06-15 16:53:45 GMT 40.424103 -2.510132 35,950 26 482 64
2019-06-15 16:53:42 GMT 40.418106 -2.514099 35,950 26 482 64
2019-06-15 16:53:37 GMT 40.409317 -2.519836 35,950 24 481 0
2019-06-15 16:53:32 GMT 40.398964 -2.526668 35,950 26 482 0
2019-06-15 16:53:29 GMT 40.392960 -2.530538 35,950 25 482 0
2019-06-15 16:53:26 GMT 40.386520 -2.534546 35,950 24 481 0
2019-06-15 16:53:22 GMT 40.379642 -2.538778 35,950 24 481 -64
2019-06-15 16:53:16 GMT 40.367077 -2.546082 35,950 22 479 -64
2019-06-15 16:53:12 GMT 40.359303 -2.550389 35,950 22 479 -64
2019-06-15 16:53:09 GMT 40.350269 -2.555133 35,950 21 478 0
2019-06-15 16:53:05 GMT 40.343674 -2.558533 35,950 21 478 -64
2019-06-15 16:53:02 GMT 40.336670 -2.562073 35,950 21 478 0
2019-06-15 16:52:58 GMT 40.330856 -2.564941 35,950 21 478 0
2019-06-15 16:52:55 GMT 40.325089 -2.567871 35,950 21 478 -64
2019-06-15 16:52:48 GMT 40.309025 -2.575919 35,975 21 478 0
2019-06-15 16:52:45 GMT 40.302841 -2.579041 35,975 21 478 0
2019-06-15 16:52:41 GMT 40.293365 -2.583801 35,975 21 478 0
2019-06-15 16:52:37 GMT 40.287598 -2.586731 35,975 21 478 0
2019-06-15 16:52:34 GMT 40.282608 -2.589233 35,975 21 478 0
2019-06-15 16:52:28 GMT 40.266953 -2.597107 35,975 21 478 -64
2019-06-15 16:52:24 GMT 40.247177 -2.607117 35,975 21 478 -64
2019-06-15 16:52:19 GMT 40.247177 -2.607117 35,975 21 478 -64
2019-06-15 16:52:12 GMT 40.236820 -2.612312 35,975 21 478 -64
2019-06-15 16:52:06 GMT 40.223228 -2.619178 35,975 21 478 -64
2019-06-15 16:52:03 GMT 40.216198 -2.622674 35,975 21 478 -64
2019-06-15 16:51:59 GMT 40.205864 -2.627855 36,000 21 478 -64
2019-06-15 16:51:54 GMT 40.197601 -2.632019 36,000 21 478 -64
2019-06-15 16:51:50 GMT 40.188950 -2.636353 36,000 21 478 -64
2019-06-15 16:51:45 GMT 40.181099 -2.640339 36,000 21 479 -64
2019-06-15 16:51:42 GMT 40.174072 -2.643860 36,000 21 479 -64
2019-06-15 16:51:39 GMT 40.168297 -2.646769 36,000 21 479 -64
2019-06-15 16:51:35 GMT 40.158798 -2.651575 36,025 21 478 -64
2019-06-15 16:51:32 GMT 40.152142 -2.654884 36,025 21 478 -64
2019-06-15 16:51:29 GMT 40.145554 -2.658203 36,025 21 479 0
2019-06-15 16:51:25 GMT 40.136444 -2.662781 36,025 21 479 0
2019-06-15 16:51:19 GMT 40.124027 -2.668991 36,025 21 479 0
2019-06-15 16:51:13 GMT 40.110760 -2.675608 36,025 20 480 0
2019-06-15 16:51:08 GMT 40.100784 -2.680603 36,025 20 480 0
2019-06-15 16:51:03 GMT 40.089951 -2.685970 36,025 20 481 0
2019-06-15 16:50:59 GMT 40.085815 -2.688049 36,025 20 481 0
2019-06-15 16:50:54 GMT 40.074169 -2.693835 36,025 20 482 0
2019-06-15 16:50:49 GMT 40.062901 -2.699391 36,025 20 482 0
2019-06-15 16:50:42 GMT 40.047028 -2.707194 36,025 20 483 0
2019-06-15 16:50:39 GMT 40.042000 -2.709690 36,025 20 483 -64
2019-06-15 16:50:32 GMT 40.028641 -2.716370 36,025 20 483 0
2019-06-15 16:50:28 GMT 40.021145 -2.720115 36,025 20 483 0
2019-06-15 16:50:25 GMT 40.001080 -2.730103 36,025 21 484 0
2019-06-15 16:50:18 GMT 39.997730 -2.731788 36,025 21 484 0
2019-06-15 16:50:12 GMT 39.987259 -2.737000 36,025 21 485 0
2019-06-15 16:50:07 GMT 39.977200 -2.742025 36,025 21 485 0
2019-06-15 16:50:03 GMT 39.967163 -2.747009 36,025 20 484 -64
2019-06-15 16:50:00 GMT 39.961716 -2.749756 36,025 20 484 -64
2019-06-15 16:49:56 GMT 39.952900 -2.754135 36,025 20 484 -64
2019-06-15 16:49:50 GMT 39.932373 -2.764282 36,025 20 484 0
2019-06-15 16:49:46 GMT 39.932373 -2.764282 36,025 20 484 0
2019-06-15 16:49:41 GMT 39.919373 -2.770764 36,025 20 484 0
2019-06-15 16:49:36 GMT 39.909714 -2.775541 36,025 20 484 0
2019-06-15 16:49:29 GMT 39.895454 -2.782593 36,025 20 485 64
2019-06-15 16:49:25 GMT 39.887100 -2.786766 36,025 20 485 64
2019-06-15 16:49:22 GMT 39.881626 -2.789490 36,025 20 485 64
2019-06-15 16:49:18 GMT 39.873203 -2.793640 36,000 20 485 64
2019-06-15 16:49:12 GMT 39.858955 -2.800659 36,000 20 486 0
2019-06-15 16:49:09 GMT 39.853046 -2.803589 36,000 20 486 0
2019-06-15 16:49:04 GMT 39.842972 -2.808559 36,000 20 486 0
2019-06-15 16:49:01 GMT 39.837936 -2.811067 36,000 20 486 0
2019-06-15 16:48:57 GMT 39.829491 -2.815247 36,000 20 486 0
2019-06-15 16:48:54 GMT 39.822784 -2.818542 36,000 20 486 0
2019-06-15 16:48:51 GMT 39.815662 -2.822083 36,000 20 486 0
2019-06-15 16:48:48 GMT 39.808090 -2.825815 36,000 20 486 0
2019-06-15 16:48:42 GMT 39.791271 -2.834167 36,000 20 485 0
2019-06-15 16:48:36 GMT 39.783325 -2.838115 36,000 20 485 0
2019-06-15 16:48:33 GMT 39.779526 -2.839966 36,000 20 485 0
2019-06-15 16:48:29 GMT 39.769436 -2.844971 36,000 20 485 0
2019-06-15 16:48:26 GMT 39.763138 -2.848086 36,000 20 485 0
2019-06-15 16:48:23 GMT 39.756401 -2.851379 36,000 20 485 0
2019-06-15 16:48:19 GMT 39.747604 -2.855774 36,000 20 486 0
2019-06-15 16:48:14 GMT 39.738373 -2.860326 36,000 20 486 0
2019-06-15 16:48:10 GMT 39.728256 -2.865342 36,000 20 486 0
2019-06-15 16:48:02 GMT 39.713562 -2.872626 36,000 20 486 0
2019-06-15 16:47:59 GMT 39.706421 -2.876149 36,000 20 486 0
2019-06-15 16:47:54 GMT 39.695114 -2.881762 36,000 20 485 0
2019-06-15 16:47:49 GMT 39.685867 -2.886299 36,000 20 485 64
2019-06-15 16:47:41 GMT 39.669891 -2.894121 35,975 20 485 0
2019-06-15 16:47:38 GMT 39.662739 -2.897644 35,975 20 485 0
2019-06-15 16:47:34 GMT 39.647655 -2.905090 35,975 20 485 0
2019-06-15 16:47:28 GMT 39.640503 -2.908571 35,975 20 485 0
2019-06-15 16:47:23 GMT 39.632526 -2.912476 35,975 20 485 0
2019-06-15 16:47:20 GMT 39.625809 -2.915736 35,975 20 485 0
2019-06-15 16:47:17 GMT 39.619072 -2.919067 36,000 20 484 0
2019-06-15 16:47:12 GMT 39.607761 -2.924622 36,000 21 485 -64
2019-06-15 16:47:08 GMT 39.596878 -2.930006 36,000 21 485 -64
2019-06-15 16:47:02 GMT 39.581772 -2.937469 36,000 20 484 -64
2019-06-15 16:46:56 GMT 39.573406 -2.941650 36,000 20 483 0
2019-06-15 16:46:49 GMT 39.558369 -2.949036 36,000 20 483 0
2019-06-15 16:46:45 GMT 39.550827 -2.952759 36,000 21 484 0
2019-06-15 16:46:39 GMT 39.537872 -2.959203 36,000 21 484 0
2019-06-15 16:46:36 GMT 39.533295 -2.961472 36,000 21 484 0
2019-06-15 16:46:31 GMT 39.522385 -2.966858 36,000 21 484 -64
2019-06-15 16:46:28 GMT 39.516983 -2.969604 36,000 21 484 -64
2019-06-15 16:46:25 GMT 39.510281 -2.972900 36,025 21 484 -64
2019-06-15 16:46:21 GMT 39.501114 -2.977474 36,025 20 483 0
2019-06-15 16:46:18 GMT 39.494843 -2.980579 36,025 20 483 0
2019-06-15 16:46:15 GMT 39.488541 -2.983643 36,025 20 483 0
2019-06-15 16:46:10 GMT 39.478951 -2.988403 36,025 20 483 0
2019-06-15 16:46:05 GMT 39.467686 -2.993958 36,025 20 483 64
2019-06-15 16:46:00 GMT 39.457626 -2.998909 36,000 20 483 64
2019-06-15 16:45:57 GMT 39.450554 -3.002441 36,000 20 483 0
2019-06-15 16:45:54 GMT 39.445107 -3.005127 36,000 20 483 0
2019-06-15 16:45:49 GMT 39.435101 -3.010071 36,000 20 483 0
2019-06-15 16:45:44 GMT 39.424625 -3.015259 36,000 20 483 0
2019-06-15 16:45:39 GMT 39.412079 -3.021419 36,000 20 483 0
2019-06-15 16:45:33 GMT 39.402046 -3.026367 36,000 20 483 0
2019-06-15 16:45:29 GMT 39.391621 -3.031494 36,000 20 483 0
2019-06-15 16:45:23 GMT 39.382004 -3.036167 36,000 20 483 0
2019-06-15 16:45:17 GMT 39.365295 -3.044288 36,000 20 481 0
2019-06-15 16:45:13 GMT 39.359032 -3.047302 36,000 20 481 -64
2019-06-15 16:45:06 GMT 39.343597 -3.054796 36,000 20 480 0
2019-06-15 16:45:03 GMT 39.336967 -3.057983 36,000 20 479 0
2019-06-15 16:44:56 GMT 39.322815 -3.064819 36,000 20 479 0
2019-06-15 16:44:52 GMT 39.315353 -3.068470 36,000 20 478 0
2019-06-15 16:44:45 GMT 39.300842 -3.075455 36,000 20 478 0
2019-06-15 16:44:41 GMT 39.292557 -3.079529 36,000 20 478 0
2019-06-15 16:44:36 GMT 39.283859 -3.083755 36,000 20 478 0
2019-06-15 16:44:33 GMT 39.277634 -3.086740 36,000 20 478 0
2019-06-15 16:44:30 GMT 39.271042 -3.089964 36,000 20 478 0
2019-06-15 16:44:24 GMT 39.257362 -3.096619 36,000 20 479 0
2019-06-15 16:44:21 GMT 39.249031 -3.100647 36,000 20 480 0
2019-06-15 16:44:16 GMT 39.239090 -3.105489 36,000 20 481 0
2019-06-15 16:44:13 GMT 39.234924 -3.107519 36,000 20 481 0
2019-06-15 16:44:09 GMT 39.227005 -3.111340 35,975 20 486 384
2019-06-15 16:44:02 GMT 39.213226 -3.118027 36,000 20 483 0
2019-06-15 16:43:59 GMT 39.205307 -3.121908 36,000 20 484 0
2019-06-15 16:43:54 GMT 39.194000 -3.127461 36,000 20 485 64
2019-06-15 16:43:51 GMT 39.188557 -3.130127 36,000 20 485 64
2019-06-15 16:43:48 GMT 39.183929 -3.132357 36,000 20 486 0
2019-06-15 16:43:45 GMT 39.174225 -3.137015 35,975 20 487 64
2019-06-15 16:43:41 GMT 39.167519 -3.140320 35,975 20 487 192
2019-06-15 16:43:37 GMT 39.159882 -3.143982 35,975 20 487 384
2019-06-15 16:43:31 GMT 39.145542 -3.150879 35,825 20 488 512
2019-06-15 16:43:28 GMT 39.138336 -3.154330 35,875 20 488 448
2019-06-15 16:43:22 GMT 39.127762 -3.159465 35,825 20 487 256
2019-06-15 16:43:19 GMT 39.121857 -3.162331 35,825 20 487 256
2019-06-15 16:43:14 GMT 39.108810 -3.168600 35,800 20 485 448
2019-06-15 16:43:10 GMT 39.101624 -3.172063 35,775 20 485 512
2019-06-15 16:43:07 GMT 39.093220 -3.176147 35,750 20 485 704
2019-06-15 16:42:59 GMT 39.071804 -3.186523 35,650 20 485 640
2019-06-15 16:42:55 GMT 39.071804 -3.186523 35,625 20 485 512
2019-06-15 16:42:49 GMT 39.059654 -3.192444 35,600 20 484 384
2019-06-15 16:42:40 GMT 39.039093 -3.202336 35,500 20 483 1344
2019-06-15 16:42:37 GMT 39.022751 -3.210217 34,875 20 483 1344
2019-06-15 16:42:32 GMT 39.022751 -3.210217 35,325 20 486 1408
2019-06-15 16:42:29 GMT 39.016872 -3.213074 34,875 20 487 1472
2019-06-15 16:42:18 GMT 38.993683 -3.224248 35,025 20 489 1536
2019-06-15 16:42:07 GMT 38.969902 -3.235718 34,725 20 492 1216
2019-06-15 16:41:55 GMT 38.944244 -3.248132 34,550 20 493 896
2019-06-15 16:41:44 GMT 38.922001 -3.258789 34,375 20 493 576
2019-06-15 16:41:35 GMT 38.898956 -3.269836 34,275 20 492 576
2019-06-15 16:41:26 GMT 38.880615 -3.278643 34,200 20 491 320
2019-06-15 16:41:13 GMT 38.855530 -3.290704 34,100 20 489 1024
2019-06-15 16:41:05 GMT 38.836853 -3.299720 33,850 20 491 1344
2019-06-15 16:40:58 GMT 38.823261 -3.306213 33,800 20 492 1216
2019-06-15 16:40:55 GMT 38.810043 -3.312622 33,675 20 492 1024
2019-06-15 16:40:47 GMT 38.798546 -3.318115 33,575 20 492 960
2019-06-15 16:40:42 GMT 38.787838 -3.323242 33,500 20 493 960
2019-06-15 16:40:34 GMT 38.771622 -3.331067 33,375 20 493 960
2019-06-15 16:40:30 GMT 38.764374 -3.334534 33,325 20 493 832
2019-06-15 16:40:25 GMT 38.752396 -3.340262 33,225 20 492 576
2019-06-15 16:40:20 GMT 38.741283 -3.345520 33,200 20 492 576
2019-06-15 16:40:14 GMT 38.727596 -3.352051 33,150 20 491 704
2019-06-15 16:40:07 GMT 38.715679 -3.357666 33,050 20 490 832
2019-06-15 16:40:03 GMT 38.705856 -3.362366 33,000 20 491 832
2019-06-15 16:39:59 GMT 38.696083 -3.367004 32,925 20 491 1152
2019-06-15 16:39:53 GMT 38.683746 -3.372925 32,825 20 492 1344
2019-06-15 16:39:48 GMT 38.663269 -3.382714 32,650 20 492 1280
2019-06-15 16:39:43 GMT 38.652973 -3.387634 32,525 20 493 832
2019-06-15 16:39:38 GMT 38.652973 -3.387634 32,525 20 493 832
2019-06-15 16:39:34 GMT 38.640591 -3.393555 32,450 20 493 1280
2019-06-15 16:39:30 GMT 38.635052 -3.396179 32,400 20 493 1600
2019-06-15 16:39:27 GMT 38.628662 -3.399254 32,325 20 494 1536
2019-06-15 16:39:24 GMT 38.622204 -3.402344 32,225 20 494 1472
2019-06-15 16:39:20 GMT 38.614517 -3.406001 32,150 20 495 1024
2019-06-15 16:39:13 GMT 38.598183 -3.413818 31,975 20 494 1088
2019-06-15 16:39:06 GMT 38.581467 -3.421764 31,925 20 494 896
2019-06-15 16:39:02 GMT 38.574581 -3.425049 31,900 20 494 896
2019-06-15 16:38:52 GMT 38.552307 -3.435616 31,725 20 494 960
2019-06-15 16:38:42 GMT 38.530884 -3.445766 31,575 20 494 1088
2019-06-15 16:38:34 GMT 38.513351 -3.454125 31,425 20 494 1024
2019-06-15 16:38:31 GMT 38.509453 -3.455994 31,375 20 494 896
2019-06-15 16:38:25 GMT 38.497025 -3.461853 31,300 20 494 896
2019-06-15 16:38:22 GMT 38.468719 -3.475281 31,150 20 494 896
2019-06-15 16:38:13 GMT 38.468719 -3.475281 31,100 20 493 768
2019-06-15 16:38:02 GMT 38.446060 -3.486010 30,975 20 492 832
2019-06-15 16:37:51 GMT 38.422989 -3.496877 30,825 20 492 1088
2019-06-15 16:37:41 GMT 38.401657 -3.506976 30,625 20 493 1344
2019-06-15 16:37:30 GMT 38.376408 -3.518969 30,375 20 495 1280
2019-06-15 16:37:24 GMT 38.365234 -3.524283 30,250 20 495 1280
2019-06-15 16:37:20 GMT 38.357090 -3.528164 30,075 20 497 1280
2019-06-15 16:37:09 GMT 38.332535 -3.539760 29,950 20 497 1216
2019-06-15 16:36:58 GMT 38.310104 -3.550337 29,725 20 498 1216
2019-06-15 16:36:53 GMT 38.296692 -3.556590 29,600 20 498 1344
2019-06-15 16:36:48 GMT 38.287628 -3.560856 29,525 20 498 1280
2019-06-15 16:36:40 GMT 38.269432 -3.569422 29,375 20 498 1024
2019-06-15 16:36:37 GMT 38.263824 -3.572076 29,300 20 498 960
2019-06-15 16:36:28 GMT 38.243042 -3.581835 29,150 20 498 1088
2019-06-15 16:36:21 GMT 38.228760 -3.588556 29,025 20 499 1472
2019-06-15 16:36:15 GMT 38.214066 -3.595510 28,875 20 499 1600
2019-06-15 16:36:10 GMT 38.205368 -3.599600 28,750 20 500 1600
2019-06-15 16:36:05 GMT 38.196251 -3.603934 28,650 20 501 1472
2019-06-15 16:36:00 GMT 38.183624 -3.609885 28,500 20 502 1152
2019-06-15 16:35:56 GMT 38.171391 -3.615636 28,400 19 502 1152
2019-06-15 16:35:49 GMT 38.146393 -3.626623 28,150 18 502 1152
2019-06-15 16:35:39 GMT 38.059666 -3.660059 28,000 16 502 1216
2019-06-15 16:35:05 GMT 38.059666 -3.660059 27,375 16 502 1152
2019-06-15 16:34:56 GMT 38.041901 -3.666804 27,225 16 502 1216
2019-06-15 16:34:46 GMT 38.019608 -3.675277 27,025 16 502 1344
2019-06-15 16:34:35 GMT 37.997379 -3.683704 26,800 16 503 1408
2019-06-15 16:34:26 GMT 37.972824 -3.693043 26,550 16 504 1472
2019-06-15 16:34:14 GMT 37.947754 -3.702572 26,325 16 505 896
2019-06-15 16:34:05 GMT 37.926315 -3.710749 26,175 16 503 704
2019-06-15 16:33:43 GMT 37.879486 -3.728573 25,750 16 504 1472
2019-06-15 16:33:34 GMT 37.856701 -3.737262 25,525 16 504 960
2019-06-15 16:33:21 GMT 37.831608 -3.746696 25,325 16 504 896
2019-06-15 16:33:10 GMT 37.804367 -3.757032 25,125 16 503 1728
2019-06-15 16:33:00 GMT 37.784729 -3.764549 24,875 16 504 1728
2019-06-15 16:32:18 GMT 37.689064 -3.800732 24,175 16 503 1152
2019-06-15 16:32:15 GMT 37.680592 -3.803956 24,050 16 502 896
2019-06-15 16:32:00 GMT 37.648132 -3.816230 23,850 16 499 640
2019-06-15 16:31:13 GMT 37.546646 -3.854448 23,075 16 492 1472
2019-06-15 16:31:02 GMT 37.521744 -3.863798 22,825 16 491 1280
2019-06-15 16:30:45 GMT 37.485584 -3.877398 22,475 16 489 1216
2019-06-15 16:30:42 GMT 37.476929 -3.880628 22,400 16 488 1280
2019-06-15 16:30:35 GMT 37.464798 -3.885245 22,275 16 487 1280
2019-06-15 16:30:32 GMT 37.457428 -3.887991 22,200 16 487 1344
2019-06-15 16:30:24 GMT 37.439255 -3.894829 22,025 16 486 1280
2019-06-15 16:30:15 GMT 37.419434 -3.902296 21,850 16 484 896
2019-06-15 16:30:04 GMT 37.395905 -3.911191 21,675 16 482 1344
2019-06-15 16:30:01 GMT 37.390339 -3.913282 21,625 16 481 1408
2019-06-15 16:29:55 GMT 37.375813 -3.918716 21,475 16 481 1216
2019-06-15 16:29:49 GMT 37.363430 -3.923373 21,375 16 480 1216
2019-06-15 16:29:44 GMT 37.354477 -3.926736 21,275 16 480 1088
2019-06-15 16:29:41 GMT 37.346375 -3.929775 21,200 16 479 1024
2019-06-15 16:29:33 GMT 37.331123 -3.935554 21,100 16 477 1088
2019-06-15 16:29:30 GMT 37.323071 -3.938599 21,025 16 476 1088
2019-06-15 16:29:21 GMT 37.303238 -3.946122 20,825 16 474 1472
2019-06-15 16:29:13 GMT 37.288101 -3.951922 20,650 17 473 1408
2019-06-15 16:29:09 GMT 37.279266 -3.955253 20,575 17 473 1344
2019-06-15 16:29:02 GMT 37.265442 -3.960571 20,425 17 471 1152
2019-06-15 16:28:59 GMT 37.260452 -3.962500 20,375 17 471 1216
2019-06-15 16:28:52 GMT 37.244568 -3.968519 20,225 16 469 1472
2019-06-15 16:28:49 GMT 37.237507 -3.971199 20,150 16 468 1600
2019-06-15 16:28:42 GMT 37.216743 -3.979021 19,900 16 468 1728
2019-06-15 16:28:31 GMT 37.198608 -3.986576 19,650 23 468 1856
2019-06-15 16:28:28 GMT 37.189838 -3.991381 19,550 27 469 1792
2019-06-15 16:28:25 GMT 37.180573 -3.997504 19,475 30 469 1536
2019-06-15 16:28:21 GMT 37.180573 -3.997504 19,425 31 470 1472
2019-06-15 16:28:17 GMT 37.173477 -4.002822 19,350 32 470 1280
2019-06-15 16:28:13 GMT 37.165165 -4.009831 19,275 37 469 1600
2019-06-15 16:28:08 GMT 37.157204 -4.017473 19,175 39 470 1920
2019-06-15 16:28:03 GMT 37.149078 -4.025788 19,025 39 470 2048
2019-06-15 16:27:58 GMT 37.140354 -4.034789 18,875 39 470 1856
2019-06-15 16:27:55 GMT 37.134628 -4.040700 18,775 39 470 1536
2019-06-15 16:27:50 GMT 37.126247 -4.049358 18,650 39 469 1216
2019-06-15 16:27:47 GMT 37.123222 -4.052462 18,600 39 469 1216
2019-06-15 16:27:43 GMT 37.114189 -4.061777 18,500 39 467 1408
2019-06-15 16:27:39 GMT 37.108841 -4.067279 18,425 39 466 1600
2019-06-15 16:27:35 GMT 37.101528 -4.074793 18,325 39 465 1664
2019-06-15 16:27:32 GMT 37.096207 -4.080311 18,250 39 465 1664
2019-06-15 16:27:27 GMT 37.088196 -4.088492 18,100 39 464 1728
2019-06-15 16:27:22 GMT 37.079601 -4.097363 17,950 39 463 1728
2019-06-15 16:27:19 GMT 37.075600 -4.101483 17,875 39 463 1664
2019-06-15 16:27:14 GMT 37.067001 -4.110348 17,750 39 462 1664
2019-06-15 16:27:11 GMT 37.061680 -4.115753 17,675 39 462 1664
2019-06-15 16:27:08 GMT 37.057072 -4.120530 17,600 39 461 1664
2019-06-15 16:27:04 GMT 37.049484 -4.128292 17,475 39 460 1728
2019-06-15 16:27:01 GMT 37.044872 -4.133069 17,375 39 460 1792
2019-06-15 16:26:57 GMT 37.039940 -4.138144 17,300 39 460 1856
2019-06-15 16:26:53 GMT 37.032715 -4.145586 17,175 39 458 1728
2019-06-15 16:26:50 GMT 37.027451 -4.150962 17,100 39 458 1600
2019-06-15 16:26:46 GMT 37.020901 -4.157668 16,975 39 457 1536
2019-06-15 16:26:43 GMT 37.015362 -4.163400 16,900 39 456 1472
2019-06-15 16:26:39 GMT 37.009449 -4.169431 16,825 39 456 1408
2019-06-15 16:26:36 GMT 37.005890 -4.173110 16,700 39 454 1280
2019-06-15 16:26:33 GMT 36.999996 -4.179104 16,675 39 454 1344
2019-06-15 16:26:29 GMT 36.993202 -4.186090 16,600 39 452 1408
2019-06-15 16:26:26 GMT 36.988640 -4.190747 16,425 39 451 1536
2019-06-15 16:26:22 GMT 36.982494 -4.197076 16,450 39 450 1856
2019-06-15 16:26:18 GMT 36.975094 -4.204659 16,325 39 449 1984
2019-06-15 16:26:15 GMT 36.971230 -4.208600 16,250 39 449 2048
2019-06-15 16:26:12 GMT 36.966713 -4.213257 16,125 39 449 2048
2019-06-15 16:26:08 GMT 36.957733 -4.222490 15,950 39 449 1728
2019-06-15 16:26:05 GMT 36.954517 -4.225736 15,900 39 449 1536
2019-06-15 16:26:02 GMT 36.950001 -4.230333 15,850 39 447 1344
2019-06-15 16:25:55 GMT 36.937199 -4.243469 15,675 39 445 1344
2019-06-15 16:25:52 GMT 36.932732 -4.248007 15,600 39 444 1472
2019-06-15 16:25:45 GMT 36.917175 -4.263923 15,425 39 442 1856
2019-06-15 16:25:42 GMT 36.917175 -4.263923 15,350 39 442 1856
2019-06-15 16:25:34 GMT 36.906429 -4.274876 15,200 39 440 1856
2019-06-15 16:25:30 GMT 36.899166 -4.282280 15,000 39 439 1792
2019-06-15 16:25:24 GMT 36.889717 -4.291893 14,825 39 438 1408
2019-06-15 16:25:21 GMT 36.884674 -4.297057 14,750 39 437 1344
2019-06-15 16:25:14 GMT 36.873779 -4.308218 14,625 39 434 1408
2019-06-15 16:25:10 GMT 36.868469 -4.313653 14,525 39 433 1024
2019-06-15 16:25:03 GMT 36.857117 -4.325399 14,400 39 428 1088
2019-06-15 16:25:00 GMT 36.853127 -4.329509 14,350 39 426 1152
2019-06-15 16:24:53 GMT 36.841919 -4.341087 14,225 39 422 1088
2019-06-15 16:24:49 GMT 36.836472 -4.346638 14,150 38 420 960
2019-06-15 16:24:43 GMT 36.825195 -4.357657 14,050 34 413 512
2019-06-15 16:24:39 GMT 36.820496 -4.361744 14,000 32 411 512
2019-06-15 16:24:32 GMT 36.804432 -4.372909 13,875 24 400 704
2019-06-15 16:24:22 GMT 36.791473 -4.379482 13,775 19 391 1024
2019-06-15 16:24:19 GMT 36.785660 -4.382057 13,725 19 389 960
2019-06-15 16:24:11 GMT 36.773754 -4.387285 13,600 19 383 1024
2019-06-15 16:24:06 GMT 36.766071 -4.390674 13,525 19 381 1024
2019-06-15 16:24:00 GMT 36.756134 -4.395046 13,425 19 374 1088
2019-06-15 16:23:57 GMT 36.748581 -4.398365 13,350 19 372 1088
2019-06-15 16:23:50 GMT 36.737255 -4.403414 13,225 19 366 1024
2019-06-15 16:23:46 GMT 36.732464 -4.405518 13,150 19 363 1024
2019-06-15 16:23:40 GMT 36.722313 -4.409959 13,050 19 358 1024
2019-06-15 16:23:37 GMT 36.704903 -4.417614 12,900 19 350 1024
2019-06-15 16:23:29 GMT 36.704903 -4.417614 12,875 19 349 1088
2019-06-15 16:23:26 GMT 36.699463 -4.420052 12,825 19 344 1024
2019-06-15 16:23:19 GMT 36.685959 -4.425945 12,625 19 336 896
2019-06-15 16:23:13 GMT 36.682140 -4.427666 12,625 19 336 896
2019-06-15 16:23:10 GMT 36.676849 -4.429951 12,575 19 330 1024
2019-06-15 16:23:06 GMT 36.671104 -4.432516 12,525 19 326 1024
2019-06-15 16:22:59 GMT 36.662586 -4.436256 12,400 19 321 1344
2019-06-15 16:22:55 GMT 36.656982 -4.438763 12,350 19 319 1664
2019-06-15 16:22:49 GMT 36.647827 -4.442825 12,125 19 317 2560
2019-06-15 16:22:46 GMT 36.642563 -4.445171 11,975 19 316 2496
2019-06-15 16:22:38 GMT 36.632607 -4.449580 11,700 19 315 2368
2019-06-15 16:22:33 GMT 36.626816 -4.452095 11,500 19 314 2304
2019-06-15 16:22:26 GMT 36.614822 -4.457474 11,150 19 311 2368
2019-06-15 16:22:17 GMT 36.603928 -4.462337 10,925 20 310 2304
2019-06-15 16:22:14 GMT 36.599091 -4.464540 10,775 20 309 2304
2019-06-15 16:22:07 GMT 36.591595 -4.467988 10,550 20 307 2368
2019-06-15 16:22:03 GMT 36.585449 -4.470851 10,375 20 305 2496
2019-06-15 16:21:56 GMT 36.576370 -4.474983 10,125 19 305 2496
2019-06-15 16:21:52 GMT 36.568367 -4.478390 9,875 17 304 2176
2019-06-15 16:21:46 GMT 36.563736 -4.480076 9,725 11 303 1536
2019-06-15 16:21:43 GMT 36.558563 -4.481449 9,600 6 300 1472
2019-06-15 16:21:36 GMT 36.548355 -4.481964 9,400 355 292 1280
2019-06-15 16:21:32 GMT 36.543274 -4.481106 9,300 346 286 1216
2019-06-15 16:21:26 GMT 36.534622 -4.477787 9,125 336 280 1344
2019-06-15 16:21:22 GMT 36.531261 -4.475935 9,025 331 276 1408
2019-06-15 16:21:15 GMT 36.523682 -4.469948 8,825 320 269 2304
2019-06-15 16:21:11 GMT 36.518833 -4.464481 8,625 313 267 2304
2019-06-15 16:21:05 GMT 36.514366 -4.457352 8,375 301 265 2240
2019-06-15 16:21:01 GMT 36.512009 -4.451923 8,225 292 264 2304
2019-06-15 16:20:54 GMT 36.509571 -4.443561 7,950 281 263 2496
2019-06-15 16:20:46 GMT 36.508408 -4.430295 7,600 266 262 2432
2019-06-15 16:20:39 GMT 36.509663 -4.419776 7,325 251 262 1600
2019-06-15 16:20:33 GMT 36.511574 -4.412939 7,150 246 260 1600
2019-06-15 16:20:29 GMT 36.514664 -4.404602 7,025 245 255 1920
2019-06-15 16:20:26 GMT 36.516228 -4.400667 6,925 243 253 2816
2019-06-15 16:20:18 GMT 36.520157 -4.391727 6,650 239 253 2944
2019-06-15 16:20:15 GMT 36.522079 -4.387779 6,475 235 254 2880
2019-06-15 16:20:11 GMT 36.523773 -4.384975 6,325 229 254 2944
2019-06-15 16:20:05 GMT 36.529682 -4.377526 6,025 216 255 3392
2019-06-15 16:20:02 GMT 36.532566 -4.374955 5,875 211 257 3520
2019-06-15 16:19:52 GMT 36.544098 -4.369011 3,650 135 255 1856
2019-06-15 16:19:42 GMT 36.555496 -4.368610 4,775 169 264 3456
2019-06-15 16:19:34 GMT 36.565384 -4.372272 4,400 154 264 3136
2019-06-15 16:19:31 GMT 36.567806 -4.373786 4,300 149 263 3008
2019-06-15 16:19:21 GMT 36.577881 -4.382915 3,850 135 261 2560
2019-06-15 16:19:14 GMT 36.584801 -4.391376 3,550 135 258 1984
2019-06-15 16:19:10 GMT 36.587360 -4.394473 3,475 135 255 1856
2019-06-15 16:19:03 GMT 36.594040 -4.402771 3,225 135 250 2368
2019-06-15 16:19:00 GMT 36.596020 -4.405225 3,150 135 248 2432
2019-06-15 16:18:53 GMT 36.601364 -4.411869 2,825 134 246 2944
2019-06-15 16:18:50 GMT 36.603931 -4.415101 2,700 134 246 2880
2019-06-15 16:18:42 GMT 36.610519 -4.423370 2,350 134 243 2304
2019-06-15 16:18:39 GMT 36.612717 -4.426174 2,225 133 240 1728
2019-06-15 16:18:32 GMT 36.617798 -4.432812 2,025 133 234 896
2019-06-15 16:18:29 GMT 36.620365 -4.436139 1,950 134 218 768
2019-06-15 16:18:23 GMT 36.625019 -4.442100 1,875 133 215 1216
2019-06-15 16:18:18 GMT 36.628231 -4.446249 1,850 133 212 1216
2019-06-15 16:18:13 GMT 36.632172 -4.451294 1,725 134 206 1344
2019-06-15 16:18:07 GMT 36.635353 -4.455365 1,625 134 202 1216
2019-06-15 16:18:01 GMT 36.639496 -4.460621 1,500 134 195 1152
2019-06-15 16:17:55 GMT 36.643314 -4.465416 1,375 135 192 1152
2019-06-15 16:17:51 GMT 36.646061 -4.468455 1,300 141 187 640
2019-06-15 16:17:48 GMT 36.647827 -4.470177 1,250 145 183 576
2019-06-15 16:17:40 GMT 36.653412 -4.474640 1,150 147 167 2176
2019-06-15 16:17:35 GMT 36.656673 -4.477162 1,050 147 169 2304
2019-06-15 16:17:30 GMT 36.660259 -4.479967 875 136 164 2176
2019-06-15 16:17:06 GMT 36.672920 -4.496330 0 132 145
2019-06-15 16:17:01 GMT 36.675659 -4.500117 0 132 145
2019-06-15 16:16:54 GMT 36.678234 -4.503736 0 132 125
2019-06-15 16:16:44 GMT 36.681664 -4.508544 0 132 82
2019-06-15 16:16:33 GMT 36.683701 -4.511407 0 129 35
2019-06-15 16:15:47 GMT 36.684402 -4.512362 0 216 8
2019-06-15 16:15:41 GMT 36.684593 -4.512152 0 230 12
2019-06-15 16:15:32 GMT 36.684814 -4.511626 0 253 10
2019-06-15 16:14:50 GMT 36.684944 -4.511173 0 253 0
2019-06-15 16:14:36 GMT 36.684940 -4.511175 0 253 0
2019-06-15 16:14:06 GMT 36.684944 -4.511173 0 253 0
2019-06-15 16:13:46 GMT 36.684940 -4.511175 0 253 0
2019-06-15 16:12:56 GMT 36.684944 -4.511173 0 253 0
2019-06-15 16:12:36 GMT 36.684940 -4.511175 0 253 0
2019-06-15 16:12:23 GMT 36.684944 -4.511173 0 253 0
2019-06-15 16:12:12 GMT 36.684940 -4.511161 0 253 2
2019-06-15 16:12:00 GMT 36.685001 -4.510940 0 255 6
2019-06-15 16:11:38 GMT 36.684826 -4.510031 0 312 13
2019-06-15 16:11:28 GMT 36.684402 -4.509430 0 312 14
2019-06-15 16:11:19 GMT 36.684036 -4.508929 0 312 15
2019-06-15 16:11:08 GMT 36.683479 -4.508135 0 312 19
2019-06-15 16:10:50 GMT 36.682468 -4.506741 0 312 17
2019-06-15 16:10:39 GMT 36.681942 -4.505982 0 312 16
2019-06-15 16:10:27 GMT 36.681416 -4.505253 0 312 15
2019-06-15 16:10:17 GMT 36.680988 -4.504643 0 312 13
2019-06-15 16:10:08 GMT 36.680649 -4.504166 0 312 12
2019-06-15 16:09:52 GMT 36.680008 -4.503279 0 312 18
2019-06-15 16:09:47 GMT 36.679733 -4.502907 0 312 22

Making use of Plane Finder data

You are free to use the raw flight data, aircraft information and images provided in this report for your own purposes provided the data is correctly attributed to Plane Finder. We ask that you please credit Plane Finder and link to planefinder.net in close proximity to the content.

Optionally one of the following logos (no smaller then 150x24px) can be used and must link to planefinder.net

Embedding the Plane Finder map

You are welcome to embed the Plane Finder playback map on your website to offer visitors a more interactive experience. We suggest using the following HTML code:

<iframe src="//planefinder.net/data/report/LX2119-HB-ION-7700-squawk-2019-06-15/map" width="800" height="600" seamless="seamless"></iframe>

Where our data comes from

Plane Finder has a global network of data feeds and antenna radars that receive data broadcast directly from aircraft. The primary technologies used are ADS-B and MLAT. We also show feeds from the FAA and a FLARM glider feed.

Click here to find out more about the Plane Finder network.

How we collect our data